Provisional Data: Ninemile Run near Walton, PA


Please select a monitoring station.
Please select start date.
Please select start date.

Toggle Unit: C/F Toggle Unit: C/F
Sample Time Temperature (C) Temperature (F) Specific Conductivity (mS/cm) pH   Turbidity (NTU+) DO (mg/L)
8/24/2022 12:00:00 AM 18.16 64.688 0.089 7.06 1.64 8.62
8/24/2022 12:15:00 AM 18.05 64.49 0.089 7.07 1.57 8.71
8/24/2022 12:30:00 AM 17.94 64.292 0.089 7.08 1.81 8.74
8/24/2022 12:45:00 AM 17.84 64.112 0.089 7.08 1.49 8.76
8/24/2022 1:00:00 AM 17.72 63.896 0.089 7.07 1.84 8.76
8/24/2022 1:15:00 AM 17.64 63.752 0.089 7.07 1.77 8.78
8/24/2022 1:30:00 AM 17.53 63.554 0.089 7.07 1.67 8.8
8/24/2022 1:45:00 AM 17.42 63.356 0.089 7.07 1.56 8.86
8/24/2022 2:00:00 AM 17.34 63.212 0.089 7.06 1.69 8.84
8/24/2022 2:15:00 AM 17.24 63.032 0.089 7.06 1.59 8.86
8/24/2022 2:30:00 AM 17.16 62.888 0.089 7.05 1.62 8.87
8/24/2022 2:45:00 AM 17.06 62.708 0.089 7.06 1.63 8.87
8/24/2022 3:00:00 AM 16.99 62.582 0.09 7.06 1.65 8.92
8/24/2022 3:15:00 AM 16.92 62.456 0.09 7.05 2.06 8.86
8/24/2022 3:30:00 AM 16.83 62.294 0.09 7.04 1.92 8.89
8/24/2022 3:45:00 AM 16.78 62.204 0.09 7.05 1.76 8.91
8/24/2022 4:00:00 AM 16.72 62.096 0.09 7.05 1.59 8.93
8/24/2022 4:15:00 AM 16.63 61.934 0.09 7.05 1.95 8.96
8/24/2022 4:30:00 AM 16.54 61.772 0.09 7.05 1.69 8.99
8/24/2022 4:45:00 AM 16.47 61.646 0.09 7.06 1.61 9.04
8/24/2022 5:00:00 AM 16.43 61.574 0.09 7.04 1.68 9.02
8/24/2022 5:15:00 AM 16.34 61.412 0.09 7.05 1.37 9.07
8/24/2022 5:30:00 AM 16.25 61.25 0.09 7.05 1.78 9.11
8/24/2022 5:45:00 AM 16.17 61.106 0.09 7.06 1.67 9.11
8/24/2022 6:00:00 AM 16.1 60.98 0.09 7.06 1.5 9.1
8/24/2022 6:15:00 AM 16.01 60.818 0.09 7.06 2.06 9.12
8/24/2022 6:30:00 AM 15.94 60.692 0.09 7.06 2.67 9.17
8/24/2022 6:45:00 AM 15.86 60.548 0.09 7.06 2.43 9.18
8/24/2022 7:00:00 AM 15.77 60.386 0.09 7.06 1.56 9.23
8/24/2022 7:15:00 AM 15.69 60.242 0.09 7.07 1.49 9.28
8/24/2022 7:30:00 AM 15.63 60.134 0.09 7.07 1.74 9.31
8/24/2022 7:45:00 AM 15.59 60.062 0.09 7.08 1.77 9.4
8/24/2022 8:00:00 AM 15.55 59.99 0.09 7.08 1.64 9.4
8/24/2022 8:15:00 AM 15.51 59.918 0.09 7.08 1.64 9.5
8/24/2022 8:30:00 AM 15.48 59.864 0.09 7.09 1.52 9.55
8/24/2022 8:45:00 AM 15.46 59.828 0.09 7.11 2.38 9.64
8/24/2022 9:00:00 AM 15.48 59.864 0.089 7.13 1.47 9.76
8/24/2022 9:15:00 AM 15.56 60.008 0.089 7.16 1.69 9.9
8/24/2022 9:30:00 AM 15.65 60.17 0.089 7.14 1.88 9.94
8/24/2022 9:45:00 AM 15.87 60.566 0.089 7.19 1.67 10.05
8/24/2022 10:00:00 AM 16.1 60.98 0.088 7.17 1.52 10.07
8/24/2022 10:15:00 AM 16.41 61.538 0.088 7.25 1.42 10.26
8/24/2022 10:30:00 AM 16.71 62.078 0.088 7.28 1.6 10.27
8/24/2022 10:45:00 AM 17.06 62.708 0.087 7.3 1.61 10.29
8/24/2022 11:00:00 AM 17.39 63.302 0.087 7.31 2.46 10.28
8/24/2022 11:15:00 AM 17.69 63.842 0.087 7.36 1.87 10.26
8/24/2022 11:30:00 AM 17.98 64.364 0.086 7.35 1.65 10.23
8/24/2022 11:45:00 AM 18.26 64.868 0.086 7.36 1.62 10.12
8/24/2022 12:00:00 PM 18.56 65.408 0.086 7.39 1.48 10.14
8/24/2022 12:15:00 PM 18.9 66.02 0.086 7.42 1.49 10.06
8/24/2022 12:30:00 PM 19.16 66.488 0.085 7.44 1.46 10.07
8/24/2022 12:45:00 PM 19.43 66.974 0.085 7.44 1.49 10.02
8/24/2022 1:00:00 PM 19.64 67.352 0.085 7.48 1.51 9.96
8/24/2022 1:15:00 PM 19.82 67.676 0.085 7.49 1.47 9.95
8/24/2022 1:30:00 PM 20.05 68.09 0.085 7.47 1.4 9.88
8/24/2022 1:45:00 PM 20.21 68.378 0.085 7.47 1.63 9.73
8/24/2022 2:00:00 PM 20.43 68.774 0.085 7.45 1.86 9.67
8/24/2022 2:15:00 PM 20.68 69.224 0.085 7.46 1.44 9.65
8/24/2022 2:30:00 PM 20.9 69.62 0.085 7.5 1.45 9.68
8/24/2022 2:45:00 PM 21.13 70.034 0.085 7.49 1.93 9.66
8/24/2022 3:00:00 PM 21.28 70.304 0.085 7.51 1.48 9.6
8/24/2022 3:15:00 PM 21.37 70.466 0.085 7.5 1.58 9.55
8/24/2022 3:30:00 PM 21.53 70.754 0.085 7.5 1.79 9.49
8/24/2022 3:45:00 PM 21.7 71.06 0.084 7.51 1.77 9.41
8/24/2022 4:00:00 PM 21.78 71.204 0.085 7.47 1.66 9.35
8/24/2022 4:15:00 PM 21.9 71.42 0.085 7.47 1.58 9.28
8/24/2022 4:30:00 PM 21.99 71.582 0.085 7.44 1.69 9.17
8/24/2022 4:45:00 PM 22.05 71.69 0.085 7.48 1.55 9.13
8/24/2022 5:00:00 PM 22.01 71.618 0.085 7.38 1.62 8.99
8/24/2022 5:15:00 PM 21.98 71.564 0.085 7.33 2.29 8.91
8/24/2022 5:30:00 PM 21.87 71.366 0.085 7.28 1.94 8.83
8/24/2022 5:45:00 PM 21.76 71.168 0.085 7.22 2.36 8.65
8/24/2022 6:00:00 PM 21.66 70.988 0.085 7.17 3.23 8.48
8/24/2022 6:15:00 PM 21.53 70.754 0.085 7.18 1.85 8.42
8/24/2022 6:30:00 PM 21.37 70.466 0.085 7.25 1.78 8.56
8/24/2022 6:45:00 PM 21.21 70.17799 0.086 7.2 1.82 8.47
8/24/2022 7:00:00 PM 21.01 69.818 0.086 7.24 1.57 8.56
8/24/2022 7:15:00 PM 20.81 69.458 0.086 7.22 1.92 8.54
8/24/2022 7:30:00 PM 20.58 69.044 0.087 7.21 1.59 8.51
8/24/2022 7:45:00 PM 20.33 68.594 0.087 7.21 1.84 8.55
8/24/2022 8:00:00 PM 20.1 68.18 0.087 7.2 1.67 8.56
8/24/2022 8:15:00 PM 19.89 67.802 0.087 7.19 1.55 8.54
8/24/2022 8:30:00 PM 19.68 67.424 0.088 7.16 1.7 8.49
8/24/2022 8:45:00 PM 19.46 67.028 0.088 7.15 1.66 8.5
8/24/2022 9:00:00 PM 19.24 66.632 0.088 7.14 2.64 8.5
8/24/2022 9:15:00 PM 19.06 66.308 0.089 7.13 2.05 8.51
8/24/2022 9:30:00 PM 18.84 65.912 0.089 7.13 2.21 8.57
8/24/2022 9:45:00 PM 18.64 65.552 0.089 7.13 1.62 8.61
8/24/2022 10:00:00 PM 18.49 65.282 0.089 7.12 1.51 8.62
8/24/2022 10:15:00 PM 18.34 65.012 0.089 7.11 1.59 8.61
8/24/2022 10:30:00 PM 18.16 64.688 0.089 7.11 1.71 8.7
8/24/2022 10:45:00 PM 18.05 64.49 0.09 7.09 1.72 8.67
8/24/2022 11:00:00 PM 17.92 64.256 0.09 7.07 1.55 8.67
8/24/2022 11:15:00 PM 17.78 64.004 0.09 7.09 1.52 8.75
8/24/2022 11:30:00 PM 17.64 63.752 0.09 7.09 1.82 8.67
8/24/2022 11:45:00 PM 17.53 63.554 0.091 7.09 1.49 8.8
8/25/2022 12:00:00 AM 17.42 63.356 0.09 7.09 1.89 8.78
8/25/2022 12:15:00 AM 17.31 63.158 0.09 7.09 1.47 8.86
8/25/2022 12:30:00 AM 17.2 62.96 0.09 7.09 1.51 8.88
8/25/2022 12:45:00 AM 17.06 62.708 0.09 7.09 1.59 8.93
8/25/2022 1:00:00 AM 16.96 62.528 0.09 7.09 1.55 8.94
8/25/2022 1:15:00 AM 16.87 62.366 0.09 7.09 1.42 8.95
8/25/2022 1:30:00 AM 16.76 62.168 0.091 7.09 1.44 8.99
8/25/2022 1:45:00 AM 16.66 61.988 0.091 7.08 1.55 9.01
8/25/2022 2:00:00 AM 16.55 61.79 0.091 7.08 1.52 9.04
8/25/2022 2:15:00 AM 16.47 61.646 0.091 7.07 1.6 9.02
8/25/2022 2:30:00 AM 16.37 61.466 0.091 7.06 1.52 9.05
8/25/2022 2:45:00 AM 16.27 61.286 0.091 7.07 1.55 9.06
8/25/2022 3:00:00 AM 16.17 61.106 0.091 7.06 1.39 9.09
8/25/2022 3:15:00 AM 16.08 60.944 0.091 7.07 1.69 9.1
8/25/2022 3:30:00 AM 15.97 60.746 0.091 7.07 1.65 9.14
8/25/2022 3:45:00 AM 15.88 60.584 0.091 7.07 1.45 9.15
8/25/2022 4:00:00 AM 15.78 60.404 0.091 7.07 1.7 9.18
8/25/2022 4:15:00 AM 15.69 60.242 0.091 7.07 1.54 9.22
8/25/2022 4:30:00 AM 15.58 60.044 0.091 7.07 1.41 9.25
8/25/2022 4:45:00 AM 15.5 59.9 0.091 7.06 1.46 9.27
8/25/2022 5:00:00 AM 15.41 59.738 0.091 7.06 1.52 9.29
8/25/2022 5:15:00 AM 15.33 59.594 0.091 7.06 1.47 9.3
8/25/2022 5:30:00 AM 15.25 59.45 0.091 7.07 1.44 9.33
8/25/2022 5:45:00 AM 15.19 59.342 0.091 7.07 1.45 9.34
8/25/2022 6:00:00 AM 15.14 59.252 0.091 7.07 1.44 9.34
8/25/2022 6:15:00 AM 15.07 59.126 0.091 7.07 1.9 9.38
8/25/2022 6:30:00 AM 15.04 59.072 0.091 7.06 1.43 9.39
8/25/2022 6:45:00 AM 15 59 0.091 7.06 1.49 9.41
8/25/2022 7:00:00 AM 14.96 58.928 0.091 7.06 1.54 9.4
8/25/2022 7:15:00 AM 14.93 58.874 0.091 7.06 1.61 9.37
8/25/2022 7:30:00 AM 14.88 58.784 0.091 7.06 1.53 9.47
8/25/2022 7:45:00 AM 14.83 58.694 0.091 7.08 1.71 9.53
8/25/2022 8:00:00 AM 14.82 58.676 0.091 7.07 1.5 9.56
8/25/2022 8:15:00 AM 14.8 58.64 0.091 7.09 1.58 9.64
8/25/2022 8:30:00 AM 14.78 58.604 0.091 7.1 1.47 9.71
8/25/2022 8:45:00 AM 14.8 58.64 0.091 7.11 1.46 9.77
8/25/2022 9:00:00 AM 14.85 58.73 0.09 7.12 1.48 9.84
8/25/2022 9:15:00 AM 14.93 58.874 0.09 7.1 1.63 9.88
8/25/2022 9:30:00 AM 15.08 59.144 0.09 7.13 1.65 10.06
8/25/2022 9:45:00 AM 15.28 59.504 0.09 7.17 4.3 10.09
8/25/2022 10:00:00 AM 15.53 59.954 0.089 7.21 1.91 10.32
8/25/2022 10:15:00 AM 15.87 60.566 0.089 7.25 1.5 10.41
8/25/2022 10:30:00 AM 16.14 61.052 0.088 7.27 1.52 10.42
8/25/2022 10:45:00 AM 16.53 61.754 0.088 7.33 3.42 10.49
8/25/2022 11:00:00 AM 16.88 62.384 0.088 7.32 1.61 10.48
8/25/2022 11:15:00 AM 17.21 62.978 0.088 7.36 1.57 10.49
8/25/2022 11:30:00 AM 17.51 63.518 0.087 7.36 1.37 10.42
8/25/2022 11:45:00 AM 17.83 64.094 0.087 7.41 1.35 10.39
8/25/2022 12:00:00 PM 18.19 64.742 0.087 7.39 1.49 10.28
8/25/2022 12:15:00 PM 18.57 65.426 0.087 7.42 1.35 10.2
8/25/2022 12:30:00 PM 18.99 66.182 0.086 7.45 1.74 10.17
8/25/2022 12:45:00 PM 19.38 66.884 0.086 7.47 1.36 10.16
8/25/2022 1:00:00 PM 19.79 67.622 0.086 7.54 1.39 10.16
8/25/2022 1:15:00 PM 20.18 68.324 0.085 7.52 1.63 10.08
8/25/2022 1:30:00 PM 20.45 68.81 0.085 7.52 1.37 9.95
8/25/2022 1:45:00 PM 20.6 69.08 0.085 7.51 1.41 9.83
8/25/2022 2:00:00 PM 20.62 69.116 0.085 7.48 1.61 9.78
8/25/2022 2:15:00 PM 20.62 69.116 0.086 7.47 1.63 9.73
8/25/2022 2:30:00 PM 20.65 69.17 0.086 7.46 1.58 9.59
8/25/2022 2:45:00 PM 20.64 69.152 0.086 7.38 2 9.47
8/25/2022 3:00:00 PM 20.72 69.296 0.086 7.4 1.92 9.46
8/25/2022 3:15:00 PM 20.89 69.602 0.086 7.43 1.65 9.53
8/25/2022 3:30:00 PM 21.07 69.926 0.086 7.48 1.47 9.5
8/25/2022 3:45:00 PM 21.14 70.052 0.086 7.47 1.52 9.44
8/25/2022 4:00:00 PM 21.19 70.142 0.086 7.48 1.75 9.45
8/25/2022 4:15:00 PM 21.34 70.412 0.086 7.48 1.68 9.53
8/25/2022 4:30:00 PM 21.49 70.682 0.086 7.45 2.01 9.41
8/25/2022 4:45:00 PM 21.56 70.808 0.086 7.46 1.78 9.39
8/25/2022 5:00:00 PM 21.62 70.916 0.086 7.53 1.89 9.36
8/25/2022 5:15:00 PM 21.62 70.916 0.086 7.37 2.94 9.17
8/25/2022 5:30:00 PM 21.65 70.97 0.086 7.38 4.12 9.11
8/25/2022 5:45:00 PM 21.64 70.952 0.086 7.34 4.76 9.07
8/25/2022 6:00:00 PM 21.66 70.988 0.086 7.35 7.27 8.96
8/25/2022 6:15:00 PM 21.64 70.952 0.086 7.32 7.93 8.82
8/25/2022 6:30:00 PM 21.6 70.88 0.086 7.26 8 8.72
8/25/2022 6:45:00 PM 21.51 70.718 0.086 7.18 8.94 8.48
8/25/2022 7:00:00 PM 21.44 70.592 0.086 7.12 9.78 8.3
8/25/2022 7:15:00 PM 21.32 70.376 0.086 7.19 7.81 8.3
8/25/2022 7:30:00 PM 21.15 70.07 0.087 7.16 4.69 8.28
8/25/2022 7:45:00 PM 20.96 69.728 0.087 7.17 4.2 8.29
8/25/2022 8:00:00 PM 20.77 69.386 0.087 7.15 3.64 8.25
8/25/2022 8:15:00 PM 20.56 69.008 0.088 7.16 2.88 8.26
8/25/2022 8:30:00 PM 20.38 68.684 0.088 7.14 3.28 8.23
8/25/2022 8:45:00 PM 20.15 68.27 0.089 7.11 2.48 8.24
8/25/2022 9:00:00 PM 19.91 67.838 0.089 7.13 2.26 8.31
8/25/2022 9:15:00 PM 19.69 67.442 0.089 7.13 2.25 8.33
8/25/2022 9:30:00 PM 19.48 67.064 0.089 7.12 2.08 8.36
8/25/2022 9:45:00 PM 19.29 66.722 0.09 7.09 1.89 8.31
8/25/2022 10:00:00 PM 19.11 66.398 0.09 7.1 2.64 8.38
8/25/2022 10:15:00 PM 18.92 66.056 0.09 7.1 1.85 8.47
8/25/2022 10:30:00 PM 18.76 65.768 0.09 7.1 1.87 8.48
8/25/2022 10:45:00 PM 18.62 65.516 0.09 7.06 1.96 8.43
8/25/2022 11:00:00 PM 18.5 65.3 0.09 7.06 1.73 8.51
8/25/2022 11:15:00 PM 18.35 65.03 0.09 7.09 1.7 8.55
8/25/2022 11:30:00 PM 18.24 64.832 0.091 7.09 1.57 8.58
8/25/2022 11:45:00 PM 18.15 64.67 0.091 7.07 9.6 8.47
8/26/2022 12:00:00 AM 18.01 64.418 0.091 7.07 1.61 8.6
8/26/2022 12:15:00 AM 17.91 64.238 0.091 7.08 1.58 8.65
8/26/2022 12:30:00 AM 17.85 64.13 0.091 7.07 1.8 8.62
8/26/2022 12:45:00 AM 17.75 63.95 0.091 7.08 1.7 8.67
8/26/2022 1:00:00 AM 17.67 63.806 0.091 7.07 1.55 8.7
8/26/2022 1:15:00 AM 17.61 63.698 0.091 7.07 1.67 8.7
8/26/2022 1:30:00 AM 17.54 63.572 0.091 7.05 1.73 8.7
8/26/2022 1:45:00 AM 17.49 63.482 0.091 7.06 1.75 8.69
8/26/2022 2:00:00 AM 17.4 63.32 0.091 7.06 1.57 8.74
8/26/2022 2:15:00 AM 17.33 63.194 0.091 7.07 1.57 8.75
8/26/2022 2:30:00 AM 17.27 63.086 0.091 7.06 1.6 8.76
8/26/2022 2:45:00 AM 17.22 62.996 0.091 7.06 1.74 8.78
8/26/2022 3:00:00 AM 17.16 62.888 0.091 7.05 2.91 8.78
8/26/2022 3:15:00 AM 17.09 62.762 0.092 7.06 3.55 8.85
8/26/2022 3:30:00 AM 17.04 62.672 0.092 7.05 1.92 8.82
8/26/2022 3:45:00 AM 16.98 62.564 0.092 7.06 1.66 8.87
8/26/2022 4:00:00 AM 16.91 62.438 0.092 7.06 1.57 8.88
8/26/2022 4:15:00 AM 16.85 62.33 0.092 7.05 1.76 8.87
8/26/2022 4:30:00 AM 16.8 62.24 0.092 7.05 1.63 8.87
8/26/2022 4:45:00 AM 16.74 62.132 0.092 7.06 1.71 8.89
8/26/2022 5:00:00 AM 16.68 62.024 0.092 7.06 1.49 8.91
8/26/2022 5:15:00 AM 16.64 61.952 0.092 7.06 1.43 8.94
8/26/2022 5:30:00 AM 16.6 61.88 0.092 7.06 1.38 8.95
8/26/2022 5:45:00 AM 16.56 61.808 0.092 7.06 1.54 8.98
8/26/2022 6:00:00 AM 16.51 61.718 0.092 7.06 1.71 8.99
8/26/2022 6:15:00 AM 16.46 61.628 0.092 7.06 1.69 9.04
8/26/2022 6:30:00 AM 16.43 61.574 0.092 7.06 1.84 8.99
8/26/2022 6:45:00 AM 16.36 61.448 0.092 7.07 1.49 9.03
8/26/2022 7:00:00 AM 16.33 61.394 0.092 7.05 2.14 9.03
8/26/2022 7:15:00 AM 16.28 61.304 0.092 7.05 1.6 9.05
8/26/2022 7:30:00 AM 16.23 61.214 0.092 7.07 1.48 9.14
8/26/2022 7:45:00 AM 16.23 61.214 0.092 7.06 1.53 9.17
8/26/2022 8:00:00 AM 16.23 61.214 0.092 7.08 1.54 9.25
8/26/2022 8:15:00 AM 16.24 61.232 0.092 7.09 1.69 9.32
8/26/2022 8:30:00 AM 16.26 61.268 0.092 7.11 2.17 9.42
8/26/2022 8:45:00 AM 16.3 61.34 0.091 7.12 1.72 9.54
8/26/2022 9:00:00 AM 16.37 61.466 0.091 7.14 1.59 9.62
8/26/2022 9:15:00 AM 16.48 61.664 0.091 7.17 1.53 9.81
8/26/2022 9:30:00 AM 16.64 61.952 0.091 7.22 1.52 10
8/26/2022 9:45:00 AM 16.8 62.24 0.091 7.21 1.63 9.92
8/26/2022 10:00:00 AM 17.02 62.636 0.09 7.25 1.52 10.09
8/26/2022 10:15:00 AM 17.35 63.23 0.089 7.33 2.19 10.24
8/26/2022 10:30:00 AM 17.72 63.896 0.089 7.4 1.35 10.41
8/26/2022 10:45:00 AM 18.05 64.49 0.088 7.42 1.73 10.41
8/26/2022 11:00:00 AM 18.28 64.904 0.088 7.43 1.49 10.41
8/26/2022 11:15:00 AM 18.47 65.246 0.087 7.47 1.43 10.41
8/26/2022 11:30:00 AM 18.77 65.786 0.087 7.52 1.49 10.37
8/26/2022 11:45:00 AM 18.98 66.164 0.087 7.55 1.43 10.34
8/26/2022 12:00:00 PM 19.2 66.56 0.086 7.53 1.57 10.24
8/26/2022 12:15:00 PM 19.44 66.992 0.086 7.56 1.44 10.19
8/26/2022 12:30:00 PM 19.61 67.298 0.086 7.54 1.68 10.08
8/26/2022 12:45:00 PM 19.81 67.658 0.086 7.6 1.49 10.1
8/26/2022 1:00:00 PM 19.96 67.92799 0.086 7.61 1.52 10.1
8/26/2022 1:15:00 PM 20.12 68.216 0.086 7.59 1.62 10
8/26/2022 1:30:00 PM 20.21 68.378 0.086 7.59 1.44 9.94
8/26/2022 1:45:00 PM 20.36 68.648 0.086 7.59 2.29 9.93
8/26/2022 2:00:00 PM 20.53 68.954 0.086 7.61 1.63 9.89
8/26/2022 2:15:00 PM 20.82 69.476 0.085 7.63 1.56 9.87
8/26/2022 2:30:00 PM 21.07 69.926 0.085 7.63 1.38 9.85
8/26/2022 2:45:00 PM 21.25 70.25 0.085 7.65 1.53 9.82
8/26/2022 3:00:00 PM 21.31 70.358 0.085 7.61 1.77 9.77
8/26/2022 3:15:00 PM 21.34 70.412 0.085 7.59 1.91 9.59
8/26/2022 3:30:00 PM 21.28 70.304 0.086 7.5 1.84 9.47
8/26/2022 3:45:00 PM 21.3 70.34 0.086 7.43 1.7 9.36
8/26/2022 4:00:00 PM 21.32 70.376 0.086 7.47 2.14 9.32
8/26/2022 4:15:00 PM 21.34 70.412 0.086 7.49 1.62 9.34
8/26/2022 4:30:00 PM 21.3 70.34 0.086 7.42 2.14 9.24
8/26/2022 4:45:00 PM 21.29 70.32201 0.086 7.44 2.06 9.22
8/26/2022 5:00:00 PM 21.25 70.25 0.086 7.41 1.64 9.17
8/26/2022 5:15:00 PM 21.21 70.17799 0.086 7.4 1.62 9.09
8/26/2022 5:30:00 PM 21.16 70.088 0.086 7.42 1.54 9.04
8/26/2022 5:45:00 PM 21.12 70.016 0.086 7.41 1.62 9.03
8/26/2022 6:00:00 PM 21.06 69.908 0.086 7.41 1.53 9.07
8/26/2022 6:15:00 PM 20.96 69.728 0.086 7.42 1.51 9.08
8/26/2022 6:30:00 PM 20.89 69.602 0.086 7.43 1.47 9.05
8/26/2022 6:45:00 PM 20.79 69.422 0.086 7.36 1.73 8.92
8/26/2022 7:00:00 PM 20.69 69.242 0.086 7.35 1.74 8.87
8/26/2022 7:15:00 PM 20.59 69.062 0.087 7.29 1.66 8.75
8/26/2022 7:30:00 PM 20.48 68.864 0.087 7.26 1.61 8.6
8/26/2022 7:45:00 PM 20.33 68.594 0.087 7.24 1.55 8.59
8/26/2022 8:00:00 PM 20.24 68.432 0.088 7.21 1.8 8.52
8/26/2022 8:15:00 PM 20.11 68.198 0.088 7.2 1.5 8.45
8/26/2022 8:30:00 PM 20.01 68.018 0.088 7.2 1.64 8.44
8/26/2022 8:45:00 PM 19.89 67.802 0.089 7.17 1.92 8.38
8/26/2022 9:00:00 PM 19.73 67.514 0.089 7.16 1.47 8.37
8/26/2022 9:15:00 PM 19.59 67.262 0.089 7.15 1.53 8.4
8/26/2022 9:30:00 PM 19.46 67.028 0.089 7.14 1.47 8.38
8/26/2022 9:45:00 PM 19.31 66.758 0.09 7.14 1.67 8.4
8/26/2022 10:00:00 PM 19.21 66.578 0.09 7.12 1.63 8.37
8/26/2022 10:15:00 PM 19.05 66.29 0.09 7.11 1.57 8.4
8/26/2022 10:30:00 PM 18.93 66.074 0.091 7.11 1.52 8.43
8/26/2022 10:45:00 PM 18.84 65.912 0.091 7.09 1.63 8.4
8/26/2022 11:00:00 PM 18.72 65.696 0.091 7.09 1.48 8.43
8/26/2022 11:15:00 PM 18.59 65.462 0.091 7.09 1.57 8.48
8/26/2022 11:30:00 PM 18.47 65.246 0.091 7.09 1.56 8.5
8/26/2022 11:45:00 PM 18.36 65.048 0.091 7.09 1.69 8.53
8/27/2022 12:00:00 AM 18.28 64.904 0.091 7.08 1.75 8.54
8/27/2022 12:15:00 AM 18.16 64.688 0.092 7.08 1.65 8.54
8/27/2022 12:30:00 AM 18.08 64.544 0.092 7.08 1.57 8.59
8/27/2022 12:45:00 AM 17.97 64.346 0.092 7.08 1.56 8.58
8/27/2022 1:00:00 AM 17.89 64.202 0.092 7.07 1.85 8.63
8/27/2022 1:15:00 AM 17.78 64.004 0.092 7.07 1.79 8.66
8/27/2022 1:30:00 AM 17.69 63.842 0.092 7.07 1.6 8.68
8/27/2022 1:45:00 AM 17.64 63.752 0.092 7.07 1.61 8.69
8/27/2022 2:00:00 AM 17.58 63.644 0.092 7.08 1.68 8.73
8/27/2022 2:15:00 AM 17.53 63.554 0.092 7.07 1.48 8.75
8/27/2022 2:30:00 AM 17.46 63.428 0.092 7.08 1.65 8.79
8/27/2022 2:45:00 AM 17.43 63.374 0.092 7.07 2.14 8.78
8/27/2022 3:00:00 AM 17.39 63.302 0.092 7.07 1.92 8.79
8/27/2022 3:15:00 AM 17.35 63.23 0.092 7.07 1.59 8.8
8/27/2022 3:30:00 AM 17.3 63.14 0.092 7.06 1.95 8.78
8/27/2022 3:45:00 AM 17.24 63.032 0.092 7.06 1.52 8.8
8/27/2022 4:00:00 AM 17.17 62.906 0.092 7.06 1.61 8.81
8/27/2022 4:15:00 AM 17.12 62.816 0.092 7.06 1.61 8.82
8/27/2022 4:30:00 AM 17.08 62.744 0.092 7.06 1.47 8.8
8/27/2022 4:45:00 AM 17.03 62.654 0.092 7.05 1.37 8.82
8/27/2022 5:00:00 AM 16.98 62.564 0.092 7.05 1.56 8.82
8/27/2022 5:15:00 AM 16.92 62.456 0.092 7.06 1.6 8.88
8/27/2022 5:30:00 AM 16.9 62.42 0.092 7.05 2.06 8.87
8/27/2022 5:45:00 AM 16.86 62.348 0.092 7.05 1.55 8.9
8/27/2022 6:00:00 AM 16.83 62.294 0.092 7.05 2.53 8.9
8/27/2022 6:15:00 AM 16.81 62.258 0.092 7.05 2.42 8.9
8/27/2022 6:30:00 AM 16.79 62.222 0.092 7.04 1.75 8.91
8/27/2022 6:45:00 AM 16.76 62.168 0.092 7.04 1.85 8.9
8/27/2022 7:00:00 AM 16.74 62.132 0.092 7.05 1.63 8.94
8/27/2022 7:15:00 AM 16.72 62.096 0.092 7.05 1.54 8.95
8/27/2022 7:30:00 AM 16.7 62.06 0.092 7.06 1.46 8.99
8/27/2022 7:45:00 AM 16.67 62.006 0.092 7.06 1.71 9.05
8/27/2022 8:00:00 AM 16.66 61.988 0.092 7.08 2.3 9.11
8/27/2022 8:15:00 AM 16.67 62.006 0.092 7.1 1.57 9.25
8/27/2022 8:30:00 AM 16.7 62.06 0.092 7.11 1.53 9.31
8/27/2022 8:45:00 AM 16.75 62.15 0.092 7.13 1.48 9.41
8/27/2022 9:00:00 AM 16.79 62.222 0.092 7.14 1.44 9.52
8/27/2022 9:15:00 AM 16.83 62.294 0.092 7.17 1.45 9.59
8/27/2022 9:30:00 AM 16.89 62.402 0.092 7.19 1.49 9.67
8/27/2022 9:45:00 AM 16.96 62.528 0.092 7.21 1.66 9.78
8/27/2022 10:00:00 AM 17.03 62.654 0.091 7.24 1.48 9.87
8/27/2022 10:15:00 AM 17.09 62.762 0.091 7.24 1.37 9.89
8/27/2022 10:30:00 AM 17.14 62.852 0.091 7.26 1.41 9.95
8/27/2022 10:45:00 AM 17.21 62.978 0.091 7.29 1.4 9.97
8/27/2022 11:00:00 AM 17.3 63.14 0.091 7.31 1.46 10.06
8/27/2022 11:15:00 AM 17.42 63.356 0.09 7.35 1.31 10.15
8/27/2022 11:30:00 AM 17.56 63.608 0.09 7.38 1.4 10.2
8/27/2022 11:45:00 AM 17.68 63.824 0.09 7.42 1.5 10.28
8/27/2022 12:00:00 PM 17.92 64.256 0.089 7.46 1.36 10.32
8/27/2022 12:15:00 PM 18.09 64.562 0.089 7.48 1.39 10.37
8/27/2022 12:30:00 PM 18.3 64.94 0.088 7.54 1.64 10.36
8/27/2022 12:45:00 PM 18.48 65.264 0.088 7.53 1.47 10.36
8/27/2022 1:00:00 PM 18.85 65.93 0.087 7.57 1.47 10.33
8/27/2022 1:15:00 PM 19.23 66.614 0.086 7.58 1.36 10.27
8/27/2022 1:30:00 PM 19.42 66.956 0.086 7.57 1.46 10.18
8/27/2022 1:45:00 PM 19.6 67.28 0.086 7.6 1.34 10.11
8/27/2022 2:00:00 PM 19.89 67.802 0.086 7.58 1.74 10.02
8/27/2022 2:15:00 PM 20.18 68.324 0.086 7.59 1.46 9.96
8/27/2022 2:30:00 PM 20.44 68.792 0.086 7.58 1.44 9.9
8/27/2022 2:45:00 PM 20.65 69.17 0.086 7.57 1.51 9.79
8/27/2022 3:00:00 PM 20.87 69.566 0.086 7.56 1.47 9.67
8/27/2022 3:15:00 PM 21.17 70.106 0.086 7.55 1.58 9.61
8/27/2022 3:30:00 PM 21.33 70.394 0.086 7.52 1.45 9.51
8/27/2022 3:45:00 PM 21.45 70.61 0.086 7.59 1.41 9.5
8/27/2022 4:00:00 PM 21.58 70.844 0.086 7.56 1.53 9.44
8/27/2022 4:15:00 PM 21.73 71.114 0.086 7.54 1.51 9.35
8/27/2022 4:30:00 PM 21.9 71.42 0.086 7.58 1.57 9.37
8/27/2022 4:45:00 PM 22.01 71.618 0.086 7.55 1.58 9.32
8/27/2022 5:00:00 PM 22.07 71.726 0.086 7.52 1.62 9.27
8/27/2022 5:15:00 PM 22.04 71.672 0.086 7.46 1.61 9.11
8/27/2022 5:30:00 PM 22.06 71.708 0.086 7.45 1.57 9.04
8/27/2022 5:45:00 PM 22.04 71.672 0.086 7.38 1.68 8.85
8/27/2022 6:00:00 PM 22.05 71.69 0.086 7.35 1.66 8.72
8/27/2022 6:15:00 PM 21.98 71.564 0.086 7.33 2.18 8.67
8/27/2022 6:30:00 PM 21.9 71.42 0.086 7.29 1.78 8.48
8/27/2022 6:45:00 PM 21.81 71.258 0.087 7.27 1.86 8.42
8/27/2022 7:00:00 PM 21.68 71.024 0.087 7.21 1.64 8.17
8/27/2022 7:15:00 PM 21.52 70.736 0.087 7.11 1.91 7.84
8/27/2022 7:30:00 PM 21.35 70.43 0.088 7.18 1.58 8.09
8/27/2022 7:45:00 PM 21.12 70.016 0.088 7.19 1.39 8.21
8/27/2022 8:00:00 PM 20.88 69.584 0.088 7.19 2.69 8.25
8/27/2022 8:15:00 PM 20.59 69.062 0.089 7.17 1.51 8.23
8/27/2022 8:30:00 PM 20.39 68.702 0.089 7.16 1.43 8.23
8/27/2022 8:45:00 PM 20.14 68.252 0.089 7.15 1.51 8.27
8/27/2022 9:00:00 PM 19.84 67.712 0.09 7.14 1.55 8.3
8/27/2022 9:15:00 PM 19.6 67.28 0.09 7.15 1.57 8.35
8/27/2022 9:30:00 PM 19.38 66.884 0.09 7.14 1.53 8.38
8/27/2022 9:45:00 PM 19.17 66.506 0.09 7.13 1.86 8.41
8/27/2022 10:00:00 PM 18.95 66.11 0.091 7.13 1.62 8.47
8/27/2022 10:15:00 PM 18.76 65.768 0.091 7.12 1.77 8.5
8/27/2022 10:30:00 PM 18.54 65.372 0.091 7.12 1.5 8.57
8/27/2022 10:45:00 PM 18.37 65.066 0.091 7.11 1.57 8.59
8/27/2022 11:00:00 PM 18.24 64.832 0.091 7.11 3.18 8.59
8/27/2022 11:15:00 PM 18.08 64.544 0.091 7.1 1.53 8.63
8/27/2022 11:30:00 PM 17.95 64.31 0.091 7.1 1.54 8.64
8/27/2022 11:45:00 PM 17.79 64.022 0.091 7.09 1.96 8.67
8/28/2022 12:00:00 AM 17.65 63.77 0.091 7.09 1.55 8.73
8/28/2022 12:15:00 AM 17.51 63.518 0.091 7.1 1.48 8.76
8/28/2022 12:30:00 AM 17.36 63.248 0.091 7.1 1.46 8.8
8/28/2022 12:45:00 AM 17.22 62.996 0.092 7.09 2.22 8.82
8/28/2022 1:00:00 AM 17.09 62.762 0.092 7.09 1.82 8.88
8/28/2022 1:15:00 AM 16.98 62.564 0.092 7.09 1.66 8.92
8/28/2022 1:30:00 AM 16.85 62.33 0.092 7.1 1.53 8.95
8/28/2022 1:45:00 AM 16.75 62.15 0.092 7.09 1.49 8.96
8/28/2022 2:00:00 AM 16.63 61.934 0.092 7.09 1.48 8.99
8/28/2022 2:15:00 AM 16.52 61.736 0.092 7.09 1.53 9.02
8/28/2022 2:30:00 AM 16.41 61.538 0.092 7.09 1.43 9.05
8/28/2022 2:45:00 AM 16.3 61.34 0.092 7.09 1.48 9.07
8/28/2022 3:00:00 AM 16.19 61.142 0.092 7.09 1.61 9.11
8/28/2022 3:15:00 AM 16.09 60.962 0.092 7.09 1.48 9.12
8/28/2022 3:30:00 AM 15.99 60.782 0.092 7.09 1.45 9.15
8/28/2022 3:45:00 AM 15.89 60.602 0.092 7.09 1.46 9.17
8/28/2022 4:00:00 AM 15.79 60.422 0.092 7.09 1.44 9.21
8/28/2022 4:15:00 AM 15.71 60.278 0.092 7.09 1.43 9.21
8/28/2022 4:30:00 AM 15.62 60.116 0.092 7.09 1.82 9.23
8/28/2022 4:45:00 AM 15.52 59.936 0.092 7.09 1.44 9.27
8/28/2022 5:00:00 AM 15.43 59.774 0.092 7.09 1.53 9.28
8/28/2022 5:15:00 AM 15.34 59.612 0.092 7.09 1.41 9.32
8/28/2022 5:30:00 AM 15.25 59.45 0.092 7.09 1.69 9.36
8/28/2022 5:45:00 AM 15.15 59.27 0.092 7.1 1.38 9.4
8/28/2022 6:00:00 AM 15.07 59.126 0.092 7.1 1.34 9.43
8/28/2022 6:15:00 AM 14.98 58.964 0.092 7.1 1.4 9.46
8/28/2022 6:30:00 AM 14.9 58.82 0.092 7.1 1.87 9.48
8/28/2022 6:45:00 AM 14.82 58.676 0.092 7.1 1.37 9.52
8/28/2022 7:00:00 AM 14.73 58.514 0.092 7.11 1.38 9.58
8/28/2022 7:15:00 AM 14.67 58.406 0.092 7.12 1.5 9.63
8/28/2022 7:30:00 AM 14.62 58.316 0.092 7.12 1.6 9.71
8/28/2022 7:45:00 AM 14.58 58.244 0.092 7.13 1.34 9.79
8/28/2022 8:00:00 AM 14.56 58.208 0.092 7.14 1.39 9.87
8/28/2022 8:15:00 AM 14.57 58.226 0.092 7.16 1.42 9.97
8/28/2022 8:30:00 AM 14.6 58.28 0.091 7.19 1.89 10.06
8/28/2022 8:45:00 AM 14.65 58.37 0.091 7.2 2.15 10.12
8/28/2022 9:00:00 AM 14.72 58.496 0.091 7.21 1.3 10.18
8/28/2022 9:15:00 AM 14.9 58.82 0.091 7.24 1.36 10.27
8/28/2022 9:30:00 AM 15.04 59.072 0.091 7.26 1.39 10.34
8/28/2022 9:45:00 AM 15.22 59.396 0.091 7.26 1.51 10.41
8/28/2022 10:00:00 AM 15.45 59.81 0.09 7.3 1.53 10.54
8/28/2022 10:15:00 AM 15.74 60.332 0.09 7.33 1.44 10.58
8/28/2022 10:30:00 AM 16.11 60.998 0.089 7.36 1.24 10.61
8/28/2022 10:45:00 AM 16.47 61.646 0.089 7.39 1.3 10.68
8/28/2022 11:00:00 AM 16.85 62.33 0.088 7.41 1.99 10.63
8/28/2022 11:15:00 AM 17.1 62.78 0.088 7.44 1.6 10.63
8/28/2022 11:30:00 AM 17.46 63.428 0.088 7.46 1.4 10.61
8/28/2022 11:45:00 AM 17.84 64.112 0.088 7.48 1.49 10.54
8/28/2022 12:00:00 PM 18.2 64.76 0.087 7.51 1.63 10.51
8/28/2022 12:15:00 PM 18.61 65.498 0.087 7.52 1.39 10.43
8/28/2022 12:30:00 PM 19.01 66.218 0.087 7.54 1.37 10.37
8/28/2022 12:45:00 PM 19.36 66.848 0.087 7.56 1.46 10.33
8/28/2022 1:00:00 PM 19.68 67.424 0.087 7.57 1.46 10.29
8/28/2022 1:15:00 PM 19.76 67.568 0.087 7.52 1.5 10.11
8/28/2022 1:30:00 PM 20.02 68.036 0.087 7.55 1.58 10.06
8/28/2022 1:45:00 PM 20.45 68.81 0.086 7.61 1.35 10.03
8/28/2022 2:00:00 PM 20.73 69.314 0.086 7.55 2 9.94
8/28/2022 2:15:00 PM 20.97 69.746 0.086 7.57 1.56 9.9
8/28/2022 2:30:00 PM 21.16 70.088 0.086 7.53 2.01 9.74
8/28/2022 2:45:00 PM 21.31 70.358 0.086 7.58 1.49 9.72
8/28/2022 3:00:00 PM 21.45 70.61 0.086 7.55 1.58 9.62
8/28/2022 3:15:00 PM 21.65 70.97 0.086 7.56 1.54 9.59
8/28/2022 3:30:00 PM 21.69 71.042 0.087 7.51 1.56 9.44
8/28/2022 3:45:00 PM 21.75 71.15 0.087 7.49 1.73 9.39
8/28/2022 4:00:00 PM 21.84 71.312 0.087 7.51 1.55 9.35
8/28/2022 4:15:00 PM 21.87 71.366 0.087 7.48 1.61 9.3
8/28/2022 4:30:00 PM 21.86 71.348 0.087 7.45 1.68 9.2
8/28/2022 4:45:00 PM 21.83 71.294 0.087 7.43 2.05 9.1
8/28/2022 5:00:00 PM 21.84 71.312 0.087 7.41 13.64 9.08
8/28/2022 5:15:00 PM 21.85 71.33 0.087 7.42 1.54 9.05
8/28/2022 5:30:00 PM 21.78 71.204 0.087 7.38 1.76 8.96
8/28/2022 5:45:00 PM 21.73 71.114 0.087 7.37 1.44 8.87
8/28/2022 6:00:00 PM 21.63 70.934 0.087 7.27 1.82 8.68
8/28/2022 6:15:00 PM 21.55 70.79 0.087 7.31 1.58 8.73
8/28/2022 6:30:00 PM 21.43 70.574 0.087 7.28 1.6 8.63
8/28/2022 6:45:00 PM 21.34 70.412 0.088 7.21 1.76 8.43
8/28/2022 7:00:00 PM 21.26 70.268 0.088 7.2 1.79 8.4
8/28/2022 7:15:00 PM 21.12 70.016 0.088 7.19 1.67 8.35
8/28/2022 7:30:00 PM 20.99 69.782 0.088 7.17 1.44 8.24
8/28/2022 7:45:00 PM 20.84 69.512 0.089 7.19 1.45 8.35
8/28/2022 8:00:00 PM 20.69 69.242 0.089 7.16 1.88 8.28
8/28/2022 8:15:00 PM 20.54 68.972 0.089 7.16 1.56 8.29
8/28/2022 8:30:00 PM 20.41 68.738 0.089 7.14 1.53 8.22
8/28/2022 8:45:00 PM 20.26 68.468 0.09 7.12 1.79 8.14
8/28/2022 9:00:00 PM 20.12 68.216 0.09 7.11 1.47 8.15
8/28/2022 9:15:00 PM 19.95 67.91 0.09 7.12 1.5 8.2
8/28/2022 9:30:00 PM 19.79 67.622 0.09 7.11 1.68 8.23
8/28/2022 9:45:00 PM 19.64 67.352 0.091 7.1 1.47 8.25
8/28/2022 10:00:00 PM 19.44 66.992 0.091 7.07 1.53 8.23
8/28/2022 10:15:00 PM 19.35 66.83 0.091 7.08 1.55 8.26
8/28/2022 10:30:00 PM 19.19 66.542 0.091 7.08 1.5 8.3
8/28/2022 10:45:00 PM 19.07 66.326 0.092 7.05 2.01 8.26
8/28/2022 11:00:00 PM 18.89 66.002 0.092 7.07 1.38 8.38
8/28/2022 11:15:00 PM 18.8 65.84 0.092 7.07 1.46 8.38
8/28/2022 11:30:00 PM 18.68 65.624 0.092 7.07 1.52 8.43
8/28/2022 11:45:00 PM 18.57 65.426 0.092 7.07 1.42 8.45
8/29/2022 12:00:00 AM 18.46 65.228 0.092 7.06 1.48 8.46
8/29/2022 12:15:00 AM 18.38 65.084 0.092 7.06 1.47 8.47
8/29/2022 12:30:00 AM 18.28 64.904 0.092 7.06 1.36 8.49
8/29/2022 12:45:00 AM 18.19 64.742 0.092 7.06 1.43 8.52
8/29/2022 1:00:00 AM 18.11 64.598 0.092 7.05 1.38 8.49
8/29/2022 1:15:00 AM 17.98 64.364 0.092 7.06 1.4 8.58
8/29/2022 1:30:00 AM 17.89 64.202 0.092 7.06 1.42 8.61
8/29/2022 1:45:00 AM 17.8 64.04 0.093 7.07 1.43 8.64
8/29/2022 2:00:00 AM 17.72 63.896 0.093 7.06 1.6 8.65
8/29/2022 2:15:00 AM 17.63 63.734 0.093 7.06 1.39 8.68
8/29/2022 2:30:00 AM 17.55 63.59 0.093 7.06 1.42 8.7
8/29/2022 2:45:00 AM 17.47 63.446 0.093 7.06 1.45 8.7
8/29/2022 3:00:00 AM 17.37 63.266 0.093 7.06 1.41 8.78
8/29/2022 3:15:00 AM 17.33 63.194 0.093 7.06 1.38 8.73
8/29/2022 3:30:00 AM 17.24 63.032 0.093 7.07 1.71 8.79
8/29/2022 3:45:00 AM 17.17 62.906 0.093 7.05 1.44 8.79
8/29/2022 4:00:00 AM 17.1 62.78 0.093 7.05 1.46 8.81
8/29/2022 4:15:00 AM 17.03 62.654 0.093 7.05 1.47 8.82
8/29/2022 4:30:00 AM 16.95 62.51 0.093 7.05 1.57 8.84
8/29/2022 4:45:00 AM 16.88 62.384 0.093 7.05 1.49 8.86
8/29/2022 5:00:00 AM 16.82 62.276 0.093 7.06 1.59 8.88
8/29/2022 5:15:00 AM 16.74 62.132 0.093 7.06 1.94 8.92
8/29/2022 5:30:00 AM 16.69 62.042 0.093 7.06 1.59 8.93
8/29/2022 5:45:00 AM 16.63 61.934 0.093 7.05 1.48 8.95
8/29/2022 6:00:00 AM 16.57 61.826 0.093 7.05 1.65 8.96
8/29/2022 6:15:00 AM 16.51 61.718 0.093 7.05 2.66 8.98
8/29/2022 6:30:00 AM 16.48 61.664 0.093 7.05 1.45 8.97
8/29/2022 6:45:00 AM 16.42 61.556 0.093 7.05 1.63 8.99
8/29/2022 7:00:00 AM 16.39 61.502 0.093 7.04 1.5 8.99
8/29/2022 7:15:00 AM 16.35 61.43 0.093 7.06 1.5 9.06
8/29/2022 7:30:00 AM 16.32 61.376 0.093 7.05 1.6 9.09
8/29/2022 7:45:00 AM 16.3 61.34 0.093 7.06 1.5 9.14
8/29/2022 8:00:00 AM 16.28 61.304 0.093 7.07 1.49 9.23
8/29/2022 8:15:00 AM 16.29 61.322 0.093 7.08 1.74 9.3
8/29/2022 8:30:00 AM 16.31 61.358 0.093 7.09 1.75 9.43
8/29/2022 8:45:00 AM 16.35 61.43 0.093 7.11 1.33 9.51
8/29/2022 9:00:00 AM 16.4 61.52 0.093 7.12 1.43 9.55
8/29/2022 9:15:00 AM 16.5 61.7 0.092 7.13 1.4 9.67
8/29/2022 9:30:00 AM 16.69 62.042 0.092 7.17 1.58 9.84
8/29/2022 9:45:00 AM 16.96 62.528 0.092 7.23 1.48 10.01
8/29/2022 10:00:00 AM 17.22 62.996 0.091 7.26 1.35 10.1
8/29/2022 10:15:00 AM 17.57 63.626 0.091 7.31 1.57 10.21
8/29/2022 10:30:00 AM 17.91 64.238 0.09 7.35 1.44 10.26
8/29/2022 10:45:00 AM 18.24 64.832 0.09 7.37 1.54 10.3
8/29/2022 11:00:00 AM 18.63 65.534 0.089 7.41 1.46 10.35
8/29/2022 11:15:00 AM 18.94 66.092 0.089 7.44 1.5 10.34
8/29/2022 11:30:00 AM 19.23 66.614 0.089 7.45 1.56 10.33
8/29/2022 11:45:00 AM 19.52 67.136 0.088 7.47 1.73 10.27
8/29/2022 12:00:00 PM 19.94 67.892 0.088 7.49 1.54 10.19
8/29/2022 12:15:00 PM 20.23 68.414 0.088 7.51 1.41 10.16
8/29/2022 12:30:00 PM 20.63 69.134 0.087 7.55 1.5 10.1
8/29/2022 12:45:00 PM 20.99 69.782 0.087 7.55 1.44 10.08
8/29/2022 1:00:00 PM 21.2 70.16 0.087 7.54 1.54 9.98
8/29/2022 1:15:00 PM 21.47 70.646 0.087 7.54 3.18 9.87
8/29/2022 1:30:00 PM 21.76 71.168 0.087 7.59 1.56 9.87
8/29/2022 1:45:00 PM 21.82 71.276 0.087 7.52 1.51 9.59
8/29/2022 2:00:00 PM 21.94 71.492 0.087 7.51 1.59 9.57
8/29/2022 2:15:00 PM 22.12 71.816 0.087 7.56 1.67 9.5
8/29/2022 2:30:00 PM 22.28 72.104 0.087 7.51 1.69 9.4
8/29/2022 2:45:00 PM 22.43 72.374 0.087 7.53 1.61 9.35
8/29/2022 3:00:00 PM 22.58 72.644 0.087 7.52 1.48 9.31
8/29/2022 3:15:00 PM 22.66 72.788 0.087 7.53 1.7 9.28
8/29/2022 3:30:00 PM 22.75 72.95 0.087 7.55 1.56 9.28
8/29/2022 3:45:00 PM 22.78 73.004 0.087 7.52 1.44 9.21
8/29/2022 4:00:00 PM 22.77 72.986 0.087 7.49 1.58 9.13
8/29/2022 4:15:00 PM 22.82 73.076 0.087 7.5 1.51 9.07
8/29/2022 4:30:00 PM 22.84 73.112 0.087 7.46 1.69 9
8/29/2022 4:45:00 PM 22.84 73.112 0.087 7.45 1.43 8.9
8/29/2022 5:00:00 PM 22.79 73.022 0.087 7.42 1.63 8.82
8/29/2022 5:15:00 PM 22.37 72.266 0.084 7.26 5.92 8.55
8/29/2022 5:30:00 PM 22.09 71.762 0.081 7.1 6.18 8.26
8/29/2022 5:45:00 PM 21.88 71.384 0.079 7.1 6.06 8.23
8/29/2022 6:00:00 PM 21.68 71.024 0.078 7.07 4.6 8.16
8/29/2022 6:15:00 PM 21.52 70.736 0.078 7.06 3.57 8.1
8/29/2022 6:30:00 PM 21.36 70.448 0.079 7.07 4.42 8.09
8/29/2022 6:45:00 PM 21.13 70.034 0.079 7.08 3.89 8.16
8/29/2022 7:00:00 PM 20.91 69.638 0.08 7.08 3.76 8.2
8/29/2022 7:15:00 PM 20.68 69.224 0.08 7.08 3.85 8.26
8/29/2022 7:30:00 PM 20.51 68.918 0.081 7.08 3.39 8.25
8/29/2022 7:45:00 PM 20.34 68.612 0.081 7.07 3.65 8.29
8/29/2022 8:00:00 PM 20.19 68.342 0.082 7.08 4.28 8.3
8/29/2022 8:15:00 PM 20.07 68.126 0.083 7.06 5.42 8.29
8/29/2022 8:30:00 PM 19.94 67.892 0.084 7.06 5.16 8.31
8/29/2022 8:45:00 PM 19.82 67.676 0.084 7.05 4.16 8.3
8/29/2022 9:00:00 PM 19.73 67.514 0.084 7.05 3.76 8.32
8/29/2022 9:15:00 PM 19.61 67.298 0.085 7.04 3.76 8.3
8/29/2022 9:30:00 PM 19.5 67.1 0.085 7.04 3.56 8.33
8/29/2022 9:45:00 PM 19.39 66.902 0.085 7.04 3.61 8.36
8/29/2022 10:00:00 PM 19.3 66.74 0.086 7.04 3.51 8.4
8/29/2022 10:15:00 PM 19.23 66.614 0.086 7.04 3.6 8.46
8/29/2022 10:30:00 PM 19.15 66.47 0.087 7.04 4.17 8.48
8/29/2022 10:45:00 PM 19.09 66.362 0.087 7.04 3.87 8.52
8/29/2022 11:00:00 PM 19.04 66.272 0.088 7.05 3.78 8.56
8/29/2022 11:15:00 PM 19.01 66.218 0.089 7.05 4.34 8.59
8/29/2022 11:30:00 PM 18.98 66.164 0.089 7.05 3.6 8.61
8/29/2022 11:45:00 PM 18.95 66.11 0.09 7.04 3.23 8.63
8/30/2022 12:00:00 AM 18.93 66.074 0.09 7.04 3.08 8.63
8/30/2022 12:15:00 AM 18.9 66.02 0.09 7.04 3.08 8.64
8/30/2022 12:30:00 AM 18.87 65.966 0.09 7.03 3.03 8.62
8/30/2022 12:45:00 AM 18.84 65.912 0.089 7.03 2.79 8.64
8/30/2022 1:00:00 AM 18.81 65.858 0.089 7.02 3.34 8.64
8/30/2022 1:15:00 AM 18.78 65.804 0.088 7.03 2.68 8.67
8/30/2022 1:30:00 AM 18.74 65.732 0.088 7.03 2.9 8.65
8/30/2022 1:45:00 AM 18.71 65.67799 0.088 7.02 2.37 8.64
8/30/2022 2:00:00 AM 18.66 65.588 0.088 7.02 2.49 8.67
8/30/2022 2:15:00 AM 18.61 65.498 0.088 7.02 3.16 8.67
8/30/2022 2:30:00 AM 18.55 65.39 0.088 7.03 2.17 8.69
8/30/2022 2:45:00 AM 18.49 65.282 0.088 7.02 2.71 8.69
8/30/2022 3:00:00 AM 18.43 65.174 0.088 7.02 2.32 8.7
8/30/2022 3:15:00 AM 18.37 65.066 0.088 7.02 2.24 8.71
8/30/2022 3:30:00 AM 18.32 64.976 0.088 7.02 2.27 8.72
8/30/2022 3:45:00 AM 18.26 64.868 0.088 7.02 2.24 8.73
8/30/2022 4:00:00 AM 18.21 64.778 0.088 7.02 2.55 8.74
8/30/2022 4:15:00 AM 18.16 64.688 0.088 7.02 2.24 8.77
8/30/2022 4:30:00 AM 18.1 64.58 0.088 7.02 2.03 8.76
8/30/2022 4:45:00 AM 18.04 64.472 0.088 7.02 2.26 8.77
8/30/2022 5:00:00 AM 18 64.4 0.088 7.02 2.95 8.75
8/30/2022 5:15:00 AM 17.95 64.31 0.088 7.02 2.63 8.78
8/30/2022 5:30:00 AM 17.9 64.22 0.088 7.02 2.36 8.78
8/30/2022 5:45:00 AM 17.85 64.13 0.089 7.02 2.38 8.8
8/30/2022 6:00:00 AM 17.81 64.058 0.089 7.01 2.35 8.81
8/30/2022 6:15:00 AM 17.77 63.986 0.089 7.01 3.89 8.78
8/30/2022 6:30:00 AM 17.73 63.914 0.089 7 3.1 8.78
8/30/2022 6:45:00 AM 17.69 63.842 0.089 7.02 2.38 8.81
8/30/2022 7:00:00 AM 17.66 63.788 0.089 7.02 2.02 8.86
8/30/2022 7:15:00 AM 17.63 63.734 0.089 7.02 2.78 8.86
8/30/2022 7:30:00 AM 17.61 63.698 0.089 7.03 2.01 8.92
8/30/2022 7:45:00 AM 17.6 63.68 0.089 7.03 2.43 8.97
8/30/2022 8:00:00 AM 17.6 63.68 0.089 7.05 1.82 9.06
8/30/2022 8:15:00 AM 17.63 63.734 0.089 7.06 2.13 9.12
8/30/2022 8:30:00 AM 17.66 63.788 0.089 7.07 1.94 9.17
8/30/2022 8:45:00 AM 17.71 63.878 0.089 7.1 1.86 9.26
8/30/2022 9:00:00 AM 17.79 64.022 0.089 7.12 2.05 9.41
8/30/2022 9:15:00 AM 17.87 64.166 0.089 7.14 1.75 9.46
8/30/2022 9:30:00 AM 17.95 64.31 0.089 7.16 2.05 9.56
8/30/2022 9:45:00 AM 18.02 64.436 0.089 7.18 2.18 9.59
8/30/2022 10:00:00 AM 18.11 64.598 0.088 7.18 1.67 9.62
8/30/2022 10:15:00 AM 18.2 64.76 0.088 7.2 1.79 9.66
8/30/2022 10:30:00 AM 18.31 64.958 0.088 7.23 1.85 9.7
8/30/2022 10:45:00 AM 18.4 65.12 0.088 7.25 1.69 9.73
8/30/2022 11:00:00 AM 18.53 65.354 0.088 7.29 1.75 9.85
8/30/2022 11:15:00 AM 18.65 65.57 0.088 7.31 1.92 9.83
8/30/2022 11:30:00 AM 18.76 65.768 0.087 7.33 2.13 9.84
8/30/2022 11:45:00 AM 18.82 65.876 0.087 7.32 1.76 9.8
8/30/2022 12:00:00 PM 18.88 65.984 0.087 7.33 1.74 9.75
8/30/2022 12:15:00 PM 18.94 66.092 0.087 7.33 1.64 9.7
8/30/2022 12:30:00 PM 18.98 66.164 0.087 7.32 2.01 9.65
8/30/2022 12:45:00 PM 19.01 66.218 0.087 7.32 1.72 9.56
8/30/2022 1:00:00 PM 19.08 66.344 0.087 7.33 1.82 9.6
8/30/2022 1:15:00 PM 19.17 66.506 0.087 7.35 1.8 9.68
8/30/2022 1:30:00 PM 19.27 66.686 0.087 7.39 1.86 9.75
8/30/2022 1:45:00 PM 19.35 66.83 0.087 7.4 1.73 9.79
8/30/2022 2:00:00 PM 19.4 66.92 0.087 7.42 1.64 9.77
8/30/2022 2:15:00 PM 19.42 66.956 0.086 7.4 1.57 9.69
8/30/2022 2:30:00 PM 19.45 67.01 0.086 7.39 1.62 9.65
8/30/2022 2:45:00 PM 19.47 67.046 0.086 7.39 1.8 9.55
8/30/2022 3:00:00 PM 19.49 67.082 0.085 7.33 2.57 9.41
8/30/2022 3:15:00 PM 19.53 67.154 0.084 7.29 2.49 9.36
8/30/2022 3:30:00 PM 19.55 67.19 0.083 7.26 2.53 9.28
8/30/2022 3:45:00 PM 19.55 67.19 0.082 7.26 2.38 9.28
8/30/2022 4:00:00 PM 19.56 67.208 0.081 7.27 2.66 9.31
8/30/2022 4:15:00 PM 19.52 67.136 0.081 7.27 3.52 9.28
8/30/2022 4:30:00 PM 19.47 67.046 0.081 7.26 2.48 9.25
8/30/2022 4:45:00 PM 19.42 66.956 0.081 7.26 2.96 9.2
8/30/2022 5:00:00 PM 19.36 66.848 0.081 7.24 2.69 9.15
8/30/2022 5:15:00 PM 19.31 66.758 0.081 7.24 2.65 9.15
8/30/2022 5:30:00 PM 19.23 66.614 0.082 7.22 2.41 9.09
8/30/2022 5:45:00 PM 19.16 66.488 0.082 7.22 2.71 9.1
8/30/2022 6:00:00 PM 19.09 66.362 0.083 7.22 2.64 9.1
8/30/2022 6:15:00 PM 19.03 66.254 0.083 7.21 2.39 9.07
8/30/2022 6:30:00 PM 18.96 66.128 0.083 7.21 2.49 9.07
8/30/2022 6:45:00 PM 18.92 66.056 0.084 7.2 2.32 9.07
8/30/2022 7:00:00 PM 18.89 66.002 0.084 7.21 2.42 9.1
8/30/2022 7:15:00 PM 18.85 65.93 0.085 7.2 2.51 9.06
8/30/2022 7:30:00 PM 18.81 65.858 0.085 7.18 2.47 8.99
8/30/2022 7:45:00 PM 18.75 65.75 0.086 7.16 5.27 8.9
8/30/2022 8:00:00 PM 18.71 65.67799 0.087 7.15 2.31 8.84
8/30/2022 8:15:00 PM 18.67 65.606 0.088 7.14 2.64 8.78
8/30/2022 8:30:00 PM 18.63 65.534 0.089 7.13 2.67 8.75
8/30/2022 8:45:00 PM 18.57 65.426 0.09 7.12 2.36 8.71
8/30/2022 9:00:00 PM 18.54 65.372 0.091 7.11 3.35 8.66
8/30/2022 9:15:00 PM 18.48 65.264 0.092 7.1 2.32 8.68
8/30/2022 9:30:00 PM 18.42 65.156 0.093 7.1 2.33 8.69
8/30/2022 9:45:00 PM 18.38 65.084 0.094 7.1 2.58 8.68
8/30/2022 10:00:00 PM 18.33 64.994 0.094 7.09 2.19 8.68
8/30/2022 10:15:00 PM 18.26 64.868 0.094 7.08 2.3 8.71
8/30/2022 10:30:00 PM 18.19 64.742 0.094 7.09 2.08 8.73
8/30/2022 10:45:00 PM 18.11 64.598 0.094 7.09 2.16 8.74
8/30/2022 11:00:00 PM 18.05 64.49 0.093 7.08 2.13 8.73
8/30/2022 11:15:00 PM 17.94 64.292 0.093 7.08 1.99 8.78
8/30/2022 11:30:00 PM 17.87 64.166 0.093 7.08 2.47 8.78
8/30/2022 11:45:00 PM 17.8 64.04 0.093 7.07 2.14 8.81
8/31/2022 12:00:00 AM 17.75 63.95 0.092 7.07 2.05 8.81
8/31/2022 12:15:00 AM 17.69 63.842 0.092 7.07 2.36 8.84
8/31/2022 12:30:00 AM 17.65 63.77 0.092 7.07 1.85 8.85
8/31/2022 12:45:00 AM 17.61 63.698 0.092 7.06 2 8.86
8/31/2022 1:00:00 AM 17.56 63.608 0.092 7.07 1.87 8.89
8/31/2022 1:15:00 AM 17.53 63.554 0.092 7.06 2.51 8.9
8/31/2022 1:30:00 AM 17.5 63.5 0.092 7.07 2.28 8.92
8/31/2022 1:45:00 AM 17.47 63.446 0.092 7.07 2.02 8.92
8/31/2022 2:00:00 AM 17.44 63.392 0.092 7.07 2.15 8.93
8/31/2022 2:15:00 AM 17.41 63.338 0.092 7.07 2.06 8.92
8/31/2022 2:30:00 AM 17.36 63.248 0.092 7.06 2.2 8.94
8/31/2022 2:45:00 AM 17.32 63.176 0.092 7.07 1.83 8.95
8/31/2022 3:00:00 AM 17.29 63.122 0.092 7.07 1.89 8.96
8/31/2022 3:15:00 AM 17.24 63.032 0.092 7.07 2.03 8.93
8/31/2022 3:30:00 AM 17.18 62.924 0.092 7.07 1.92 8.99
8/31/2022 3:45:00 AM 17.15 62.87 0.092 7.07 1.9 8.99
8/31/2022 4:00:00 AM 17.12 62.816 0.092 7.07 2.06 9
8/31/2022 4:15:00 AM 17.07 62.726 0.092 7.07 1.85 9.02
8/31/2022 4:30:00 AM 17.05 62.69 0.092 7.06 2.84 9.02
8/31/2022 4:45:00 AM 17.02 62.636 0.092 7.06 2.11 9.02
8/31/2022 5:00:00 AM 17 62.6 0.092 7.07 1.74 9.04
8/31/2022 5:15:00 AM 16.97 62.546 0.092 7.06 1.88 9.01
8/31/2022 5:30:00 AM 16.92 62.456 0.092 7.06 1.7 9.05
8/31/2022 5:45:00 AM 16.87 62.366 0.092 7.06 1.91 9.04
8/31/2022 6:00:00 AM 16.83 62.294 0.092 7.06 2.39 9.06
8/31/2022 6:15:00 AM 16.78 62.204 0.092 7.06 1.84 9.08
8/31/2022 6:30:00 AM 16.72 62.096 0.092 7.05 2.15 9.02
8/31/2022 6:45:00 AM 16.66 61.988 0.092 7.06 2.23 9.08
8/31/2022 7:00:00 AM 16.59 61.862 0.092 7.07 2.24 9.13
8/31/2022 7:15:00 AM 16.53 61.754 0.092 7.08 2.22 9.15
8/31/2022 7:30:00 AM 16.47 61.646 0.092 7.09 1.57 9.21
8/31/2022 7:45:00 AM 16.44 61.592 0.092 7.09 1.82 9.27
8/31/2022 8:00:00 AM 16.42 61.556 0.092 7.11 1.77 9.32
8/31/2022 8:15:00 AM 16.42 61.556 0.092 7.12 1.57 9.41
8/31/2022 8:30:00 AM 16.43 61.574 0.091 7.13 1.59 9.49
8/31/2022 8:45:00 AM 16.44 61.592 0.091 7.14 1.89 9.52
8/31/2022 9:00:00 AM 16.47 61.646 0.091 7.17 1.98 9.63
8/31/2022 9:15:00 AM 16.55 61.79 0.091 7.19 1.67 9.71
8/31/2022 9:30:00 AM 16.65 61.97 0.091 7.21 1.61 9.8
8/31/2022 9:45:00 AM 16.78 62.204 0.091 7.21 1.5 9.86
8/31/2022 10:00:00 AM 16.92 62.456 0.091 7.23 1.79 9.87
8/31/2022 10:15:00 AM 17.11 62.798 0.09 7.25 1.71 9.85
8/31/2022 10:30:00 AM 17.33 63.194 0.09 7.27 1.77 9.95
8/31/2022 10:45:00 AM 17.57 63.626 0.09 7.29 1.82 9.98
8/31/2022 11:00:00 AM 17.81 64.058 0.089 7.32 1.78 9.99
8/31/2022 11:15:00 AM 17.97 64.346 0.089 7.33 1.66 9.95
8/31/2022 11:30:00 AM 18.11 64.598 0.089 7.3 1.73 9.9
8/31/2022 11:45:00 AM 18.29 64.922 0.089 7.38 1.62 10.04
8/31/2022 12:00:00 PM 18.5 65.3 0.088 7.42 1.81 10.05
8/31/2022 12:15:00 PM 18.65 65.57 0.088 7.44 1.62 10
8/31/2022 12:30:00 PM 18.81 65.858 0.088 7.45 1.55 9.97
8/31/2022 12:45:00 PM 19.04 66.272 0.088 7.46 1.58 9.97
8/31/2022 1:00:00 PM 19.3 66.74 0.088 7.48 1.64 9.92
8/31/2022 1:15:00 PM 19.52 67.136 0.088 7.47 1.76 9.86
8/31/2022 1:30:00 PM 19.65 67.37 0.088 7.45 1.7 9.79
8/31/2022 1:45:00 PM 19.78 67.604 0.088 7.47 2.07 9.79
8/31/2022 2:00:00 PM 19.88 67.784 0.088 7.46 1.87 9.68
8/31/2022 2:15:00 PM 19.99 67.982 0.088 7.45 1.82 9.66
8/31/2022 2:30:00 PM 20.09 68.162 0.088 7.45 1.61 9.57
8/31/2022 2:45:00 PM 20.17 68.306 0.088 7.43 1.76 9.56
8/31/2022 3:00:00 PM 20.29 68.522 0.088 7.45 1.6 9.51
8/31/2022 3:15:00 PM 20.39 68.702 0.088 7.45 1.75 9.53
8/31/2022 3:30:00 PM 20.42 68.756 0.088 7.45 1.71 9.44
8/31/2022 3:45:00 PM 20.43 68.774 0.088 7.41 1.82 9.39
8/31/2022 4:00:00 PM 20.49 68.882 0.088 7.41 1.86 9.31
8/31/2022 4:15:00 PM 20.52 68.936 0.088 7.39 2.03 9.23
8/31/2022 4:30:00 PM 20.54 68.972 0.088 7.37 1.77 9.23
8/31/2022 4:45:00 PM 20.55 68.99 0.088 7.35 1.94 9.19
8/31/2022 5:00:00 PM 20.53 68.954 0.088 7.35 2.28 9.12
8/31/2022 5:15:00 PM 20.47 68.846 0.088 7.34 1.69 9.05
8/31/2022 5:30:00 PM 20.4 68.72 0.088 7.32 2.36 9.02
8/31/2022 5:45:00 PM 20.29 68.522 0.088 7.33 1.79 9.01
8/31/2022 6:00:00 PM 20.14 68.252 0.088 7.33 1.64 9
8/31/2022 6:15:00 PM 20.04 68.07201 0.088 7.32 1.59 8.97
8/31/2022 6:30:00 PM 19.95 67.91 0.089 7.3 1.75 8.93
8/31/2022 6:45:00 PM 19.8 67.64 0.089 7.29 1.67 8.92
8/31/2022 7:00:00 PM 19.66 67.388 0.089 7.28 1.65 8.91
8/31/2022 7:15:00 PM 19.49 67.082 0.089 7.25 1.68 8.86
8/31/2022 7:30:00 PM 19.31 66.758 0.089 7.24 2.45 8.82
8/31/2022 7:45:00 PM 19.13 66.434 0.09 7.21 1.69 8.76
8/31/2022 8:00:00 PM 18.94 66.092 0.09 7.19 1.59 8.76
8/31/2022 8:15:00 PM 18.75 65.75 0.09 7.17 1.62 8.73
8/31/2022 8:30:00 PM 18.59 65.462 0.09 7.17 1.62 8.73
8/31/2022 8:45:00 PM 18.4 65.12 0.091 7.16 1.7 8.74
8/31/2022 9:00:00 PM 18.23 64.814 0.091 7.15 1.61 8.76
8/31/2022 9:15:00 PM 18.06 64.508 0.091 7.15 1.73 8.78
8/31/2022 9:30:00 PM 17.93 64.274 0.091 7.14 1.65 8.79
8/31/2022 9:45:00 PM 17.77 63.986 0.091 7.13 1.63 8.82
8/31/2022 10:00:00 PM 17.64 63.752 0.092 7.13 1.6 8.83
8/31/2022 10:15:00 PM 17.51 63.518 0.092 7.12 1.8 8.85
8/31/2022 10:30:00 PM 17.4 63.32 0.092 7.12 1.49 8.87
8/31/2022 10:45:00 PM 17.29 63.122 0.092 7.12 2.06 8.89
8/31/2022 11:00:00 PM 17.17 62.906 0.092 7.11 1.96 8.93
8/31/2022 11:15:00 PM 17.06 62.708 0.092 7.11 1.8 8.93
8/31/2022 11:30:00 PM 16.95 62.51 0.092 7.11 1.58 8.95
8/31/2022 11:45:00 PM 16.86 62.348 0.093 7.11 1.65 8.97
9/1/2022 12:00:00 AM 16.76 62.168 0.093 7.1 1.58 8.99
9/1/2022 12:15:00 AM 16.66 61.988 0.093 7.1 1.99 9.02
9/1/2022 12:30:00 AM 16.55 61.79 0.093 7.1 1.63 9.04
9/1/2022 12:45:00 AM 16.49 61.682 0.093 7.09 1.81 8.99
9/1/2022 1:00:00 AM 16.37 61.466 0.093 7.1 1.98 9.06
9/1/2022 1:15:00 AM 16.27 61.286 0.093 7.09 1.57 9.11
9/1/2022 1:30:00 AM 16.21 61.178 0.093 7.09 1.52 9.11
9/1/2022 1:45:00 AM 16.15 61.07 0.093 7.09 1.62 9.13
9/1/2022 2:00:00 AM 16.1 60.98 0.093 7.09 4.28 9.13
9/1/2022 2:15:00 AM 16.06 60.908 0.093 7.09 1.61 9.13
9/1/2022 2:30:00 AM 16.03 60.854 0.093 7.08 1.45 9.13
9/1/2022 2:45:00 AM 15.99 60.782 0.093 7.08 1.47 9.16
9/1/2022 3:00:00 AM 15.96 60.728 0.093 7.08 1.73 9.13
9/1/2022 3:15:00 AM 15.91 60.638 0.093 7.07 1.64 9.16
9/1/2022 3:30:00 AM 15.84 60.512 0.094 7.07 1.48 9.18
9/1/2022 3:45:00 AM 15.8 60.44 0.094 7.07 2.49 9.1
9/1/2022 4:00:00 AM 15.74 60.332 0.094 7.07 1.66 9.19
9/1/2022 4:15:00 AM 15.68 60.224 0.094 7.08 2.67 9.2
9/1/2022 4:30:00 AM 15.61 60.098 0.094 7.08 2.11 9.22
9/1/2022 4:45:00 AM 15.56 60.008 0.094 7.07 1.81 9.18
9/1/2022 5:00:00 AM 15.48 59.864 0.094 7.08 1.58 9.26
9/1/2022 5:15:00 AM 15.38 59.684 0.094 7.09 1.54 9.32
9/1/2022 5:30:00 AM 15.32 59.576 0.094 7.08 1.74 9.35
9/1/2022 5:45:00 AM 15.26 59.468 0.094 7.08 2.64 9.35
9/1/2022 6:00:00 AM 15.2 59.36 0.095 7.07 1.53 9.34
9/1/2022 6:15:00 AM 15.15 59.27 0.095 7.07 1.68 9.37
9/1/2022 6:30:00 AM 15.13 59.234 0.095 7.07 1.46 9.34
9/1/2022 6:45:00 AM 15.11 59.198 0.095 7.06 1.61 9.34
9/1/2022 7:00:00 AM 15.08 59.144 0.095 7.07 1.7 9.34
9/1/2022 7:15:00 AM 15.07 59.126 0.096 7.06 1.7 9.35
9/1/2022 7:30:00 AM 15.04 59.072 0.095 7.08 1.66 9.46
9/1/2022 7:45:00 AM 15.01 59.018 0.095 7.08 2.36 9.5
9/1/2022 8:00:00 AM 15 59 0.095 7.09 1.55 9.53
9/1/2022 8:15:00 AM 14.99 58.982 0.095 7.09 4.42 9.57
9/1/2022 8:30:00 AM 15 59 0.095 7.12 1.51 9.69
9/1/2022 8:45:00 AM 15.04 59.072 0.095 7.14 1.41 9.77
9/1/2022 9:00:00 AM 15.11 59.198 0.095 7.13 1.42 9.88
9/1/2022 9:15:00 AM 15.21 59.378 0.095 7.14 1.47 9.94
9/1/2022 9:30:00 AM 15.33 59.594 0.094 7.18 2.13 10.13
9/1/2022 9:45:00 AM 15.5 59.9 0.094 7.22 1.56 10.16
9/1/2022 10:00:00 AM 15.67 60.206 0.093 7.26 1.44 10.24
9/1/2022 10:15:00 AM 15.86 60.548 0.093 7.29 1.48 10.34
9/1/2022 10:30:00 AM 16.11 60.998 0.093 7.33 1.41 10.36
9/1/2022 10:45:00 AM 16.31 61.358 0.093 7.34 1.75 10.37
9/1/2022 11:00:00 AM 16.62 61.916 0.093 7.37 1.62 10.4
9/1/2022 11:15:00 AM 16.79 62.222 0.092 7.39 1.51 10.41
9/1/2022 11:30:00 AM 17 62.6 0.092 7.41 1.41 10.37
9/1/2022 11:45:00 AM 17.17 62.906 0.091 7.41 1.63 10.34
9/1/2022 12:00:00 PM 17.43 63.374 0.091 7.43 1.37 10.31
9/1/2022 12:15:00 PM 17.65 63.77 0.091 7.44 1.47 10.24
9/1/2022 12:30:00 PM 17.93 64.274 0.09 7.45 1.81 10.14
9/1/2022 12:45:00 PM 18.16 64.688 0.09 7.45 1.4 10.11
9/1/2022 1:00:00 PM 18.46 65.228 0.091 7.47 1.45 10.05
9/1/2022 1:15:00 PM 18.72 65.696 0.091 7.48 1.95 10.01
9/1/2022 1:30:00 PM 18.93 66.074 0.091 7.46 1.47 9.93
9/1/2022 1:45:00 PM 19.17 66.506 0.091 7.46 1.46 9.84
9/1/2022 2:00:00 PM 19.33 66.794 0.091 7.45 1.45 9.75
9/1/2022 2:15:00 PM 19.52 67.136 0.091 7.43 1.39 9.66
9/1/2022 2:30:00 PM 19.67 67.406 0.091 7.43 1.39 9.64
9/1/2022 2:45:00 PM 19.84 67.712 0.091 7.45 1.41 9.57
9/1/2022 3:00:00 PM 19.97 67.946 0.092 7.43 1.54 9.46
9/1/2022 3:15:00 PM 20.11 68.198 0.093 7.42 3.92 9.49
9/1/2022 3:30:00 PM 20.25 68.45 0.093 7.45 1.45 9.51
9/1/2022 3:45:00 PM 20.35 68.63 0.093 7.42 1.54 9.39
9/1/2022 4:00:00 PM 20.47 68.846 0.092 7.44 1.53 9.34
9/1/2022 4:15:00 PM 20.55 68.99 0.092 7.38 1.43 9.22
9/1/2022 4:30:00 PM 20.56 69.008 0.092 7.34 1.52 9.09
9/1/2022 4:45:00 PM 20.6 69.08 0.092 7.31 1.59 8.86
9/1/2022 5:00:00 PM 20.6 69.08 0.092 7.31 1.98 8.92
9/1/2022 5:15:00 PM 20.62 69.116 0.092 7.3 1.67 8.86
9/1/2022 5:30:00 PM 20.59 69.062 0.092 7.27 1.61 8.8
9/1/2022 5:45:00 PM 20.53 68.954 0.092 7.22 1.68 8.61
9/1/2022 6:00:00 PM 20.48 68.864 0.092 7.17 2.02 8.47
9/1/2022 6:15:00 PM 20.4 68.72 0.091 7.12 2.53 8.37
9/1/2022 6:30:00 PM 20.3 68.54 0.091 7.13 1.94 8.21
9/1/2022 6:45:00 PM 20.18 68.324 0.092 7.18 1.59 8.39
9/1/2022 7:00:00 PM 20.01 68.018 0.092 7.18 1.7 8.44
9/1/2022 7:15:00 PM 19.82 67.676 0.092 7.12 1.82 8.32
9/1/2022 7:30:00 PM 19.54 67.172 0.093 7.18 1.87 8.55
9/1/2022 7:45:00 PM 19.29 66.722 0.093 7.19 1.45 8.6
9/1/2022 8:00:00 PM 19.02 66.236 0.093 7.18 1.58 8.63
9/1/2022 8:15:00 PM 18.72 65.696 0.094 7.17 1.48 8.67
9/1/2022 8:30:00 PM 18.44 65.192 0.094 7.16 1.7 8.69
9/1/2022 8:45:00 PM 18.18 64.724 0.094 7.15 1.87 8.73
9/1/2022 9:00:00 PM 17.9 64.22 0.094 7.14 1.56 8.78
9/1/2022 9:15:00 PM 17.65 63.77 0.095 7.14 1.67 8.83
9/1/2022 9:30:00 PM 17.4 63.32 0.095 7.14 1.61 8.89
9/1/2022 9:45:00 PM 17.18 62.924 0.095 7.12 1.81 8.93
9/1/2022 10:00:00 PM 16.97 62.546 0.095 7.13 1.63 8.96
9/1/2022 10:15:00 PM 16.77 62.186 0.095 7.13 2.29 9.02
9/1/2022 10:30:00 PM 16.6 61.88 0.095 7.13 1.61 9.06
9/1/2022 10:45:00 PM 16.43 61.574 0.095 7.11 1.67 9.07
9/1/2022 11:00:00 PM 16.25 61.25 0.095 7.12 1.6 9.13
9/1/2022 11:15:00 PM 16.09 60.962 0.095 7.12 1.67 9.18
9/1/2022 11:30:00 PM 15.95 60.71 0.095 7.11 1.48 9.18
9/1/2022 11:45:00 PM 15.82 60.476 0.095 7.11 1.57 9.2
9/2/2022 12:00:00 AM 15.71 60.278 0.096 7.1 1.71 9.19
9/2/2022 12:15:00 AM 15.57 60.026 0.096 7.11 1.46 9.22
9/2/2022 12:30:00 AM 15.42 59.756 0.096 7.11 2.01 9.27
9/2/2022 12:45:00 AM 15.3 59.54 0.096 7.1 355.16 9.31
9/2/2022 1:00:00 AM 15.17 59.306 0.096 7.11 1.37 9.38
9/2/2022 1:15:00 AM 15.06 59.108 0.096 7.11 1.65 9.39
9/2/2022 1:30:00 AM 14.95 58.91 0.096 7.1 1.43 9.39
9/2/2022 1:45:00 AM 14.8 58.64 0.096 7.11 1.41 9.46
9/2/2022 2:00:00 AM 14.69 58.442 0.096 7.1 1.43 9.49
9/2/2022 2:15:00 AM 14.59 58.262 0.096 7.08 1.79 9.49
9/2/2022 2:30:00 AM 14.47 58.046 0.096 7.05 1.78 9.52
9/2/2022 2:45:00 AM 14.39 57.902 0.096 7.05 1.48 9.52
9/2/2022 3:00:00 AM 14.27 57.686 0.096 7.06 1.62 9.56
9/2/2022 3:15:00 AM 14.16 57.488 0.096 7.05 1.72 9.6
9/2/2022 3:30:00 AM 14.05 57.29 0.096 7.05 1.76 9.62
9/2/2022 3:45:00 AM 13.92 57.056 0.096 7.06 1.74 9.68
9/2/2022 4:00:00 AM 13.83 56.894 0.096 7.06 1.33 9.72
9/2/2022 4:15:00 AM 13.74 56.732 0.096 7.06 1.47 9.7
9/2/2022 4:30:00 AM 13.62 56.516 0.096 7.06 1.48 9.73
9/2/2022 4:45:00 AM 13.54 56.372 0.096 7.06 1.45 9.74
9/2/2022 5:00:00 AM 13.44 56.192 0.096 7.06 1.35 9.77
9/2/2022 5:15:00 AM 13.33 55.994 0.096 7.06 1.38 9.8
9/2/2022 5:30:00 AM 13.23 55.814 0.096 7.05 1.51 9.84
9/2/2022 5:45:00 AM 13.11 55.598 0.096 7.06 1.41 9.88
9/2/2022 6:00:00 AM 13.01 55.418 0.096 7.06 1.34 9.91
9/2/2022 6:15:00 AM 12.93 55.274 0.096 7.06 1.4 9.94
9/2/2022 6:30:00 AM 12.86 55.148 0.096 7.06 1.44 9.96
9/2/2022 6:45:00 AM 12.76 54.968 0.096 7.07 1.64 9.97
9/2/2022 7:00:00 AM 12.68 54.824 0.096 7.05 1.41 10
9/2/2022 7:15:00 AM 12.6 54.68 0.096 7.06 1.71 10.04
9/2/2022 7:30:00 AM 12.5 54.5 0.096 7.08 1.45 10.09
9/2/2022 7:45:00 AM 12.46 54.428 0.096 7.08 1.39 10.13
9/2/2022 8:00:00 AM 12.37 54.266 0.096 7.08 1.55 10.18
9/2/2022 8:15:00 AM 12.33 54.194 0.096 7.08 1.5 10.22
9/2/2022 8:30:00 AM 12.3 54.14 0.096 7.1 1.52 10.25
9/2/2022 8:45:00 AM 12.3 54.14 0.096 7.11 1.42 10.32
9/2/2022 9:00:00 AM 12.31 54.158 0.096 7.13 1.32 10.39
9/2/2022 9:15:00 AM 12.39 54.302 0.096 7.15 1.47 10.46
9/2/2022 9:30:00 AM 12.53 54.554 0.096 7.17 1.45 10.61
9/2/2022 9:45:00 AM 12.73 54.914 0.095 7.17 1.36 10.6
9/2/2022 10:00:00 AM 12.95 55.31 0.095 7.21 1.35 10.75
9/2/2022 10:15:00 AM 13.25 55.85 0.095 7.28 1.37 10.92
9/2/2022 10:30:00 AM 13.65 56.57 0.094 7.32 1.32 10.99
9/2/2022 10:45:00 AM 13.97 57.146 0.094 7.33 1.51 11.03
9/2/2022 11:00:00 AM 14.36 57.848 0.094 7.35 1.27 11.05
9/2/2022 11:15:00 AM 14.64 58.352 0.093 7.37 1.53 11.06
9/2/2022 11:30:00 AM 14.96 58.928 0.093 7.41 1.27 11.04
9/2/2022 11:45:00 AM 15.26 59.468 0.093 7.42 1.26 10.98
9/2/2022 12:00:00 PM 15.61 60.098 0.093 7.45 2.73 10.91
9/2/2022 12:15:00 PM 15.9 60.62 0.093 7.47 1.37 10.82
9/2/2022 12:30:00 PM 16.26 61.268 0.093 7.45 3.8 10.75
9/2/2022 12:45:00 PM 16.59 61.862 0.093 7.49 1.4 10.66
9/2/2022 1:00:00 PM 16.94 62.492 0.092 7.48 1.36 10.54
9/2/2022 1:15:00 PM 17.24 63.032 0.092 7.5 1.3 10.49
9/2/2022 1:30:00 PM 17.52 63.536 0.092 7.42 1.5 10.35
9/2/2022 1:45:00 PM 17.76 63.968 0.092 7.46 1.66 10.33
9/2/2022 2:00:00 PM 18.01 64.418 0.092 7.47 1.33 10.24
9/2/2022 2:15:00 PM 18.28 64.904 0.092 7.49 1.39 10.16
9/2/2022 2:30:00 PM 18.49 65.282 0.092 7.47 1.41 10
9/2/2022 2:45:00 PM 18.7 65.66 0.092 7.46 1.43 9.96
9/2/2022 3:00:00 PM 18.92 66.056 0.092 7.44 1.43 9.96
9/2/2022 3:15:00 PM 19.1 66.38 0.092 7.42 2.13 9.83
9/2/2022 3:30:00 PM 19.22 66.596 0.092 7.42 1.34 9.83
9/2/2022 3:45:00 PM 19.35 66.83 0.092 7.42 1.31 9.71
9/2/2022 4:00:00 PM 19.45 67.01 0.092 7.41 1.5 9.7
9/2/2022 4:15:00 PM 19.56 67.208 0.092 7.41 1.48 9.68
9/2/2022 4:30:00 PM 19.62 67.316 0.092 7.43 1.55 9.66
9/2/2022 4:45:00 PM 19.68 67.424 0.092 7.41 1.51 9.65
9/2/2022 5:00:00 PM 19.72 67.496 0.092 7.43 1.43 9.58
9/2/2022 5:15:00 PM 19.69 67.442 0.092 7.35 1.86 9.51
9/2/2022 5:30:00 PM 19.66 67.388 0.092 7.32 1.63 9.39
9/2/2022 5:45:00 PM 19.62 67.316 0.092 7.26 1.7 9.24
9/2/2022 6:00:00 PM 19.51 67.118 0.092 7.21 2.8 9.02
9/2/2022 6:15:00 PM 19.46 67.028 0.093 7.18 2.52 8.93
9/2/2022 6:30:00 PM 19.4 66.92 0.093 7.12 2.37 8.74
9/2/2022 6:45:00 PM 19.3 66.74 0.093 7.15 2.32 8.61
9/2/2022 7:00:00 PM 19.19 66.542 0.093 7.14 1.89 8.51
9/2/2022 7:15:00 PM 19.06 66.308 0.094 7.11 2.4 8.49
9/2/2022 7:30:00 PM 18.89 66.002 0.094 7.16 1.71 8.64
9/2/2022 7:45:00 PM 18.72 65.696 0.094 7.18 1.67 8.76
9/2/2022 8:00:00 PM 18.55 65.39 0.094 7.14 2.12 8.62
9/2/2022 8:15:00 PM 18.36 65.048 0.095 7.16 1.52 8.75
9/2/2022 8:30:00 PM 18.14 64.652 0.095 7.15 1.56 8.76
9/2/2022 8:45:00 PM 17.95 64.31 0.095 7.14 1.5 8.76
9/2/2022 9:00:00 PM 17.77 63.986 0.096 7.14 1.55 8.84
9/2/2022 9:15:00 PM 17.58 63.644 0.096 7.13 1.7 8.81
9/2/2022 9:30:00 PM 17.37 63.266 0.096 7.12 1.64 8.84
9/2/2022 9:45:00 PM 17.19 62.942 0.096 7.13 1.43 8.96
9/2/2022 10:00:00 PM 17.06 62.708 0.096 7.11 1.58 8.96
9/2/2022 10:15:00 PM 16.9 62.42 0.096 7.12 1.5 8.99
9/2/2022 10:30:00 PM 16.78 62.204 0.096 7.12 1.44 8.99
9/2/2022 10:45:00 PM 16.66 61.988 0.097 7.11 1.45 9.02
9/2/2022 11:00:00 PM 16.56 61.808 0.097 7.1 1.71 9.01
9/2/2022 11:15:00 PM 16.43 61.574 0.097 7.12 1.35 9.08
9/2/2022 11:30:00 PM 16.37 61.466 0.097 7.11 2.87 9.06
9/2/2022 11:45:00 PM 16.25 61.25 0.097 7.1 1.53 9.08
9/3/2022 12:00:00 AM 16.19 61.142 0.097 7.09 1.37 9.08
9/3/2022 12:15:00 AM 16.1 60.98 0.097 7.09 1.63 9.1
9/3/2022 12:30:00 AM 16.01 60.818 0.097 7.09 1.69 9.1
9/3/2022 12:45:00 AM 15.92 60.656 0.097 7.08 1.49 9.17
9/3/2022 1:00:00 AM 15.83 60.494 0.097 7.09 1.36 9.14
9/3/2022 1:15:00 AM 15.77 60.386 0.097 7.08 1.52 9.17
9/3/2022 1:30:00 AM 15.69 60.242 0.097 7.07 1.48 9.13
9/3/2022 1:45:00 AM 15.59 60.062 0.098 7.08 1.55 9.2
9/3/2022 2:00:00 AM 15.5 59.9 0.098 7.07 1.42 9.21
9/3/2022 2:15:00 AM 15.43 59.774 0.098 7.07 1.48 9.23
9/3/2022 2:30:00 AM 15.37 59.666 0.098 7.08 1.45 9.23
9/3/2022 2:45:00 AM 15.3 59.54 0.098 7.08 1.35 9.28
9/3/2022 3:00:00 AM 15.19 59.342 0.098 7.08 1.44 9.27
9/3/2022 3:15:00 AM 15.12 59.216 0.098 7.07 1.65 9.29
9/3/2022 3:30:00 AM 15.06 59.108 0.098 7.07 1.6 9.31
9/3/2022 3:45:00 AM 14.98 58.964 0.098 7.07 1.53 9.33
9/3/2022 4:00:00 AM 14.93 58.874 0.098 7.06 1.39 9.34
9/3/2022 4:15:00 AM 14.84 58.712 0.098 7.07 1.41 9.37
9/3/2022 4:30:00 AM 14.76 58.568 0.098 7.07 1.46 9.37
9/3/2022 4:45:00 AM 14.67 58.406 0.098 7.07 1.43 9.44
9/3/2022 5:00:00 AM 14.61 58.298 0.098 7.07 1.33 9.44
9/3/2022 5:15:00 AM 14.56 58.208 0.098 7.07 1.42 9.45
9/3/2022 5:30:00 AM 14.49 58.082 0.098 7.07 1.64 9.46
9/3/2022 5:45:00 AM 14.43 57.974 0.099 7.07 1.66 9.45
9/3/2022 6:00:00 AM 14.35 57.83 0.099 7.08 1.39 9.52
9/3/2022 6:15:00 AM 14.33 57.794 0.098 7.05 1.41 9.44
9/3/2022 6:30:00 AM 14.27 57.686 0.098 7.06 1.57 9.5
9/3/2022 6:45:00 AM 14.2 57.56 0.098 7.07 1.34 9.55
9/3/2022 7:00:00 AM 14.16 57.488 0.098 7.07 1.74 9.57
9/3/2022 7:15:00 AM 14.12 57.416 0.098 7.07 1.49 9.58
9/3/2022 7:30:00 AM 14.09 57.362 0.098 7.07 2.81 9.63
9/3/2022 7:45:00 AM 14.08 57.344 0.098 7.06 3.74 9.63
9/3/2022 8:00:00 AM 14.06 57.308 0.099 7.08 1.59 9.7
9/3/2022 8:15:00 AM 14.06 57.308 0.099 7.1 1.45 9.76
9/3/2022 8:30:00 AM 14.08 57.344 0.099 7.11 1.33 9.9
9/3/2022 8:45:00 AM 14.12 57.416 0.098 7.13 1.4 10.05
9/3/2022 9:00:00 AM 14.18 57.524 0.098 7.15 1.33 10.17
9/3/2022 9:15:00 AM 14.29 57.722 0.098 7.19 1.31 10.34
9/3/2022 9:30:00 AM 14.39 57.902 0.098 7.22 1.3 10.5
9/3/2022 9:45:00 AM 14.55 58.19 0.098 7.26 1.4 10.56
9/3/2022 10:00:00 AM 14.79 58.622 0.097 7.26 1.53 10.64
9/3/2022 10:15:00 AM 15.03 59.054 0.097 7.32 1.39 10.72
9/3/2022 10:30:00 AM 15.27 59.486 0.096 7.39 1.35 10.89
9/3/2022 10:45:00 AM 15.54 59.972 0.096 7.39 1.51 10.83
9/3/2022 11:00:00 AM 15.78 60.404 0.096 7.56 1.63 10.84
9/3/2022 11:15:00 AM 16.01 60.818 0.095 7.44 1.33 10.89
9/3/2022 11:30:00 AM 16.2 61.16 0.096 7.46 1.32 10.9
9/3/2022 11:45:00 AM 16.46 61.628 0.094 7.53 1.41 10.92
9/3/2022 12:00:00 PM 16.74 62.132 0.094 7.52 1.37 10.83
9/3/2022 12:15:00 PM 17.02 62.636 0.094 7.55 1.75 10.81
9/3/2022 12:30:00 PM 17.39 63.302 0.094 7.55 1.47 10.68
9/3/2022 12:45:00 PM 17.74 63.932 0.093 7.61 1.36 10.72
9/3/2022 1:00:00 PM 18.09 64.562 0.093 7.66 1.31 10.68
9/3/2022 1:15:00 PM 18.29 64.922 0.094 7.61 1.5 10.51
9/3/2022 1:30:00 PM 18.49 65.282 0.093 7.58 1.58 10.43
9/3/2022 1:45:00 PM 18.61 65.498 0.094 7.66 1.53 10.46
9/3/2022 2:00:00 PM 18.79 65.82201 0.093 7.62 1.47 10.4
9/3/2022 2:15:00 PM 18.96 66.128 0.094 7.62 1.34 10.34
9/3/2022 2:30:00 PM 19.13 66.434 0.092 7.61 1.42 10.31
9/3/2022 2:45:00 PM 19.25 66.65 0.093 7.62 1.4 10.17
9/3/2022 3:00:00 PM 19.4 66.92 0.093 7.61 1.34 10.16
9/3/2022 3:15:00 PM 19.45 67.01 0.094 7.62 1.8 10.22
9/3/2022 3:30:00 PM 19.58 67.244 0.093 7.62 1.69 10.1
9/3/2022 3:45:00 PM 19.69 67.442 0.093 7.66 1.63 10.06
9/3/2022 4:00:00 PM 19.8 67.64 0.093 7.66 2.89 10.12
9/3/2022 4:15:00 PM 19.81 67.658 0.093 7.6 2.64 9.99
9/3/2022 4:30:00 PM 19.86 67.748 0.093 7.55 1.55 9.87
9/3/2022 4:45:00 PM 19.85 67.73 0.093 7.46 1.82 9.79
9/3/2022 5:00:00 PM 19.9 67.82 0.093 7.47 1.79 9.71
9/3/2022 5:15:00 PM 19.9 67.82 0.093 7.41 1.79 9.63
9/3/2022 5:30:00 PM 19.89 67.802 0.093 7.48 1.75 9.63
9/3/2022 5:45:00 PM 19.86 67.748 0.093 7.4 1.57 9.5
9/3/2022 6:00:00 PM 19.83 67.694 0.093 7.41 2.26 9.41
9/3/2022 6:15:00 PM 19.76 67.568 0.093 7.29 1.98 9.2
9/3/2022 6:30:00 PM 19.73 67.514 0.093 7.36 1.88 9.32
9/3/2022 6:45:00 PM 19.65 67.37 0.093 7.27 1.68 9.06
9/3/2022 7:00:00 PM 19.55 67.19 0.093 7.27 1.54 8.97
9/3/2022 7:15:00 PM 19.46 67.028 0.093 7.22 1.81 8.86
9/3/2022 7:30:00 PM 19.35 66.83 0.094 7.19 1.53 8.75
9/3/2022 7:45:00 PM 19.25 66.65 0.094 7.18 1.72 8.69
9/3/2022 8:00:00 PM 19.14 66.452 0.095 7.2 1.73 8.74
9/3/2022 8:15:00 PM 19.03 66.254 0.095 7.16 2.63 8.64
9/3/2022 8:30:00 PM 18.9 66.02 0.095 7.14 1.64 8.58
9/3/2022 8:45:00 PM 18.8 65.84 0.095 7.13 1.44 8.53
9/3/2022 9:00:00 PM 18.66 65.588 0.095 7.13 1.56 8.63
9/3/2022 9:15:00 PM 18.59 65.462 0.096 7.12 1.54 8.58
9/3/2022 9:30:00 PM 18.47 65.246 0.096 7.09 1.6 8.59
9/3/2022 9:45:00 PM 18.37 65.066 0.096 7.1 1.42 8.64
9/3/2022 10:00:00 PM 18.28 64.904 0.096 7.09 1.5 8.62
9/3/2022 10:15:00 PM 18.21 64.778 0.097 7.07 1.85 8.58
9/3/2022 10:30:00 PM 18.11 64.598 0.097 7.06 1.54 8.57
9/3/2022 10:45:00 PM 18.07 64.526 0.097 7.07 1.36 8.6
9/3/2022 11:00:00 PM 17.99 64.382 0.097 7.07 1.5 8.66
9/3/2022 11:15:00 PM 17.94 64.292 0.097 7.06 1.28 8.64
9/3/2022 11:30:00 PM 17.87 64.166 0.098 7.05 1.34 8.62
9/3/2022 11:45:00 PM 17.82 64.076 0.098 7.05 1.58 8.6
9/4/2022 12:00:00 AM 17.79 64.022 0.098 7.05 1.42 8.68
9/4/2022 12:15:00 AM 17.73 63.914 0.098 7.04 1.65 8.63
9/4/2022 12:30:00 AM 17.7 63.86 0.098 7.05 1.34 8.69
9/4/2022 12:45:00 AM 17.67 63.806 0.098 7.03 1.41 8.62
9/4/2022 1:00:00 AM 17.63 63.734 0.098 7.04 1.42 8.67
9/4/2022 1:15:00 AM 17.59 63.662 0.098 7.03 1.58 8.72
9/4/2022 1:30:00 AM 17.56 63.608 0.098 7.01 1.35 8.71
9/4/2022 1:45:00 AM 17.52 63.536 0.098 7.02 1.37 8.73
9/4/2022 2:00:00 AM 17.5 63.5 0.098 7.02 1.45 8.75
9/4/2022 2:15:00 AM 17.46 63.428 0.098 7.02 1.38 8.72
9/4/2022 2:30:00 AM 17.43 63.374 0.098 7 1.37 8.69
9/4/2022 2:45:00 AM 17.4 63.32 0.099 7.01 1.45 8.66
9/4/2022 3:00:00 AM 17.37 63.266 0.099 7.01 1.51 8.72
9/4/2022 3:15:00 AM 17.34 63.212 0.099 7.01 1.6 8.74
9/4/2022 3:30:00 AM 17.31 63.158 0.099 7 1.56 8.7
9/4/2022 3:45:00 AM 17.28 63.104 0.099 7 1.38 8.73
9/4/2022 4:00:00 AM 17.25 63.05 0.099 7 1.45 8.72
9/4/2022 4:15:00 AM 17.21 62.978 0.099 7 1.53 8.75
9/4/2022 4:30:00 AM 17.17 62.906 0.099 6.99 1.5 8.75
9/4/2022 4:45:00 AM 17.14 62.852 0.099 6.99 1.45 8.72
9/4/2022 5:00:00 AM 17.11 62.798 0.099 6.99 1.43 8.74
9/4/2022 5:15:00 AM 17.07 62.726 0.099 6.99 1.39 8.72
9/4/2022 5:30:00 AM 17.03 62.654 0.099 6.99 1.35 8.73
9/4/2022 5:45:00 AM 16.98 62.564 0.099 6.99 1.41 8.76
9/4/2022 6:00:00 AM 16.98 62.564 0.1 6.98 1.5 8.7
9/4/2022 6:15:00 AM 16.95 62.51 0.1 6.98 1.39 8.76
9/4/2022 6:30:00 AM 16.9 62.42 0.1 6.99 2.09 8.75
9/4/2022 6:45:00 AM 16.87 62.366 0.1 6.98 1.52 8.79
9/4/2022 7:00:00 AM 16.84 62.312 0.1 6.99 1.63 8.8
9/4/2022 7:15:00 AM 16.82 62.276 0.1 6.98 1.56 8.8
9/4/2022 7:30:00 AM 16.79 62.222 0.1 6.99 1.58 8.85
9/4/2022 7:45:00 AM 16.77 62.186 0.101 7 1.39 8.91
9/4/2022 8:00:00 AM 16.75 62.15 0.101 6.99 2.29 8.92
9/4/2022 8:15:00 AM 16.74 62.132 0.101 7 1.47 8.95
9/4/2022 8:30:00 AM 16.73 62.114 0.101 7 1.44 9
9/4/2022 8:45:00 AM 16.72 62.096 0.101 7.02 1.5 9.07
9/4/2022 9:00:00 AM 16.72 62.096 0.101 7.02 1.5 9.16
9/4/2022 9:15:00 AM 16.73 62.114 0.101 7.03 1.34 9.24
9/4/2022 9:30:00 AM 16.75 62.15 0.101 7.04 1.3 9.33
9/4/2022 9:45:00 AM 16.78 62.204 0.101 7.06 1.53 9.45
9/4/2022 10:00:00 AM 16.81 62.258 0.1 7.07 1.36 9.49
9/4/2022 10:15:00 AM 16.86 62.348 0.1 7.09 1.46 9.65
9/4/2022 10:30:00 AM 16.92 62.456 0.1 7.11 1.35 9.75
9/4/2022 10:45:00 AM 17 62.6 0.1 7.15 1.34 9.9
9/4/2022 11:00:00 AM 17.08 62.744 0.099 7.18 1.26 10
9/4/2022 11:15:00 AM 17.14 62.852 0.099 7.19 1.73 10.01
9/4/2022 11:30:00 AM 17.21 62.978 0.098 7.21 1.36 10.05
9/4/2022 11:45:00 AM 17.26 63.068 0.098 7.22 1.34 10.07
9/4/2022 12:00:00 PM 17.32 63.176 0.098 7.21 1.99 9.96
9/4/2022 12:15:00 PM 17.46 63.428 0.097 7.28 1.44 10.12
9/4/2022 12:30:00 PM 17.61 63.698 0.097 7.3 1.37 10.19
9/4/2022 12:45:00 PM 17.81 64.058 0.096 7.35 1.34 10.3
9/4/2022 1:00:00 PM 17.99 64.382 0.095 7.35 1.36 10.34
9/4/2022 1:15:00 PM 18.22 64.796 0.094 7.45 1.32 10.45
9/4/2022 1:30:00 PM 18.35 65.03 0.094 7.45 1.36 10.43
9/4/2022 1:45:00 PM 18.42 65.156 0.094 7.43 1.57 10.34
9/4/2022 2:00:00 PM 18.48 65.264 0.094 7.45 1.48 10.3
9/4/2022 2:15:00 PM 18.57 65.426 0.094 7.51 1.52 10.29
9/4/2022 2:30:00 PM 18.69 65.642 0.094 7.49 1.64 10.27
9/4/2022 2:45:00 PM 18.81 65.858 0.094 7.55 1.59 10.28
9/4/2022 3:00:00 PM 18.91 66.038 0.094 7.53 1.47 10.25
9/4/2022 3:15:00 PM 18.98 66.164 0.094 7.52 1.32 10.22
9/4/2022 3:30:00 PM 19.07 66.326 0.094 7.52 1.34 10.18
9/4/2022 3:45:00 PM 19.09 66.362 0.094 7.45 1.48 10.03
9/4/2022 4:00:00 PM 19.17 66.506 0.094 7.49 1.3 10.06
9/4/2022 4:15:00 PM 19.23 66.614 0.094 7.49 1.42 10.05
9/4/2022 4:30:00 PM 19.3 66.74 0.094 7.55 1.55 10.08
9/4/2022 4:45:00 PM 19.34 66.812 0.094 7.52 1.51 9.97
9/4/2022 5:00:00 PM 19.36 66.848 0.093 7.44 1.63 9.85
9/4/2022 5:15:00 PM 19.38 66.884 0.093 7.43 1.45 9.82
9/4/2022 5:30:00 PM 19.37 66.866 0.093 7.4 1.63 9.68
9/4/2022 5:45:00 PM 19.37 66.866 0.093 7.32 1.82 9.57
9/4/2022 6:00:00 PM 19.35 66.83 0.093 7.3 1.7 9.48
9/4/2022 6:15:00 PM 19.33 66.794 0.093 7.31 1.53 9.39
9/4/2022 6:30:00 PM 19.3 66.74 0.094 7.25 1.46 9.23
9/4/2022 6:45:00 PM 19.25 66.65 0.094 7.26 1.38 9.19
9/4/2022 7:00:00 PM 19.18 66.524 0.094 7.24 1.41 9.06
9/4/2022 7:15:00 PM 19.13 66.434 0.094 7.19 1.42 8.9
9/4/2022 7:30:00 PM 19.05 66.29 0.094 7.17 1.4 8.82
9/4/2022 7:45:00 PM 18.98 66.164 0.095 7.2 1.36 8.77
9/4/2022 8:00:00 PM 18.89 66.002 0.095 7.13 1.56 8.63
9/4/2022 8:15:00 PM 18.81 65.858 0.095 7.12 1.43 8.66
9/4/2022 8:30:00 PM 18.71 65.67799 0.096 7.1 1.46 8.65
9/4/2022 8:45:00 PM 18.65 65.57 0.096 7.09 2.27 8.58
9/4/2022 9:00:00 PM 18.57 65.426 0.096 7.08 1.59 8.6
9/4/2022 9:15:00 PM 18.49 65.282 0.096 7.07 1.76 8.59
9/4/2022 9:30:00 PM 18.42 65.156 0.097 7.06 1.56 8.61
9/4/2022 9:45:00 PM 18.34 65.012 0.097 7.05 1.4 8.62
9/4/2022 10:00:00 PM 18.29 64.922 0.097 7.03 1.52 8.6
9/4/2022 10:15:00 PM 18.24 64.832 0.097 7.04 1.51 8.65
9/4/2022 10:30:00 PM 18.17 64.706 0.097 7.03 1.68 8.7
9/4/2022 10:45:00 PM 18.14 64.652 0.097 7.02 1.39 8.7
9/4/2022 11:00:00 PM 18.09 64.562 0.097 7.01 1.4 8.69
9/4/2022 11:15:00 PM 18.06 64.508 0.098 7 1.47 8.67
9/4/2022 11:30:00 PM 18.03 64.454 0.098 6.99 1.41 8.64
9/4/2022 11:45:00 PM 17.99 64.382 0.098 6.98 1.36 8.64
9/5/2022 12:00:00 AM 17.96 64.328 0.098 6.99 1.58 8.6
9/5/2022 12:15:00 AM 17.92 64.256 0.098 6.97 1.44 8.6
9/5/2022 12:30:00 AM 17.89 64.202 0.098 6.97 1.65 8.64
9/5/2022 12:45:00 AM 17.85 64.13 0.098 6.97 1.44 8.65
9/5/2022 1:00:00 AM 17.82 64.076 0.098 6.98 1.46 8.69
9/5/2022 1:15:00 AM 17.79 64.022 0.098 6.97 1.6 8.66
9/5/2022 1:30:00 AM 17.75 63.95 0.098 6.97 1.56 8.71
9/5/2022 1:45:00 AM 17.72 63.896 0.097 6.96 1.78 8.76
9/5/2022 2:00:00 AM 17.69 63.842 0.097 6.96 1.58 8.76
9/5/2022 2:15:00 AM 17.67 63.806 0.097 6.95 1.5 8.67
9/5/2022 2:30:00 AM 17.64 63.752 0.097 6.95 1.67 8.69
9/5/2022 2:45:00 AM 17.62 63.716 0.097 6.95 1.44 8.71
9/5/2022 3:00:00 AM 17.61 63.698 0.097 6.94 1.58 8.69
9/5/2022 3:15:00 AM 17.58 63.644 0.097 6.95 1.67 8.7
9/5/2022 3:30:00 AM 17.55 63.59 0.097 6.95 1.55 8.72
9/5/2022 3:45:00 AM 17.53 63.554 0.097 6.96 1.46 8.76
9/5/2022 4:00:00 AM 17.51 63.518 0.097 6.97 1.56 8.74
9/5/2022 4:15:00 AM 17.48 63.464 0.097 6.97 1.46 8.75
9/5/2022 4:30:00 AM 17.46 63.428 0.097 6.97 1.67 8.75
9/5/2022 4:45:00 AM 17.45 63.41 0.096 6.99 1.65 8.82
9/5/2022 5:00:00 AM 17.43 63.374 0.095 6.99 1.96 8.82
9/5/2022 5:15:00 AM 17.42 63.356 0.094 6.99 2.23 8.87
9/5/2022 5:30:00 AM 17.4 63.32 0.093 6.99 2.32 8.9
9/5/2022 5:45:00 AM 17.38 63.284 0.092 6.99 2.6 8.91
9/5/2022 6:00:00 AM 17.36 63.248 0.09 6.98 3.17 8.93
9/5/2022 6:15:00 AM 17.33 63.194 0.09 6.99 3.12 8.96
9/5/2022 6:30:00 AM 17.31 63.158 0.089 7 3.72 8.99
9/5/2022 6:45:00 AM 17.29 63.122 0.089 6.99 3.41 9.04
9/5/2022 7:00:00 AM 17.29 63.122 0.088 6.99 3.95 9.06
9/5/2022 7:15:00 AM 17.27 63.086 0.087 6.99 4.28 9.06
9/5/2022 7:30:00 AM 17.27 63.086 0.086 6.98 7.01 9.09
9/5/2022 7:45:00 AM 17.24 63.032 0.085 6.96 8.85 9.1
9/5/2022 8:00:00 AM 17.22 62.996 0.085 6.95 8.75 9.09
9/5/2022 8:15:00 AM 17.17 62.906 0.084 6.93 7.92 9.15
9/5/2022 8:30:00 AM 17.1 62.78 0.087 6.93 13.99 9.25
9/5/2022 8:45:00 AM 17.11 62.798 0.092 6.96 13.7 9.29
9/5/2022 9:00:00 AM 17.14 62.852 0.095 6.97 13.14 9.29
9/5/2022 9:15:00 AM 17.19 62.942 0.098 6.99 24.67 9.32
9/5/2022 9:30:00 AM 17.27 63.086 0.1 7 13.58 9.37
9/5/2022 9:45:00 AM 17.36 63.248 0.1 7.02 12.79 9.39
9/5/2022 10:00:00 AM 17.45 63.41 0.1 7.03 12.46 9.39
9/5/2022 10:15:00 AM 17.52 63.536 0.098 7.03 13.04 9.41
9/5/2022 10:30:00 AM 17.59 63.662 0.096 7.03 11.43 9.42
9/5/2022 10:45:00 AM 17.66 63.788 0.094 7.04 10.33 9.43
9/5/2022 11:00:00 AM 17.72 63.896 0.093 7.05 10.78 9.47
9/5/2022 11:15:00 AM 17.77 63.986 0.093 7.06 8.9 9.49
9/5/2022 11:30:00 AM 17.83 64.094 0.092 7.08 8.57 9.53
9/5/2022 11:45:00 AM 17.88 64.184 0.092 7.09 7.71 9.55
9/5/2022 12:00:00 PM 17.92 64.256 0.092 7.1 7.31 9.55
9/5/2022 12:15:00 PM 17.94 64.292 0.092 7.1 6.24 9.55
9/5/2022 12:30:00 PM 17.95 64.31 0.093 7.11 5.95 9.56
9/5/2022 12:45:00 PM 17.96 64.328 0.093 7.11 5.81 9.56
9/5/2022 1:00:00 PM 17.98 64.364 0.093 7.12 5.88 9.58
9/5/2022 1:15:00 PM 17.98 64.364 0.093 7.11 5.36 9.53
9/5/2022 1:30:00 PM 17.99 64.382 0.093 7.1 5.14 9.5
9/5/2022 1:45:00 PM 18 64.4 0.093 7.11 5.31 9.52
9/5/2022 2:00:00 PM 18.02 64.436 0.093 7.11 4.95 9.53
9/5/2022 2:15:00 PM 18.04 64.472 0.093 7.12 4.81 9.56
9/5/2022 2:30:00 PM 18.08 64.544 0.093 7.13 4.13 9.58
9/5/2022 2:45:00 PM 18.1 64.58 0.093 7.13 4.82 9.58
9/5/2022 3:00:00 PM 18.13 64.634 0.094 7.14 4.15 9.57
9/5/2022 3:15:00 PM 18.16 64.688 0.094 7.14 4.27 9.6
9/5/2022 3:30:00 PM 18.17 64.706 0.094 7.14 4.22 9.56
9/5/2022 3:45:00 PM 18.17 64.706 0.094 7.13 5.48 9.49
9/5/2022 4:00:00 PM 18.17 64.706 0.095 7.12 4.25 9.47
9/5/2022 4:15:00 PM 18.18 64.724 0.095 7.12 3.7 9.46
9/5/2022 4:30:00 PM 18.15 64.67 0.095 7.12 5.43 9.46
9/5/2022 4:45:00 PM 18.11 64.598 0.096 7.1 4.3 9.39
9/5/2022 5:00:00 PM 18.1 64.58 0.096 7.09 4.14 9.33
9/5/2022 5:15:00 PM 18.07 64.526 0.096 7.08 3.4 9.33
9/5/2022 5:30:00 PM 18.04 64.472 0.097 7.07 3.72 9.33
9/5/2022 5:45:00 PM 18.02 64.436 0.097 7.07 3.55 9.32
9/5/2022 6:00:00 PM 17.99 64.382 0.097 7.05 3.78 9.26
9/5/2022 6:15:00 PM 17.97 64.346 0.098 7.05 3.67 9.25
9/5/2022 6:30:00 PM 17.95 64.31 0.098 7.05 3.65 9.26
9/5/2022 6:45:00 PM 17.92 64.256 0.099 7.04 3.54 9.23
9/5/2022 7:00:00 PM 17.9 64.22 0.099 7.04 3.31 9.23
9/5/2022 7:15:00 PM 17.86 64.148 0.1 7.03 3.29 9.22
9/5/2022 7:30:00 PM 17.81 64.058 0.101 7.02 3.3 9.21
9/5/2022 7:45:00 PM 17.76 63.968 0.101 7.01 3.48 9.16
9/5/2022 8:00:00 PM 17.73 63.914 0.102 7 3.2 9.14
9/5/2022 8:15:00 PM 17.67 63.806 0.103 6.99 3.46 9.11
9/5/2022 8:30:00 PM 17.64 63.752 0.103 6.98 4.59 9.08
9/5/2022 8:45:00 PM 17.61 63.698 0.104 6.97 3.46 9.09
9/5/2022 9:00:00 PM 17.56 63.608 0.104 6.97 3.46 9.09
9/5/2022 9:15:00 PM 17.54 63.572 0.105 6.96 3.16 9.1
9/5/2022 9:30:00 PM 17.5 63.5 0.106 6.95 3.74 9.11
9/5/2022 9:45:00 PM 17.48 63.464 0.106 6.95 4.26 9.11
9/5/2022 10:00:00 PM 17.45 63.41 0.107 6.94 3.66 9.09
9/5/2022 10:15:00 PM 17.42 63.356 0.108 6.94 3.41 9.12
9/5/2022 10:30:00 PM 17.4 63.32 0.108 6.93 3.5 9.13
9/5/2022 10:45:00 PM 17.38 63.284 0.109 6.92 3.2 9.06
9/5/2022 11:00:00 PM 17.35 63.23 0.11 6.92 6.03 9.14
9/5/2022 11:15:00 PM 17.33 63.194 0.11 6.91 3.19 9.14
9/5/2022 11:30:00 PM 17.31 63.158 0.111 6.91 3.42 9.15
9/5/2022 11:45:00 PM 17.29 63.122 0.111 6.91 3.39 9.14
9/6/2022 12:00:00 AM 17.27 63.086 0.112 6.9 3.29 9.14
9/6/2022 12:15:00 AM 17.25 63.05 0.112 6.93 4.03 9.16
9/6/2022 12:30:00 AM 17.23 63.014 0.112 6.94 3.65 9.16
9/6/2022 12:45:00 AM 17.21 62.978 0.113 6.95 3.18 9.16
9/6/2022 1:00:00 AM 17.19 62.942 0.113 6.95 3.45 9.18
9/6/2022 1:15:00 AM 17.17 62.906 0.113 6.94 2.95 9.16
9/6/2022 1:30:00 AM 17.15 62.87 0.114 6.95 3.14 9.18
9/6/2022 1:45:00 AM 17.14 62.852 0.114 6.95 3.03 9.19
9/6/2022 2:00:00 AM 17.12 62.816 0.114 6.94 2.95 9.18
9/6/2022 2:15:00 AM 17.1 62.78 0.114 6.95 2.99 9.19
9/6/2022 2:30:00 AM 17.09 62.762 0.114 6.94 3.05 9.2
9/6/2022 2:45:00 AM 17.07 62.726 0.115 6.95 2.97 9.22
9/6/2022 3:00:00 AM 17.05 62.69 0.115 6.95 2.7 9.21
9/6/2022 3:15:00 AM 17.04 62.672 0.115 6.94 2.75 9.19
9/6/2022 3:30:00 AM 17.02 62.636 0.115 6.95 3.05 9.21
9/6/2022 3:45:00 AM 17 62.6 0.115 6.95 3.81 9.2
9/6/2022 4:00:00 AM 16.99 62.582 0.115 6.96 3.54 9.21
9/6/2022 4:15:00 AM 16.97 62.546 0.116 6.96 2.66 9.22
9/6/2022 4:30:00 AM 16.96 62.528 0.116 6.96 2.54 9.21
9/6/2022 4:45:00 AM 16.94 62.492 0.116 6.96 2.88 9.24
9/6/2022 5:00:00 AM 16.93 62.474 0.116 6.96 3.1 9.24
9/6/2022 5:15:00 AM 16.91 62.438 0.116 6.96 2.52 9.24
9/6/2022 5:30:00 AM 16.9 62.42 0.116 6.96 2.68 9.22
9/6/2022 5:45:00 AM 16.88 62.384 0.116 6.96 2.52 9.23
9/6/2022 6:00:00 AM 16.87 62.366 0.116 6.96 2.84 9.25
9/6/2022 6:15:00 AM 16.85 62.33 0.116 6.96 2.68 9.25
9/6/2022 6:30:00 AM 16.84 62.312 0.116 6.97 2.66 9.25
9/6/2022 6:45:00 AM 16.82 62.276 0.116 6.96 5.27 9.18
9/6/2022 7:00:00 AM 16.81 62.258 0.116 6.96 2.79 9.2
9/6/2022 7:15:00 AM 16.8 62.24 0.116 6.96 2.63 9.21
9/6/2022 7:30:00 AM 16.79 62.222 0.116 6.98 3.1 9.29
9/6/2022 7:45:00 AM 16.8 62.24 0.116 6.99 2.58 9.29
9/6/2022 8:00:00 AM 16.79 62.222 0.116 7.01 2.33 9.37
9/6/2022 8:15:00 AM 16.8 62.24 0.116 7.02 2.42 9.36
9/6/2022 8:30:00 AM 16.81 62.258 0.116 7.05 3.06 9.43
9/6/2022 8:45:00 AM 16.81 62.258 0.116 7.06 2.23 9.46
9/6/2022 9:00:00 AM 16.83 62.294 0.116 7.08 2.35 9.48
9/6/2022 9:15:00 AM 16.85 62.33 0.115 7.09 2.5 9.55
9/6/2022 9:30:00 AM 16.87 62.366 0.115 7.11 2.87 9.57
9/6/2022 9:45:00 AM 16.89 62.402 0.115 7.11 3.6 9.6
9/6/2022 10:00:00 AM 16.9 62.42 0.115 7.13 2.33 9.64
9/6/2022 10:15:00 AM 16.94 62.492 0.115 7.15 2.24 9.69
9/6/2022 10:30:00 AM 16.98 62.564 0.115 7.16 2.49 9.72
9/6/2022 10:45:00 AM 17 62.6 0.114 7.17 2.18 9.75
9/6/2022 11:00:00 AM 17.03 62.654 0.114 7.18 2.26 9.76
9/6/2022 11:15:00 AM 17.08 62.744 0.114 7.18 2.63 9.77
9/6/2022 11:30:00 AM 17.11 62.798 0.114 7.19 2.39 9.79
9/6/2022 11:45:00 AM 17.14 62.852 0.114 7.19 2.17 9.81
9/6/2022 12:00:00 PM 17.16 62.888 0.114 7.21 2.13 9.81
9/6/2022 12:15:00 PM 17.18 62.924 0.114 7.2 2.27 9.76
9/6/2022 12:30:00 PM 17.21 62.978 0.114 7.19 2.49 9.77
9/6/2022 12:45:00 PM 17.26 63.068 0.114 7.19 2.12 9.75
9/6/2022 1:00:00 PM 17.33 63.194 0.114 7.21 2.34 9.82
9/6/2022 1:15:00 PM 17.38 63.284 0.114 7.22 2.32 9.85
9/6/2022 1:30:00 PM 17.41 63.338 0.114 7.22 2.28 9.76
9/6/2022 1:45:00 PM 17.45 63.41 0.114 7.21 2.65 9.81
9/6/2022 2:00:00 PM 17.52 63.536 0.114 7.24 2.26 9.84
9/6/2022 2:15:00 PM 17.61 63.698 0.113 7.25 2.32 9.88
9/6/2022 2:30:00 PM 17.65 63.77 0.113 7.25 2.13 9.85
9/6/2022 2:45:00 PM 17.67 63.806 0.113 7.25 2.4 9.73
9/6/2022 3:00:00 PM 17.71 63.878 0.113 7.23 2.19 9.75
9/6/2022 3:15:00 PM 17.75 63.95 0.113 7.25 2.2 9.77
9/6/2022 3:30:00 PM 17.78 64.004 0.113 7.25 2.33 9.71
9/6/2022 3:45:00 PM 17.83 64.094 0.113 7.25 2.43 9.72
9/6/2022 4:00:00 PM 17.86 64.148 0.113 7.25 8.92 9.76
9/6/2022 4:15:00 PM 17.85 64.13 0.113 7.27 2.22 9.74
9/6/2022 4:30:00 PM 17.85 64.13 0.113 7.23 2.36 9.65
9/6/2022 4:45:00 PM 17.87 64.166 0.113 7.23 2.59 9.64
9/6/2022 5:00:00 PM 17.85 64.13 0.113 7.24 2.02 9.61
9/6/2022 5:15:00 PM 17.83 64.094 0.113 7.22 2.44 9.53
9/6/2022 5:30:00 PM 17.83 64.094 0.113 7.21 2.47 9.53
9/6/2022 5:45:00 PM 17.82 64.076 0.113 7.23 2.01 9.58
9/6/2022 6:00:00 PM 17.82 64.076 0.113 7.23 2.06 9.59
9/6/2022 6:15:00 PM 17.81 64.058 0.113 7.2 2.2 9.54
9/6/2022 6:30:00 PM 17.8 64.04 0.114 7.21 2.29 9.5
9/6/2022 6:45:00 PM 17.79 64.022 0.114 7.21 2.19 9.47
9/6/2022 7:00:00 PM 17.77 63.986 0.114 7.22 2.1 9.5
9/6/2022 7:15:00 PM 17.73 63.914 0.114 7.18 2.52 9.38
9/6/2022 7:30:00 PM 17.69 63.842 0.114 7.17 11.56 9.27
9/6/2022 7:45:00 PM 17.64 63.752 0.114 7.17 2.13 9.28
9/6/2022 8:00:00 PM 17.6 63.68 0.114 7.15 2.23 9.21
9/6/2022 8:15:00 PM 17.54 63.572 0.115 7.14 2.38 9.18
9/6/2022 8:30:00 PM 17.48 63.464 0.115 7.13 2.43 9.14
9/6/2022 8:45:00 PM 17.43 63.374 0.115 7.12 2.16 9.12
9/6/2022 9:00:00 PM 17.38 63.284 0.115 7.11 2.39 9.11
9/6/2022 9:15:00 PM 17.34 63.212 0.116 7.11 2.18 9.11
9/6/2022 9:30:00 PM 17.29 63.122 0.116 7.1 2.25 9.1
9/6/2022 9:45:00 PM 17.24 63.032 0.116 7.09 2.08 9.1
9/6/2022 10:00:00 PM 17.19 62.942 0.116 7.1 2.25 9.1
9/6/2022 10:15:00 PM 17.16 62.888 0.116 7.09 2.2 9.12
9/6/2022 10:30:00 PM 17.12 62.816 0.116 7.09 2.35 9.14
9/6/2022 10:45:00 PM 17.09 62.762 0.116 7.09 2.29 9.12
9/6/2022 11:00:00 PM 17.05 62.69 0.116 7.08 3.89 9.09
9/6/2022 11:15:00 PM 17.02 62.636 0.116 7.09 2.23 9.15
9/6/2022 11:30:00 PM 16.98 62.564 0.116 7.09 2.18 9.16
9/6/2022 11:45:00 PM 16.94 62.492 0.116 7.08 2.15 9.17
9/7/2022 12:00:00 AM 16.91 62.438 0.116 7.08 2.21 9.17
9/7/2022 12:15:00 AM 16.88 62.384 0.116 7.08 2.17 9.17
9/7/2022 12:30:00 AM 16.85 62.33 0.116 7.08 2.04 9.15
9/7/2022 12:45:00 AM 16.83 62.294 0.116 7.07 2.07 9.16
9/7/2022 1:00:00 AM 16.8 62.24 0.116 7.07 3.06 9.14
9/7/2022 1:15:00 AM 16.77 62.186 0.116 7.07 2.46 9.19
9/7/2022 1:30:00 AM 16.75 62.15 0.116 7.07 2.14 9.18
9/7/2022 1:45:00 AM 16.72 62.096 0.116 7.07 2 9.19
9/7/2022 2:00:00 AM 16.69 62.042 0.116 7.07 2.4 9.19
9/7/2022 2:15:00 AM 16.66 61.988 0.116 7.07 2.51 9.19
9/7/2022 2:30:00 AM 16.64 61.952 0.116 7.07 2.24 9.19
9/7/2022 2:45:00 AM 16.61 61.898 0.116 7.07 2.14 9.21
9/7/2022 3:00:00 AM 16.59 61.862 0.116 7.06 2.09 9.19
9/7/2022 3:15:00 AM 16.57 61.826 0.116 7.06 1.99 9.2
9/7/2022 3:30:00 AM 16.54 61.772 0.116 7.07 2.33 9.22
9/7/2022 3:45:00 AM 16.52 61.736 0.116 7.07 2.02 9.24
9/7/2022 4:00:00 AM 16.5 61.7 0.116 7.07 2.01 9.23
9/7/2022 4:15:00 AM 16.47 61.646 0.116 7.07 2 9.24
9/7/2022 4:30:00 AM 16.45 61.61 0.116 7.06 2.27 9.25
9/7/2022 4:45:00 AM 16.43 61.574 0.116 7.06 1.93 9.25
9/7/2022 5:00:00 AM 16.41 61.538 0.116 7.06 1.91 9.25
9/7/2022 5:15:00 AM 16.39 61.502 0.116 7.06 2.72 9.25
9/7/2022 5:30:00 AM 16.37 61.466 0.116 7.06 2.55 9.26
9/7/2022 5:45:00 AM 16.36 61.448 0.116 7.06 2.17 9.27
9/7/2022 6:00:00 AM 16.34 61.412 0.116 7.06 2.11 9.28
9/7/2022 6:15:00 AM 16.32 61.376 0.116 7.06 2.26 9.26
9/7/2022 6:30:00 AM 16.3 61.34 0.117 7.06 2.15 9.28
9/7/2022 6:45:00 AM 16.29 61.322 0.117 7.06 2.35 9.28
9/7/2022 7:00:00 AM 16.27 61.286 0.117 7.06 2.07 9.3
9/7/2022 7:15:00 AM 16.26 61.268 0.117 7.06 1.91 9.28
9/7/2022 7:30:00 AM 16.25 61.25 0.117 7.06 1.92 9.31
9/7/2022 7:45:00 AM 16.24 61.232 0.117 7.07 2.2 9.35
9/7/2022 8:00:00 AM 16.24 61.232 0.117 7.07 1.85 9.38
9/7/2022 8:15:00 AM 16.26 61.268 0.117 7.08 1.96 9.45
9/7/2022 8:30:00 AM 16.3 61.34 0.117 7.1 2 9.54
9/7/2022 8:45:00 AM 16.35 61.43 0.117 7.12 1.83 9.66
9/7/2022 9:00:00 AM 16.41 61.538 0.117 7.14 1.8 9.76
9/7/2022 9:15:00 AM 16.46 61.628 0.117 7.16 1.87 9.82
9/7/2022 9:30:00 AM 16.52 61.736 0.116 7.17 1.77 9.88
9/7/2022 9:45:00 AM 16.59 61.862 0.116 7.19 1.8 9.91
9/7/2022 10:00:00 AM 16.65 61.97 0.116 7.2 1.9 9.92
9/7/2022 10:15:00 AM 16.7 62.06 0.116 7.21 1.84 9.89
9/7/2022 10:30:00 AM 16.75 62.15 0.116 7.2 2.04 9.88
9/7/2022 10:45:00 AM 16.89 62.402 0.116 7.23 1.81 9.93
9/7/2022 11:00:00 AM 17 62.6 0.115 7.21 1.79 9.96
9/7/2022 11:15:00 AM 17.07 62.726 0.115 7.24 1.96 9.98
9/7/2022 11:30:00 AM 17.13 62.834 0.115 7.26 1.75 10.02
9/7/2022 11:45:00 AM 17.18 62.924 0.114 7.28 1.86 10.03
9/7/2022 12:00:00 PM 17.23 63.014 0.114 7.27 2.02 9.99
9/7/2022 12:15:00 PM 17.3 63.14 0.115 7.29 2.18 10
9/7/2022 12:30:00 PM 17.4 63.32 0.114 7.29 1.76 10.04
9/7/2022 12:45:00 PM 17.55 63.59 0.113 7.3 1.82 10.06
9/7/2022 1:00:00 PM 17.7 63.86 0.113 7.34 1.99 10.1
9/7/2022 1:15:00 PM 17.83 64.094 0.113 7.35 1.78 10.09
9/7/2022 1:30:00 PM 17.93 64.274 0.113 7.36 1.71 10.08
9/7/2022 1:45:00 PM 18 64.4 0.113 7.34 2.04 10.03
9/7/2022 2:00:00 PM 18.08 64.544 0.113 7.35 1.94 9.99
9/7/2022 2:15:00 PM 18.14 64.652 0.113 7.34 1.84 9.95
9/7/2022 2:30:00 PM 18.23 64.814 0.114 7.36 1.78 9.91
9/7/2022 2:45:00 PM 18.34 65.012 0.113 7.37 1.68 9.92
9/7/2022 3:00:00 PM 18.45 65.21 0.114 7.37 1.92 9.95
9/7/2022 3:15:00 PM 18.53 65.354 0.113 7.37 1.78 9.91
9/7/2022 3:30:00 PM 18.59 65.462 0.112 7.35 1.89 9.89
9/7/2022 3:45:00 PM 18.66 65.588 0.112 7.36 1.93 9.87
9/7/2022 4:00:00 PM 18.78 65.804 0.113 7.4 1.84 9.89
9/7/2022 4:15:00 PM 18.88 65.984 0.112 7.39 1.82 9.83
9/7/2022 4:30:00 PM 18.93 66.074 0.112 7.39 1.83 9.78
9/7/2022 4:45:00 PM 18.98 66.164 0.112 7.39 1.8 9.72
9/7/2022 5:00:00 PM 19.04 66.272 0.112 7.33 2 9.64
9/7/2022 5:15:00 PM 19.05 66.29 0.112 7.36 1.87 9.61
9/7/2022 5:30:00 PM 19.08 66.344 0.112 7.34 1.9 9.58
9/7/2022 5:45:00 PM 19.1 66.38 0.111 7.34 1.84 9.51
9/7/2022 6:00:00 PM 19.06 66.308 0.111 7.29 1.83 9.41
9/7/2022 6:15:00 PM 18.98 66.164 0.111 7.26 1.92 9.28
9/7/2022 6:30:00 PM 18.86 65.948 0.111 7.25 2.26 9.17
9/7/2022 6:45:00 PM 18.76 65.768 0.111 7.22 1.98 9.08
9/7/2022 7:00:00 PM 18.65 65.57 0.111 7.2 1.92 9.02
9/7/2022 7:15:00 PM 18.55 65.39 0.111 7.17 1.79 8.93
9/7/2022 7:30:00 PM 18.44 65.192 0.112 7.17 2.05 8.96
9/7/2022 7:45:00 PM 18.34 65.012 0.112 7.15 2.03 8.91
9/7/2022 8:00:00 PM 18.25 64.85 0.112 7.15 2.09 8.92
9/7/2022 8:15:00 PM 18.17 64.706 0.112 7.14 2.25 8.88
9/7/2022 8:30:00 PM 18.09 64.562 0.112 7.12 2.11 8.86
9/7/2022 8:45:00 PM 18.01 64.418 0.112 7.11 2.01 8.79
9/7/2022 9:00:00 PM 17.95 64.31 0.112 7.11 2.38 8.82
9/7/2022 9:15:00 PM 17.9 64.22 0.112 7.1 2.07 8.79
9/7/2022 9:30:00 PM 17.85 64.13 0.112 7.06 1.85 8.78
9/7/2022 9:45:00 PM 17.79 64.022 0.112 7.04 2.95 8.74
9/7/2022 10:00:00 PM 17.74 63.932 0.113 7.08 2.17 8.84
9/7/2022 10:15:00 PM 17.7 63.86 0.113 7.06 2.25 8.84
9/7/2022 10:30:00 PM 17.66 63.788 0.113 7.08 2.07 8.83
9/7/2022 10:45:00 PM 17.61 63.698 0.113 7.08 2.13 8.86
9/7/2022 11:00:00 PM 17.57 63.626 0.113 7.08 2 8.89
9/7/2022 11:15:00 PM 17.53 63.554 0.113 7.08 2.11 8.9
9/7/2022 11:30:00 PM 17.48 63.464 0.113 7.06 2 8.91
9/7/2022 11:45:00 PM 17.44 63.392 0.113 7.08 1.92 8.92
9/8/2022 12:00:00 AM 17.4 63.32 0.113 7.02 1.96 8.9
9/8/2022 12:15:00 AM 17.36 63.248 0.113 7.02 1.92 8.95
9/8/2022 12:30:00 AM 17.32 63.176 0.113 7.04 1.9 8.94
9/8/2022 12:45:00 AM 17.28 63.104 0.113 7.06 1.96 8.98
9/8/2022 1:00:00 AM 17.24 63.032 0.113 7.07 1.88 8.99
9/8/2022 1:15:00 AM 17.2 62.96 0.113 7.07 1.89 8.99
9/8/2022 1:30:00 AM 17.16 62.888 0.113 7.05 1.99 8.96
9/8/2022 1:45:00 AM 17.12 62.816 0.113 7.08 1.97 9.04
9/8/2022 2:00:00 AM 17.09 62.762 0.113 7.07 1.85 9.03
9/8/2022 2:15:00 AM 17.04 62.672 0.113 7.06 1.73 9.05
9/8/2022 2:30:00 AM 17.01 62.618 0.113 7.06 2.44 9.01
9/8/2022 2:45:00 AM 16.98 62.564 0.113 7.07 1.99 9.07
9/8/2022 3:00:00 AM 16.94 62.492 0.113 7.07 1.96 9.08
9/8/2022 3:15:00 AM 16.88 62.384 0.113 7.05 1.97 9.09
9/8/2022 3:30:00 AM 16.84 62.312 0.113 7.03 2.02 9.09
9/8/2022 3:45:00 AM 16.81 62.258 0.113 7.07 2.11 9.15
9/8/2022 4:00:00 AM 16.77 62.186 0.113 7.08 1.9 9.15
9/8/2022 4:15:00 AM 16.73 62.114 0.114 7.08 2.04 9.17
9/8/2022 4:30:00 AM 16.7 62.06 0.114 7.08 2 9.19
9/8/2022 4:45:00 AM 16.68 62.024 0.114 7.08 1.89 9.18
9/8/2022 5:00:00 AM 16.65 61.97 0.114 7.08 1.96 9.19
9/8/2022 5:15:00 AM 16.63 61.934 0.114 7.08 3.32 9.21
9/8/2022 5:30:00 AM 16.61 61.898 0.114 7.08 3.61 9.22
9/8/2022 5:45:00 AM 16.59 61.862 0.114 7.07 2.07 9.17
9/8/2022 6:00:00 AM 16.57 61.826 0.115 7.07 2.29 9.18
9/8/2022 6:15:00 AM 16.55 61.79 0.115 7.04 3.43 9.15
9/8/2022 6:30:00 AM 16.52 61.736 0.115 7.05 1.91 9.18
9/8/2022 6:45:00 AM 16.49 61.682 0.115 7.02 2.51 9.19
9/8/2022 7:00:00 AM 16.47 61.646 0.115 7.04 1.53 9.19
9/8/2022 7:15:00 AM 16.45 61.61 0.115 7.04 1.93 9.18
9/8/2022 7:30:00 AM 16.43 61.574 0.114 7.06 2.39 9.23
9/8/2022 7:45:00 AM 16.41 61.538 0.114 7.08 2.03 9.32
9/8/2022 8:00:00 AM 16.4 61.52 0.114 7.07 1.73 9.32
9/8/2022 8:15:00 AM 16.4 61.52 0.114 7.08 2.43 9.37
9/8/2022 8:30:00 AM 16.43 61.574 0.114 7.09 1.95 9.45
9/8/2022 8:45:00 AM 16.46 61.628 0.114 7.11 1.82 9.52
9/8/2022 9:00:00 AM 16.51 61.718 0.114 7.14 1.89 9.66
9/8/2022 9:15:00 AM 16.58 61.844 0.113 7.15 1.65 9.74
9/8/2022 9:30:00 AM 16.65 61.97 0.114 7.17 1.6 9.86
9/8/2022 9:45:00 AM 16.71 62.078 0.114 7.2 1.58 9.9
9/8/2022 10:00:00 AM 16.78 62.204 0.114 7.19 1.79 9.86
9/8/2022 10:15:00 AM 16.86 62.348 0.113 7.21 1.62 9.94
9/8/2022 10:30:00 AM 16.96 62.528 0.113 7.08 4.06 9.96
9/8/2022 10:45:00 AM 17.07 62.726 0.112 7.23 1.82 9.97
9/8/2022 11:00:00 AM 17.14 62.852 0.112 7.21 1.89 9.97
9/8/2022 11:15:00 AM 17.21 62.978 0.113 7.23 1.5 9.92
9/8/2022 11:30:00 AM 17.33 63.194 0.112 7.24 1.56 9.92
9/8/2022 11:45:00 AM 17.48 63.464 0.112 7.28 1.71 10.01
9/8/2022 12:00:00 PM 17.59 63.662 0.112 7.24 1.71 10
9/8/2022 12:15:00 PM 17.7 63.86 0.112 7.3 1.55 10.06
9/8/2022 12:30:00 PM 17.77 63.986 0.112 7.28 1.64 10
9/8/2022 12:45:00 PM 17.88 64.184 0.112 7.27 1.95 10.01
9/8/2022 1:00:00 PM 18.02 64.436 0.112 7.31 1.75 9.96
9/8/2022 1:15:00 PM 18.2 64.76 0.111 7.35 1.74 10.01
9/8/2022 1:30:00 PM 18.33 64.994 0.11 7.34 1.85 10.01
9/8/2022 1:45:00 PM 18.46 65.228 0.11 7.3 1.76 9.99
9/8/2022 2:00:00 PM 18.6 65.48 0.11 7.37 1.56 9.93
9/8/2022 2:15:00 PM 18.75 65.75 0.11 7.37 1.53 9.92
9/8/2022 2:30:00 PM 18.89 66.002 0.11 7.35 1.51 9.9
9/8/2022 2:45:00 PM 19.01 66.218 0.11 7.37 2.16 9.77
9/8/2022 3:00:00 PM 19.21 66.578 0.109 7.36 1.7 9.74
9/8/2022 3:15:00 PM 19.37 66.866 0.108 7.35 1.97 9.73
9/8/2022 3:30:00 PM 19.51 67.118 0.108 7.36 1.86 9.66
9/8/2022 3:45:00 PM 19.66 67.388 0.108 7.37 1.74 9.5
9/8/2022 4:00:00 PM 19.83 67.694 0.108 7.37 1.53 9.5
9/8/2022 4:15:00 PM 19.93 67.874 0.107 7.3 1.75 9.4
9/8/2022 4:30:00 PM 20.02 68.036 0.108 7.24 1.67 9.28
9/8/2022 4:45:00 PM 20.12 68.216 0.108 7.29 1.76 9.21
9/8/2022 5:00:00 PM 20.2 68.36 0.108 7.24 1.59 9.14
9/8/2022 5:15:00 PM 20.26 68.468 0.108 7.26 1.76 9.09
9/8/2022 5:30:00 PM 20.25 68.45 0.108 7.22 1.49 9.05
9/8/2022 5:45:00 PM 20.21 68.378 0.108 7.18 1.77 8.94
9/8/2022 6:00:00 PM 20.15 68.27 0.109 7.19 1.89 8.9
9/8/2022 6:15:00 PM 19.98 67.964 0.109 7.2 1.54 8.84
9/8/2022 6:30:00 PM 19.85 67.73 0.109 7.2 1.57 8.86
9/8/2022 6:45:00 PM 19.68 67.424 0.109 7.2 1.43 8.84
9/8/2022 7:00:00 PM 19.46 67.028 0.11 7.19 1.72 8.85
9/8/2022 7:15:00 PM 19.26 66.668 0.11 7.19 1.96 8.86
9/8/2022 7:30:00 PM 19.05 66.29 0.11 7.15 1.86 8.77
9/8/2022 7:45:00 PM 18.84 65.912 0.11 7.15 1.85 8.79
9/8/2022 8:00:00 PM 18.66 65.588 0.111 7.12 4.58 8.77
9/8/2022 8:15:00 PM 18.5 65.3 0.111 7.12 2.86 8.79
9/8/2022 8:30:00 PM 18.35 65.03 0.111 7.12 2.34 8.84
9/8/2022 8:45:00 PM 18.19 64.742 0.111 7.12 1.57 8.83
9/8/2022 9:00:00 PM 18.05 64.49 0.112 7.11 1.79 8.85
9/8/2022 9:15:00 PM 17.94 64.292 0.112 7.11 1.58 8.85
9/8/2022 9:30:00 PM 17.84 64.112 0.112 7.08 1.72 8.83
9/8/2022 9:45:00 PM 17.71 63.878 0.112 7.09 1.62 8.86
9/8/2022 10:00:00 PM 17.61 63.698 0.112 7.09 1.65 8.87
9/8/2022 10:15:00 PM 17.48 63.464 0.113 7.1 1.76 8.95
9/8/2022 10:30:00 PM 17.38 63.284 0.113 7.09 1.53 8.96
9/8/2022 10:45:00 PM 17.3 63.14 0.113 7.1 1.64 8.99
9/8/2022 11:00:00 PM 17.22 62.996 0.113 7.06 1.79 8.98
9/8/2022 11:15:00 PM 17.12 62.816 0.113 7.09 1.71 9.05
9/8/2022 11:30:00 PM 17.05 62.69 0.113 7.06 3.76 9.05
9/8/2022 11:45:00 PM 16.95 62.51 0.113 7.05 2.25 9.03
9/9/2022 12:00:00 AM 16.88 62.384 0.113 7.05 2.15 9.03
9/9/2022 12:15:00 AM 16.79 62.222 0.113 7.08 2.14 9.1
9/9/2022 12:30:00 AM 16.7 62.06 0.113 7.07 1.82 9.06
9/9/2022 12:45:00 AM 16.63 61.934 0.113 7.06 1.58 9.1
9/9/2022 1:00:00 AM 16.56 61.808 0.114 7.07 1.59 9.15
9/9/2022 1:15:00 AM 16.48 61.664 0.114 7.06 3.34 9.14
9/9/2022 1:30:00 AM 16.41 61.538 0.114 7.07 5.14 9.16
9/9/2022 1:45:00 AM 16.33 61.394 0.114 7.04 1.71 9.18
9/9/2022 2:00:00 AM 16.25 61.25 0.114 7.06 1.52 9.24
9/9/2022 2:15:00 AM 16.18 61.124 0.114 7.07 1.71 9.24
9/9/2022 2:30:00 AM 16.12 61.016 0.114 7.04 3.25 9.12
9/9/2022 2:45:00 AM 16.05 60.89 0.114 7.06 1.49 9.27
9/9/2022 3:00:00 AM 15.98 60.764 0.114 7.07 1.46 9.3
9/9/2022 3:15:00 AM 15.91 60.638 0.114 7.08 1.61 9.33
9/9/2022 3:30:00 AM 15.85 60.53 0.114 7.08 1.96 9.35
9/9/2022 3:45:00 AM 15.79 60.422 0.114 7.05 1.45 9.33
9/9/2022 4:00:00 AM 15.72 60.296 0.114 7.05 1.45 9.35
9/9/2022 4:15:00 AM 15.67 60.206 0.114 7.06 2.84 9.36
9/9/2022 4:30:00 AM 15.63 60.134 0.115 7.06 1.42 9.39
9/9/2022 4:45:00 AM 15.58 60.044 0.115 7.08 2.2 9.42
9/9/2022 5:00:00 AM 15.53 59.954 0.115 7.08 1.73 9.44
9/9/2022 5:15:00 AM 15.5 59.9 0.115 7.09 1.55 9.46
9/9/2022 5:30:00 AM 15.46 59.828 0.115 7.09 1.44 9.49
9/9/2022 5:45:00 AM 15.42 59.756 0.115 7.09 1.5 9.49
9/9/2022 6:00:00 AM 15.39 59.702 0.115 7.06 5.8 9.4
9/9/2022 6:15:00 AM 15.35 59.63 0.115 7.09 1.41 9.51
9/9/2022 6:30:00 AM 15.32 59.576 0.115 7.07 2.07 9.45
9/9/2022 6:45:00 AM 15.29 59.522 0.115 7.06 1.52 9.42
9/9/2022 7:00:00 AM 15.26 59.468 0.115 7.07 1.53 9.51
9/9/2022 7:15:00 AM 15.24 59.432 0.115 7.06 1.37 9.51
9/9/2022 7:30:00 AM 15.22 59.396 0.115 7.09 1.25 9.58
9/9/2022 7:45:00 AM 15.21 59.378 0.115 7.09 1.32 9.62
9/9/2022 8:00:00 AM 15.2 59.36 0.115 7.09 1.83 9.62
9/9/2022 8:15:00 AM 15.21 59.378 0.115 7.09 1.65 9.71
9/9/2022 8:30:00 AM 15.23 59.414 0.115 7.11 1.42 9.81
9/9/2022 8:45:00 AM 15.25 59.45 0.115 7.13 1.34 9.9
9/9/2022 9:00:00 AM 15.29 59.522 0.115 7.14 1.64 10.01
9/9/2022 9:15:00 AM 15.35 59.63 0.115 7.15 1.4 10.1
9/9/2022 9:30:00 AM 15.42 59.756 0.114 7.19 1.58 10.16
9/9/2022 9:45:00 AM 15.54 59.972 0.114 7.19 1.34 10.15
9/9/2022 10:00:00 AM 15.69 60.242 0.113 7.22 1.3 10.29
9/9/2022 10:15:00 AM 15.88 60.584 0.113 7.23 1.39 10.3
9/9/2022 10:30:00 AM 16.05 60.89 0.112 7.25 4.68 10.31
9/9/2022 10:45:00 AM 16.27 61.286 0.112 7.29 1.41 10.34
9/9/2022 11:00:00 AM 16.49 61.682 0.112 7.3 1.34 10.31
9/9/2022 11:15:00 AM 16.77 62.186 0.112 7.3 1.32 10.31
9/9/2022 11:30:00 AM 16.97 62.546 0.112 7.29 1.35 10.25
9/9/2022 11:45:00 AM 17.21 62.978 0.111 7.29 1.52 10.22
9/9/2022 12:00:00 PM 17.5 63.5 0.111 7.33 1.4 10.2
9/9/2022 12:15:00 PM 17.78 64.004 0.111 7.35 1.33 10.15
9/9/2022 12:30:00 PM 18.03 64.454 0.111 7.39 1.37 10.21
9/9/2022 12:45:00 PM 18.28 64.904 0.111 7.36 1.34 10.11
9/9/2022 1:00:00 PM 18.55 65.39 0.111 7.35 1.37 10.1
9/9/2022 1:15:00 PM 18.76 65.768 0.111 7.32 1.28 9.99
9/9/2022 1:30:00 PM 18.96 66.128 0.111 7.42 1.36 9.98
9/9/2022 1:45:00 PM 19.15 66.47 0.111 7.38 1.4 9.89
9/9/2022 2:00:00 PM 19.32 66.776 0.111 7.34 1.84 9.8
9/9/2022 2:15:00 PM 19.4 66.92 0.111 7.36 1.88 9.77
9/9/2022 2:30:00 PM 19.43 66.974 0.111 7.39 1.6 9.78
9/9/2022 2:45:00 PM 19.41 66.938 0.112 7.35 1.93 9.69
9/9/2022 3:00:00 PM 19.46 67.028 0.112 7.37 2.1 9.67
9/9/2022 3:15:00 PM 19.5 67.1 0.112 7.32 1.35 9.53
9/9/2022 3:30:00 PM 19.56 67.208 0.112 7.32 1.61 9.66
9/9/2022 3:45:00 PM 19.64 67.352 0.112 7.34 1.44 9.46
9/9/2022 4:00:00 PM 19.72 67.496 0.112 7.41 1.26 9.61
9/9/2022 4:15:00 PM 19.75 67.55 0.112 7.38 1.39 9.61
9/9/2022 4:30:00 PM 19.78 67.604 0.112 7.35 1.35 9.51
9/9/2022 4:45:00 PM 19.84 67.712 0.112 7.32 1.35 9.47
9/9/2022 5:00:00 PM 19.93 67.874 0.112 7.31 1.44 9.39
9/9/2022 5:15:00 PM 19.97 67.946 0.112 7.29 1.27 9.33
9/9/2022 5:30:00 PM 19.91 67.838 0.112 7.33 1.45 9.23
9/9/2022 5:45:00 PM 19.87 67.766 0.112 7.34 1.43 9.27
9/9/2022 6:00:00 PM 19.82 67.676 0.112 7.29 1.87 9.11
9/9/2022 6:15:00 PM 19.76 67.568 0.112 7.26 1.78 9.04
9/9/2022 6:30:00 PM 19.7 67.46 0.112 7.24 1.53 9.05
9/9/2022 6:45:00 PM 19.59 67.262 0.112 7.2 1.74 9.02
9/9/2022 7:00:00 PM 19.46 67.028 0.113 7.22 1.55 8.94
9/9/2022 7:15:00 PM 19.25 66.65 0.113 7.18 1.44 8.87
9/9/2022 7:30:00 PM 19.05 66.29 0.113 7.17 1.92 8.79
9/9/2022 7:45:00 PM 18.88 65.984 0.113 7.16 4.26 8.8
9/9/2022 8:00:00 PM 18.67 65.606 0.114 7.15 1.83 8.79
9/9/2022 8:15:00 PM 18.47 65.246 0.114 7.15 1.69 8.84
9/9/2022 8:30:00 PM 18.24 64.832 0.114 7.15 1.87 8.88
9/9/2022 8:45:00 PM 18.06 64.508 0.114 7.15 1.3 8.89
9/9/2022 9:00:00 PM 17.92 64.256 0.115 7.11 1.73 8.77
9/9/2022 9:15:00 PM 17.75 63.95 0.115 7.12 1.35 8.89
9/9/2022 9:30:00 PM 17.6 63.68 0.115 7.12 1.69 8.91
9/9/2022 9:45:00 PM 17.5 63.5 0.115 7.11 1.67 8.88
9/9/2022 10:00:00 PM 17.37 63.266 0.115 7.1 1.83 8.91
9/9/2022 10:15:00 PM 17.24 63.032 0.115 7.1 1.65 8.97
9/9/2022 10:30:00 PM 17.12 62.816 0.115 7.11 1.39 9.02
9/9/2022 10:45:00 PM 16.99 62.582 0.116 7.11 1.52 9.04
9/9/2022 11:00:00 PM 16.89 62.402 0.116 7.11 1.4 9.05
9/9/2022 11:15:00 PM 16.78 62.204 0.116 7.1 1.51 9.07
9/9/2022 11:30:00 PM 16.66 61.988 0.116 7.11 1.58 9.11
9/9/2022 11:45:00 PM 16.54 61.772 0.116 7.1 1.75 9.15
9/10/2022 12:00:00 AM 16.43 61.574 0.116 7.1 1.33 9.17
9/10/2022 12:15:00 AM 16.33 61.394 0.116 7.1 1.78 9.19
9/10/2022 12:30:00 AM 16.23 61.214 0.116 7.1 1.45 9.22
9/10/2022 12:45:00 AM 16.14 61.052 0.116 7.09 1.48 9.22
9/10/2022 1:00:00 AM 16.04 60.872 0.116 7.06 2.25 9.18
9/10/2022 1:15:00 AM 15.95 60.71 0.116 7 1.39 9.17
9/10/2022 1:30:00 AM 15.83 60.494 0.116 7.05 1.33 9.22
9/10/2022 1:45:00 AM 15.73 60.314 0.116 7.07 2 9.25
9/10/2022 2:00:00 AM 15.64 60.152 0.116 7.08 1.58 9.31
9/10/2022 2:15:00 AM 15.52 59.936 0.116 7.03 1.42 9.35
9/10/2022 2:30:00 AM 15.43 59.774 0.116 7.07 1.4 9.41
9/10/2022 2:45:00 AM 15.33 59.594 0.116 7.08 1.41 9.43
9/10/2022 3:00:00 AM 15.24 59.432 0.116 7.08 1.43 9.48
9/10/2022 3:15:00 AM 15.14 59.252 0.116 7.06 1.48 9.47
9/10/2022 3:30:00 AM 15.07 59.126 0.116 7.09 1.32 9.54
9/10/2022 3:45:00 AM 15 59 0.116 7.04 1.21 9.53
9/10/2022 4:00:00 AM 14.92 58.856 0.116 7.05 1.43 9.56
9/10/2022 4:15:00 AM 14.87 58.766 0.116 7.04 1.39 9.56
9/10/2022 4:30:00 AM 14.81 58.658 0.116 7.05 26.51 9.55
9/10/2022 4:45:00 AM 14.75 58.55 0.116 7.07 1.53 9.56
9/10/2022 5:00:00 AM 14.7 58.46 0.116 7.09 1.43 9.6
9/10/2022 5:15:00 AM 14.65 58.37 0.116 7.08 1.47 9.63
9/10/2022 5:30:00 AM 14.6 58.28 0.116 7.09 1.49 9.68
9/10/2022 5:45:00 AM 14.55 58.19 0.116 7.1 1.39 9.71
9/10/2022 6:00:00 AM 14.51 58.118 0.116 7.1 1.46 9.72
9/10/2022 6:15:00 AM 14.46 58.028 0.116 7.1 1.64 9.71
9/10/2022 6:30:00 AM 14.42 57.956 0.116 7.06 1.47 9.62
9/10/2022 6:45:00 AM 14.37 57.866 0.116 7.07 1.38 9.72
9/10/2022 7:00:00 AM 14.33 57.794 0.116 7.07 2.08 9.75
9/10/2022 7:15:00 AM 14.27 57.686 0.116 7.08 1.37 9.77
9/10/2022 7:30:00 AM 14.22 57.596 0.116 7.08 1.28 9.81
9/10/2022 7:45:00 AM 14.19 57.542 0.116 7.1 1.45 9.88
9/10/2022 8:00:00 AM 14.16 57.488 0.116 7.12 1.51 9.94
9/10/2022 8:15:00 AM 14.14 57.452 0.115 7.12 1.29 10.04
9/10/2022 8:30:00 AM 14.13 57.434 0.115 7.15 1.3 10.19
9/10/2022 8:45:00 AM 14.14 57.452 0.115 7.16 1.35 10.29
9/10/2022 9:00:00 AM 14.15 57.47 0.115 7.18 1.27 10.35
9/10/2022 9:15:00 AM 14.17 57.506 0.115 7.19 1.23 10.45
9/10/2022 9:30:00 AM 14.21 57.578 0.115 7.22 1.38 10.57
9/10/2022 9:45:00 AM 14.26 57.668 0.115 7.24 1.3 10.62
9/10/2022 10:00:00 AM 14.35 57.83 0.114 7.24 1.43 10.61
9/10/2022 10:15:00 AM 14.51 58.118 0.114 7.23 1.35 10.51
9/10/2022 10:30:00 AM 14.71 58.478 0.113 7.25 1.4 10.59
9/10/2022 10:45:00 AM 14.98 58.964 0.113 7.27 1.32 10.66
9/10/2022 11:00:00 AM 15.22 59.396 0.112 7.27 1.26 10.63
9/10/2022 11:15:00 AM 15.48 59.864 0.112 7.32 1.28 10.66
9/10/2022 11:30:00 AM 15.75 60.35 0.112 7.33 1.19 10.65
9/10/2022 11:45:00 AM 15.93 60.674 0.112 7.33 1.22 10.64
9/10/2022 12:00:00 PM 16.17 61.106 0.111 7.39 1.23 10.66
9/10/2022 12:15:00 PM 16.37 61.466 0.111 7.39 1.28 10.66
9/10/2022 12:30:00 PM 16.58 61.844 0.111 7.43 1.27 10.7
9/10/2022 12:45:00 PM 16.8 62.24 0.11 7.48 1.35 10.64
9/10/2022 1:00:00 PM 17.06 62.708 0.11 7.41 1.38 10.51
9/10/2022 1:15:00 PM 17.25 63.05 0.11 7.46 1.24 10.5
9/10/2022 1:30:00 PM 17.44 63.392 0.11 7.46 1.26 10.48
9/10/2022 1:45:00 PM 17.66 63.788 0.11 7.5 1.22 10.51
9/10/2022 2:00:00 PM 17.86 64.148 0.109 7.45 1.33 10.46
9/10/2022 2:15:00 PM 18.05 64.49 0.109 7.47 1.55 10.46
9/10/2022 2:30:00 PM 18.17 64.706 0.11 7.48 1.32 10.35
9/10/2022 2:45:00 PM 18.31 64.958 0.11 7.49 1.39 10.31
9/10/2022 3:00:00 PM 18.42 65.156 0.11 7.39 1.33 10.22
9/10/2022 3:15:00 PM 18.51 65.318 0.11 7.51 1.35 10.24
9/10/2022 3:30:00 PM 18.61 65.498 0.11 7.48 1.35 10.14
9/10/2022 3:45:00 PM 18.72 65.696 0.11 7.46 1.35 10.08
9/10/2022 4:00:00 PM 18.78 65.804 0.11 7.51 1.58 10.04
9/10/2022 4:15:00 PM 18.83 65.894 0.11 7.37 1.31 9.92
9/10/2022 4:30:00 PM 18.88 65.984 0.11 7.44 1.47 9.99
9/10/2022 4:45:00 PM 18.88 65.984 0.11 7.5 1.27 9.97
9/10/2022 5:00:00 PM 18.88 65.984 0.11 7.36 1.61 9.79
9/10/2022 5:15:00 PM 18.88 65.984 0.109 7.34 1.33 9.72
9/10/2022 5:30:00 PM 18.85 65.93 0.11 7.41 2.46 9.79
9/10/2022 5:45:00 PM 18.79 65.82201 0.11 7.44 1.4 9.75
9/10/2022 6:00:00 PM 18.72 65.696 0.11 7.38 3.98 9.53
9/10/2022 6:15:00 PM 18.66 65.588 0.11 7.34 1.67 9.59
9/10/2022 6:30:00 PM 18.61 65.498 0.11 7.28 1.27 9.49
9/10/2022 6:45:00 PM 18.52 65.336 0.11 7.26 1.3 9.41
9/10/2022 7:00:00 PM 18.42 65.156 0.111 7.22 1.33 9.24
9/10/2022 7:15:00 PM 18.28 64.904 0.111 7.16 1.39 9.06
9/10/2022 7:30:00 PM 18.18 64.724 0.111 7.19 1.27 9.08
9/10/2022 7:45:00 PM 18.01 64.418 0.112 7.2 1.43 9.08
9/10/2022 8:00:00 PM 17.91 64.238 0.112 7.18 2.26 9.05
9/10/2022 8:15:00 PM 17.81 64.058 0.112 7.17 2.14 8.95
9/10/2022 8:30:00 PM 17.67 63.806 0.112 7.15 2.04 9.02
9/10/2022 8:45:00 PM 17.57 63.626 0.113 7.14 1.61 8.95
9/10/2022 9:00:00 PM 17.47 63.446 0.113 7.1 1.49 8.9
9/10/2022 9:15:00 PM 17.41 63.338 0.113 7.12 2.36 8.87
9/10/2022 9:30:00 PM 17.33 63.194 0.114 7.1 1.47 8.9
9/10/2022 9:45:00 PM 17.24 63.032 0.114 7.1 1.59 8.92
9/10/2022 10:00:00 PM 17.16 62.888 0.114 7.1 1.35 8.91
9/10/2022 10:15:00 PM 17.08 62.744 0.114 7.1 1.6 8.94
9/10/2022 10:30:00 PM 17.01 62.618 0.114 7.09 1.37 8.93
9/10/2022 10:45:00 PM 16.95 62.51 0.114 7.08 1.49 8.91
9/10/2022 11:00:00 PM 16.88 62.384 0.114 7.09 1.62 8.96
9/10/2022 11:15:00 PM 16.82 62.276 0.114 7.03 2.09 8.78
9/10/2022 11:30:00 PM 16.74 62.132 0.115 7.07 1.38 8.96
9/10/2022 11:45:00 PM 16.68 62.024 0.115 7.08 1.91 8.99
9/11/2022 12:00:00 AM 16.63 61.934 0.115 7.08 1.31 8.99
9/11/2022 12:15:00 AM 16.56 61.808 0.115 7.08 2.63 9.02
9/11/2022 12:30:00 AM 16.48 61.664 0.115 7.08 1.63 9.03
9/11/2022 12:45:00 AM 16.44 61.592 0.115 7.06 1.59 8.97
9/11/2022 1:00:00 AM 16.38 61.484 0.115 7.07 1.73 9.04
9/11/2022 1:15:00 AM 16.33 61.394 0.115 7.06 1.63 9.01
9/11/2022 1:30:00 AM 16.28 61.304 0.115 7.07 1.24 9.08
9/11/2022 1:45:00 AM 16.23 61.214 0.115 7.06 1.33 9.09
9/11/2022 2:00:00 AM 16.17 61.106 0.115 7.07 1.34 9.14
9/11/2022 2:15:00 AM 16.14 61.052 0.115 7.07 1.37 9.12
9/11/2022 2:30:00 AM 16.09 60.962 0.115 7.07 1.37 9.12
9/11/2022 2:45:00 AM 16.04 60.872 0.115 7.08 1.45 9.14
9/11/2022 3:00:00 AM 15.99 60.782 0.115 7.07 1.35 9.18
9/11/2022 3:15:00 AM 15.96 60.728 0.115 7.08 1.31 9.19
9/11/2022 3:30:00 AM 15.92 60.656 0.115 7.07 1.32 9.17
9/11/2022 3:45:00 AM 15.87 60.566 0.115 7.07 1.31 9.21
9/11/2022 4:00:00 AM 15.84 60.512 0.115 7.08 1.46 9.26
9/11/2022 4:15:00 AM 15.8 60.44 0.115 7.08 1.46 9.27
9/11/2022 4:30:00 AM 15.77 60.386 0.115 7.08 1.36 9.27
9/11/2022 4:45:00 AM 15.74 60.332 0.115 7.04 1.41 9.17
9/11/2022 5:00:00 AM 15.71 60.278 0.115 7.02 1.46 9.24
9/11/2022 5:15:00 AM 15.68 60.224 0.115 7.04 1.46 9.24
9/11/2022 5:30:00 AM 15.66 60.188 0.115 7.04 1.49 9.19
9/11/2022 5:45:00 AM 15.64 60.152 0.115 7.05 1.31 9.24
9/11/2022 6:00:00 AM 15.61 60.098 0.115 7.04 1.43 9.24
9/11/2022 6:15:00 AM 15.59 60.062 0.114 7.05 1.41 9.19
9/11/2022 6:30:00 AM 15.56 60.008 0.114 7.06 1.5 9.34
9/11/2022 6:45:00 AM 15.55 59.99 0.114 7.05 1.39 9.34
9/11/2022 7:00:00 AM 15.53 59.954 0.114 7.06 1.32 9.37
9/11/2022 7:15:00 AM 15.51 59.918 0.114 7.06 1.63 9.31
9/11/2022 7:30:00 AM 15.5 59.9 0.113 6.99 1.43 9.29
9/11/2022 7:45:00 AM 15.49 59.882 0.113 7.04 1.47 9.42
9/11/2022 8:00:00 AM 15.49 59.882 0.113 7.06 1.4 9.45
9/11/2022 8:15:00 AM 15.49 59.882 0.113 7.02 1.57 9.4
9/11/2022 8:30:00 AM 15.49 59.882 0.113 7 1.49 9.4
9/11/2022 8:45:00 AM 15.5 59.9 0.113 7.04 1.48 9.5
9/11/2022 9:00:00 AM 15.51 59.918 0.112 6.97 1.36 9.61
9/11/2022 9:15:00 AM 15.53 59.954 0.112 6.97 1.38 9.55
9/11/2022 9:30:00 AM 15.56 60.008 0.112 7.02 1.4 9.67
9/11/2022 9:45:00 AM 15.59 60.062 0.112 6.99 1.37 9.67
9/11/2022 10:00:00 AM 15.61 60.098 0.112 7.03 1.34 9.78
9/11/2022 10:15:00 AM 15.64 60.152 0.112 7.1 1.95 9.82
9/11/2022 10:30:00 AM 15.68 60.224 0.111 7.12 1.34 9.83
9/11/2022 10:45:00 AM 15.71 60.278 0.111 6.94 1.65 9.8
9/11/2022 11:00:00 AM 15.75 60.35 0.11 7.09 1.86 9.92
9/11/2022 11:15:00 AM 15.78 60.404 0.11 7.01 1.43 9.84
9/11/2022 11:30:00 AM 15.83 60.494 0.109 7.01 1.43 9.84
9/11/2022 11:45:00 AM 15.87 60.566 0.109 7.11 1.83 9.9
9/11/2022 12:00:00 PM 15.91 60.638 0.108 7.16 1.61 10.03
9/11/2022 12:15:00 PM 15.96 60.728 0.108 7.2 1.54 10.08
9/11/2022 12:30:00 PM 16.01 60.818 0.107 7.2 1.74 10.05
9/11/2022 12:45:00 PM 16.07 60.926 0.107 7.19 1.55 10.12
9/11/2022 1:00:00 PM 16.13 61.034 0.107 7.21 1.69 10.11
9/11/2022 1:15:00 PM 16.18 61.124 0.107 7.21 1.7 10.1
9/11/2022 1:30:00 PM 16.22 61.196 0.106 7.2 1.81 10.04
9/11/2022 1:45:00 PM 16.25 61.25 0.106 7.2 1.78 10.05
9/11/2022 2:00:00 PM 16.29 61.322 0.106 7.18 1.89 10.01
9/11/2022 2:15:00 PM 16.35 61.43 0.106 7.23 2.55 10.08
9/11/2022 2:30:00 PM 16.39 61.502 0.105 7.25 2.11 10.1
9/11/2022 2:45:00 PM 16.45 61.61 0.105 7.24 2.02 10.12
9/11/2022 3:00:00 PM 16.49 61.682 0.106 7.24 2.58 10.17
9/11/2022 3:15:00 PM 16.53 61.754 0.106 7.25 2.1 10.07
9/11/2022 3:30:00 PM 16.55 61.79 0.106 7.24 2.29 10.04
9/11/2022 3:45:00 PM 16.58 61.844 0.106 7.25 2.32 10
9/11/2022 4:00:00 PM 16.6 61.88 0.107 7.24 2.27 9.93
9/11/2022 4:15:00 PM 16.61 61.898 0.108 7.25 2.36 9.94
9/11/2022 4:30:00 PM 16.61 61.898 0.109 7.26 2.36 9.89
9/11/2022 4:45:00 PM 16.61 61.898 0.11 7.26 2.45 9.84
9/11/2022 5:00:00 PM 16.63 61.934 0.111 7.25 2.56 9.81
9/11/2022 5:15:00 PM 16.65 61.97 0.111 7.23 2.65 9.73
9/11/2022 5:30:00 PM 16.67 62.006 0.112 7.17 2.43 9.68
9/11/2022 5:45:00 PM 16.69 62.042 0.112 7.22 2.44 9.68
9/11/2022 6:00:00 PM 16.71 62.078 0.112 7.19 2.26 9.69
9/11/2022 6:15:00 PM 16.72 62.096 0.113 7.19 2.26 9.67
9/11/2022 6:30:00 PM 16.73 62.114 0.113 7.19 2.3 9.59
9/11/2022 6:45:00 PM 16.73 62.114 0.113 7.2 2.35 9.62
9/11/2022 7:00:00 PM 16.72 62.096 0.113 7.17 2.34 9.54
9/11/2022 7:15:00 PM 16.71 62.078 0.113 7.16 2.16 9.47
9/11/2022 7:30:00 PM 16.7 62.06 0.113 7.14 2.26 9.43
9/11/2022 7:45:00 PM 16.68 62.024 0.112 7.13 4.84 9.4
9/11/2022 8:00:00 PM 16.66 61.988 0.112 7.12 2.32 9.37
9/11/2022 8:15:00 PM 16.63 61.934 0.112 7.11 2.5 9.37
9/11/2022 8:30:00 PM 16.61 61.898 0.112 7.11 2.74 9.38
9/11/2022 8:45:00 PM 16.59 61.862 0.112 7.1 2.73 9.34
9/11/2022 9:00:00 PM 16.58 61.844 0.112 7.07 2.28 9.33
9/11/2022 9:15:00 PM 16.57 61.826 0.112 7.07 2.96 9.31
9/11/2022 9:30:00 PM 16.55 61.79 0.112 7.07 2.27 9.35
9/11/2022 9:45:00 PM 16.54 61.772 0.112 7.09 2.4 9.34
9/11/2022 10:00:00 PM 16.53 61.754 0.112 7.09 2.41 9.33
9/11/2022 10:15:00 PM 16.52 61.736 0.112 7.08 2.21 9.34
9/11/2022 10:30:00 PM 16.51 61.718 0.112 7.07 1.96 9.32
9/11/2022 10:45:00 PM 16.49 61.682 0.111 7.07 2.15 9.34
9/11/2022 11:00:00 PM 16.48 61.664 0.111 7.06 3.33 9.35
9/11/2022 11:15:00 PM 16.46 61.628 0.111 7.06 2.53 9.35
9/11/2022 11:30:00 PM 16.45 61.61 0.111 7.05 1.96 9.34
9/11/2022 11:45:00 PM 16.43 61.574 0.111 7.04 1.97 9.35
9/12/2022 12:00:00 AM 16.42 61.556 0.111 7.04 2.05 9.37
9/12/2022 12:15:00 AM 16.4 61.52 0.111 7.03 1.91 9.36
9/12/2022 12:30:00 AM 16.39 61.502 0.111 7.02 2.14 9.33
9/12/2022 12:45:00 AM 16.38 61.484 0.112 7.01 1.99 9.34
9/12/2022 1:00:00 AM 16.36 61.448 0.112 7.01 1.94 9.36
9/12/2022 1:15:00 AM 16.35 61.43 0.112 7 1.95 9.36
9/12/2022 1:30:00 AM 16.34 61.412 0.112 7 2.2 9.36
9/12/2022 1:45:00 AM 16.32 61.376 0.112 7 1.95 9.35
9/12/2022 2:00:00 AM 16.31 61.358 0.112 6.99 1.87 9.36
9/12/2022 2:15:00 AM 16.3 61.34 0.112 6.99 2.41 9.36
9/12/2022 2:30:00 AM 16.29 61.322 0.112 6.98 1.84 9.35
9/12/2022 2:45:00 AM 16.28 61.304 0.112 6.98 2.09 9.35
9/12/2022 3:00:00 AM 16.27 61.286 0.112 6.97 2.03 9.35
9/12/2022 3:15:00 AM 16.26 61.268 0.112 6.97 1.78 9.35
9/12/2022 3:30:00 AM 16.24 61.232 0.112 6.97 2.09 9.37
9/12/2022 3:45:00 AM 16.23 61.214 0.112 6.96 1.75 9.36
9/12/2022 4:00:00 AM 16.22 61.196 0.112 6.95 2.23 9.36
9/12/2022 4:15:00 AM 16.21 61.178 0.112 6.95 1.72 9.36
9/12/2022 4:30:00 AM 16.2 61.16 0.112 6.94 1.9 9.35
9/12/2022 4:45:00 AM 16.19 61.142 0.112 6.95 1.79 9.36
9/12/2022 5:00:00 AM 16.18 61.124 0.113 6.94 2.03 9.35
9/12/2022 5:15:00 AM 16.17 61.106 0.113 6.94 1.69 9.36
9/12/2022 5:30:00 AM 16.16 61.088 0.113 6.93 1.8 9.33
9/12/2022 5:45:00 AM 16.15 61.07 0.113 6.93 1.78 9.35
9/12/2022 6:00:00 AM 16.14 61.052 0.113 6.93 1.81 9.33
9/12/2022 6:15:00 AM 16.13 61.034 0.113 6.94 1.77 9.36
9/12/2022 6:30:00 AM 16.12 61.016 0.114 6.93 1.74 9.34
9/12/2022 6:45:00 AM 16.11 60.998 0.114 6.93 1.54 9.33
9/12/2022 7:00:00 AM 16.09 60.962 0.114 6.93 1.57 9.35
9/12/2022 7:15:00 AM 16.09 60.962 0.114 6.93 1.63 9.35
9/12/2022 7:30:00 AM 16.08 60.944 0.114 6.93 1.49 9.38
9/12/2022 7:45:00 AM 16.08 60.944 0.114 6.93 1.52 9.4
9/12/2022 8:00:00 AM 16.08 60.944 0.114 6.94 1.93 9.43
9/12/2022 8:15:00 AM 16.1 60.98 0.115 6.95 1.51 9.51
9/12/2022 8:30:00 AM 16.11 60.998 0.115 6.97 1.62 9.57
9/12/2022 8:45:00 AM 16.12 61.016 0.115 6.98 2.09 9.57
9/12/2022 9:00:00 AM 16.14 61.052 0.115 7 1.57 9.59
9/12/2022 9:15:00 AM 16.16 61.088 0.115 7.02 1.51 9.61
9/12/2022 9:30:00 AM 16.18 61.124 0.115 7.03 1.5 9.61
9/12/2022 9:45:00 AM 16.21 61.178 0.115 7.04 1.48 9.67
9/12/2022 10:00:00 AM 16.25 61.25 0.115 7.06 12.59 9.7
9/12/2022 10:15:00 AM 16.32 61.376 0.115 7.08 1.59 9.8
9/12/2022 10:30:00 AM 16.41 61.538 0.115 7.11 1.55 9.88
9/12/2022 10:45:00 AM 16.55 61.79 0.115 7.14 1.56 10.01
9/12/2022 11:00:00 AM 16.67 62.006 0.115 7.18 1.49 10.08
9/12/2022 11:15:00 AM 16.82 62.276 0.114 7.2 3.99 10.13
9/12/2022 11:30:00 AM 16.96 62.528 0.114 7.24 3.33 10.2
9/12/2022 11:45:00 AM 17.12 62.816 0.114 7.28 1.43 10.25
9/12/2022 12:00:00 PM 17.28 63.104 0.113 7.3 1.66 10.27
9/12/2022 12:15:00 PM 17.45 63.41 0.113 7.33 1.68 10.28
9/12/2022 12:30:00 PM 17.63 63.734 0.113 7.37 2.42 10.24
9/12/2022 12:45:00 PM 17.77 63.986 0.113 7.36 1.61 10.16
9/12/2022 1:00:00 PM 17.87 64.166 0.113 7.33 1.75 10.06
9/12/2022 1:15:00 PM 17.95 64.31 0.113 7.33 1.47 10.01
9/12/2022 1:30:00 PM 17.98 64.364 0.114 7.3 1.49 9.89
9/12/2022 1:45:00 PM 18 64.4 0.114 7.29 2.23 9.8
9/12/2022 2:00:00 PM 18.09 64.562 0.114 7.28 1.98 9.79
9/12/2022 2:15:00 PM 18.16 64.688 0.114 7.28 1.48 9.78
9/12/2022 2:30:00 PM 18.26 64.868 0.114 7.3 6.38 9.78
9/12/2022 2:45:00 PM 18.37 65.066 0.114 7.29 1.77 9.78
9/12/2022 3:00:00 PM 18.49 65.282 0.114 7.33 1.73 9.83
9/12/2022 3:15:00 PM 18.62 65.516 0.114 7.35 1.52 9.85
9/12/2022 3:30:00 PM 18.8 65.84 0.114 7.37 1.41 9.82
9/12/2022 3:45:00 PM 18.92 66.056 0.114 7.33 1.44 9.74
9/12/2022 4:00:00 PM 19.08 66.344 0.114 7.33 1.82 9.67
9/12/2022 4:15:00 PM 19.17 66.506 0.114 7.33 2.53 9.63
9/12/2022 4:30:00 PM 19.27 66.686 0.114 7.38 1.64 9.51
9/12/2022 4:45:00 PM 19.33 66.794 0.115 7.31 1.45 9.49
9/12/2022 5:00:00 PM 19.36 66.848 0.115 7.31 1.61 9.45
9/12/2022 5:15:00 PM 19.41 66.938 0.115 7.27 1.52 9.41
9/12/2022 5:30:00 PM 19.44 66.992 0.115 7.31 1.68 9.34
9/12/2022 5:45:00 PM 19.41 66.938 0.115 7.28 1.89 9.25
9/12/2022 6:00:00 PM 19.38 66.884 0.115 7.24 1.51 9.2
9/12/2022 6:15:00 PM 19.36 66.848 0.116 7.24 1.57 9.11
9/12/2022 6:30:00 PM 19.29 66.722 0.116 7.24 1.61 9.14
9/12/2022 6:45:00 PM 19.18 66.524 0.116 7.22 1.57 9.13
9/12/2022 7:00:00 PM 19.03 66.254 0.116 7.23 1.56 9.08
9/12/2022 7:15:00 PM 18.84 65.912 0.117 7.21 1.64 9.04
9/12/2022 7:30:00 PM 18.66 65.588 0.117 7.18 1.45 8.98
9/12/2022 7:45:00 PM 18.53 65.354 0.117 7.17 1.47 8.92
9/12/2022 8:00:00 PM 18.4 65.12 0.117 7.13 2.17 8.75
9/12/2022 8:15:00 PM 18.3 64.94 0.118 7.14 2.68 8.86
9/12/2022 8:30:00 PM 18.19 64.742 0.118 7.13 1.68 8.87
9/12/2022 8:45:00 PM 18.09 64.562 0.118 7.12 2.22 8.83
9/12/2022 9:00:00 PM 18.01 64.418 0.119 7.11 3.4 8.84
9/12/2022 9:15:00 PM 17.91 64.238 0.119 7.11 1.9 8.86
9/12/2022 9:30:00 PM 17.83 64.094 0.119 7.12 2.04 8.9
9/12/2022 9:45:00 PM 17.76 63.968 0.119 7.1 1.9 8.91
9/12/2022 10:00:00 PM 17.7 63.86 0.119 7.11 1.7 8.92
9/12/2022 10:15:00 PM 17.63 63.734 0.119 7.08 2.13 8.85
9/12/2022 10:30:00 PM 17.56 63.608 0.119 7.08 2 8.93
9/12/2022 10:45:00 PM 17.49 63.482 0.12 7.09 1.64 8.94
9/12/2022 11:00:00 PM 17.42 63.356 0.12 7.07 1.79 8.95
9/12/2022 11:15:00 PM 17.37 63.266 0.12 7.09 1.76 8.99
9/12/2022 11:30:00 PM 17.33 63.194 0.12 7.08 1.55 8.97
9/12/2022 11:45:00 PM 17.29 63.122 0.12 7.05 1.74 8.96
9/13/2022 12:00:00 AM 17.25 63.05 0.12 7.06 1.72 8.94
9/13/2022 12:15:00 AM 17.21 62.978 0.12 7.06 1.68 9
9/13/2022 12:30:00 AM 17.17 62.906 0.12 7.07 1.65 9.03
9/13/2022 12:45:00 AM 17.15 62.87 0.12 7.07 1.67 9.01
9/13/2022 1:00:00 AM 17.12 62.816 0.12 7.07 1.86 9.02
9/13/2022 1:15:00 AM 17.08 62.744 0.12 7.04 1.57 8.98
9/13/2022 1:30:00 AM 17.04 62.672 0.12 7.08 1.77 9.06
9/13/2022 1:45:00 AM 16.99 62.582 0.12 7.09 1.61 9.07
9/13/2022 2:00:00 AM 16.94 62.492 0.12 7.09 1.6 9.1
9/13/2022 2:15:00 AM 16.89 62.402 0.12 7.1 1.57 9.09
9/13/2022 2:30:00 AM 16.85 62.33 0.12 7.09 2.11 9.07
9/13/2022 2:45:00 AM 16.8 62.24 0.12 7.06 1.65 9.04
9/13/2022 3:00:00 AM 16.75 62.15 0.12 7.1 1.61 9.11
9/13/2022 3:15:00 AM 16.7 62.06 0.12 7.1 1.63 9.12
9/13/2022 3:30:00 AM 16.66 61.988 0.12 7.1 1.6 9.15
9/13/2022 3:45:00 AM 16.6 61.88 0.12 7.1 1.63 9.15
9/13/2022 4:00:00 AM 16.55 61.79 0.12 7.1 1.74 9.16
9/13/2022 4:15:00 AM 16.48 61.664 0.12 7.1 1.55 9.16
9/13/2022 4:30:00 AM 16.42 61.556 0.119 7.1 1.49 9.2
9/13/2022 4:45:00 AM 16.34 61.412 0.119 7.11 1.84 9.26
9/13/2022 5:00:00 AM 16.27 61.286 0.119 7.09 3.77 9.25
9/13/2022 5:15:00 AM 16.19 61.142 0.119 7.09 2.16 9.32
9/13/2022 5:30:00 AM 16.13 61.034 0.119 7.11 2.98 9.37
9/13/2022 5:45:00 AM 16.09 60.962 0.119 7.11 2.61 9.41
9/13/2022 6:00:00 AM 16.05 60.89 0.118 7.12 2.73 9.43
9/13/2022 6:15:00 AM 16.03 60.854 0.118 7.12 2.28 9.44
9/13/2022 6:30:00 AM 16.03 60.854 0.118 7.12 2.81 9.45
9/13/2022 6:45:00 AM 16.02 60.836 0.118 7.11 2.5 9.44
9/13/2022 7:00:00 AM 16.01 60.818 0.118 7.11 2.24 9.45
9/13/2022 7:15:00 AM 15.99 60.782 0.118 7.1 2.08 9.45
9/13/2022 7:30:00 AM 15.98 60.764 0.118 7.11 2.35 9.5
9/13/2022 7:45:00 AM 15.97 60.746 0.118 7.11 2.14 9.56
9/13/2022 8:00:00 AM 15.94 60.692 0.118 7.12 2.12 9.58
9/13/2022 8:15:00 AM 15.91 60.638 0.118 7.13 2.7 9.61
9/13/2022 8:30:00 AM 15.9 60.62 0.118 7.13 2.16 9.66
9/13/2022 8:45:00 AM 15.91 60.638 0.118 7.16 1.96 9.75
9/13/2022 9:00:00 AM 15.98 60.764 0.118 7.19 1.81 9.85
9/13/2022 9:15:00 AM 16.09 60.962 0.118 7.2 1.77 9.92
9/13/2022 9:30:00 AM 16.18 61.124 0.117 7.23 1.62 9.98
9/13/2022 9:45:00 AM 16.31 61.358 0.117 7.25 1.66 10.04
9/13/2022 10:00:00 AM 16.44 61.592 0.116 7.27 1.74 10.05
9/13/2022 10:15:00 AM 16.57 61.826 0.116 7.28 1.65 10.05
9/13/2022 10:30:00 AM 16.72 62.096 0.116 7.3 1.68 10.07
9/13/2022 10:45:00 AM 16.89 62.402 0.115 7.31 1.79 10.06
9/13/2022 11:00:00 AM 17.03 62.654 0.115 7.32 1.51 10.09
9/13/2022 11:15:00 AM 17.1 62.78 0.114 7.33 1.57 10.05
9/13/2022 11:30:00 AM 17.17 62.906 0.114 7.33 1.52 10.01
9/13/2022 11:45:00 AM 17.35 63.23 0.113 7.34 1.75 10.04
9/13/2022 12:00:00 PM 17.53 63.554 0.112 7.36 1.7 10.03
9/13/2022 12:15:00 PM 17.69 63.842 0.112 7.36 1.54 10
9/13/2022 12:30:00 PM 17.8 64.04 0.111 7.37 1.6 9.97
9/13/2022 12:45:00 PM 17.93 64.274 0.111 7.41 1.6 9.94
9/13/2022 1:00:00 PM 18.05 64.49 0.111 7.4 1.45 9.94
9/13/2022 1:15:00 PM 18.18 64.724 0.11 7.41 1.55 9.93
9/13/2022 1:30:00 PM 18.29 64.922 0.11 7.41 1.54 9.93
9/13/2022 1:45:00 PM 18.39 65.102 0.11 7.41 1.73 9.9
9/13/2022 2:00:00 PM 18.44 65.192 0.11 7.41 1.66 9.88
9/13/2022 2:15:00 PM 18.48 65.264 0.11 7.43 1.5 9.85
9/13/2022 2:30:00 PM 18.46 65.228 0.11 7.43 1.68 9.85
9/13/2022 2:45:00 PM 18.41 65.138 0.11 7.42 1.58 9.79
9/13/2022 3:00:00 PM 18.42 65.156 0.11 7.41 1.61 9.79
9/13/2022 3:15:00 PM 18.36 65.048 0.11 7.43 1.49 9.81
9/13/2022 3:30:00 PM 18.34 65.012 0.11 7.43 1.37 9.81
9/13/2022 3:45:00 PM 18.33 64.994 0.11 7.44 1.53 9.81
9/13/2022 4:00:00 PM 18.27 64.886 0.11 7.42 1.57 9.79
9/13/2022 4:15:00 PM 18.21 64.778 0.11 7.42 1.64 9.72
9/13/2022 4:30:00 PM 18.21 64.778 0.11 7.41 1.41 9.72
9/13/2022 4:45:00 PM 18.15 64.67 0.111 7.41 1.39 9.72
9/13/2022 5:00:00 PM 18.09 64.562 0.111 7.41 1.54 9.73
9/13/2022 5:15:00 PM 18.01 64.418 0.111 7.39 1.52 9.67
9/13/2022 5:30:00 PM 17.95 64.31 0.111 7.37 1.55 9.64
9/13/2022 5:45:00 PM 17.88 64.184 0.111 7.36 1.63 9.63
9/13/2022 6:00:00 PM 17.76 63.968 0.112 7.35 1.52 9.59
9/13/2022 6:15:00 PM 17.66 63.788 0.112 7.32 1.55 9.5
9/13/2022 6:30:00 PM 17.56 63.608 0.112 7.29 2.01 9.43
9/13/2022 6:45:00 PM 17.46 63.428 0.112 7.28 1.59 9.41
9/13/2022 7:00:00 PM 17.36 63.248 0.112 7.26 1.55 9.38
9/13/2022 7:15:00 PM 17.26 63.068 0.113 7.25 1.62 9.36
9/13/2022 7:30:00 PM 17.14 62.852 0.113 7.22 1.68 9.32
9/13/2022 7:45:00 PM 17.01 62.618 0.113 7.21 1.51 9.28
9/13/2022 8:00:00 PM 16.89 62.402 0.114 7.19 1.54 9.26
9/13/2022 8:15:00 PM 16.77 62.186 0.114 7.18 2.14 9.27
9/13/2022 8:30:00 PM 16.67 62.006 0.115 7.18 1.89 9.25
9/13/2022 8:45:00 PM 16.56 61.808 0.116 7.16 1.98 9.27
9/13/2022 9:00:00 PM 16.44 61.592 0.116 7.16 1.93 9.28
9/13/2022 9:15:00 PM 16.31 61.358 0.116 7.15 2.36 9.31
9/13/2022 9:30:00 PM 16.19 61.142 0.117 7.15 2.06 9.32
9/13/2022 9:45:00 PM 16.07 60.926 0.117 7.14 1.58 9.35
9/13/2022 10:00:00 PM 15.95 60.71 0.118 7.13 1.91 9.37
9/13/2022 10:15:00 PM 15.86 60.548 0.118 7.13 1.73 9.39
9/13/2022 10:30:00 PM 15.78 60.404 0.118 7.13 1.76 9.41
9/13/2022 10:45:00 PM 15.7 60.26 0.118 7.13 1.61 9.43
9/13/2022 11:00:00 PM 15.64 60.152 0.119 7.13 3.94 9.43
9/13/2022 11:15:00 PM 15.55 59.99 0.119 7.12 1.65 9.46
9/13/2022 11:30:00 PM 15.48 59.864 0.119 7.13 1.6 9.48
9/13/2022 11:45:00 PM 15.42 59.756 0.119 7.12 1.71 9.5
9/14/2022 12:00:00 AM 15.35 59.63 0.12 7.12 1.59 9.52
9/14/2022 12:15:00 AM 15.29 59.522 0.12 7.12 1.78 9.53
9/14/2022 12:30:00 AM 15.23 59.414 0.12 7.12 1.71 9.56
9/14/2022 12:45:00 AM 15.16 59.288 0.12 7.12 1.54 9.58
9/14/2022 1:00:00 AM 15.09 59.162 0.12 7.12 2.63 9.59
9/14/2022 1:15:00 AM 15.01 59.018 0.121 7.12 2 9.61
9/14/2022 1:30:00 AM 14.94 58.892 0.121 7.12 2.14 9.63
9/14/2022 1:45:00 AM 14.85 58.73 0.121 7.12 1.6 9.66
9/14/2022 2:00:00 AM 14.76 58.568 0.121 7.12 1.69 9.67
9/14/2022 2:15:00 AM 14.67 58.406 0.121 7.12 1.41 9.69
9/14/2022 2:30:00 AM 14.58 58.244 0.121 7.12 1.48 9.71
9/14/2022 2:45:00 AM 14.48 58.064 0.121 7.11 1.65 9.72
9/14/2022 3:00:00 AM 14.4 57.92 0.122 7.11 1.61 9.76
9/14/2022 3:15:00 AM 14.33 57.794 0.122 7.11 1.5 9.79
9/14/2022 3:30:00 AM 14.28 57.704 0.122 7.11 1.47 9.8
9/14/2022 3:45:00 AM 14.23 57.614 0.122 7.11 1.46 9.8
9/14/2022 4:00:00 AM 14.19 57.542 0.122 7.11 1.4 9.83
9/14/2022 4:15:00 AM 14.17 57.506 0.122 7.1 1.58 9.83
9/14/2022 4:30:00 AM 14.14 57.452 0.122 7.1 1.34 9.83
9/14/2022 4:45:00 AM 14.1 57.38 0.122 7.11 1.54 9.84
9/14/2022 5:00:00 AM 14.07 57.326 0.122 7.11 1.46 9.85
9/14/2022 5:15:00 AM 14.04 57.272 0.122 7.1 1.38 9.85
9/14/2022 5:30:00 AM 14 57.2 0.122 7.1 1.62 9.87
9/14/2022 5:45:00 AM 13.95 57.11 0.123 7.11 1.5 9.88
9/14/2022 6:00:00 AM 13.9 57.02 0.123 7.11 1.73 9.91
9/14/2022 6:15:00 AM 13.87 56.966 0.123 7.11 1.65 9.92
9/14/2022 6:30:00 AM 13.84 56.912 0.123 7.1 1.48 9.91
9/14/2022 6:45:00 AM 13.83 56.894 0.123 7.1 1.47 9.91
9/14/2022 7:00:00 AM 13.81 56.858 0.123 7.11 1.41 9.93
9/14/2022 7:15:00 AM 13.82 56.876 0.123 7.1 1.38 9.93
9/14/2022 7:30:00 AM 13.82 56.876 0.123 7.1 1.39 9.97
9/14/2022 7:45:00 AM 13.83 56.894 0.123 7.11 1.34 9.99
9/14/2022 8:00:00 AM 13.84 56.912 0.123 7.12 1.35 10.04
9/14/2022 8:15:00 AM 13.86 56.948 0.123 7.13 1.43 10.11
9/14/2022 8:30:00 AM 13.9 57.02 0.123 7.14 1.34 10.18
9/14/2022 8:45:00 AM 13.95 57.11 0.123 7.16 1.35 10.25
9/14/2022 9:00:00 AM 14 57.2 0.123 7.18 1.31 10.3
9/14/2022 9:15:00 AM 14.07 57.326 0.123 7.19 1.26 10.38
9/14/2022 9:30:00 AM 14.15 57.47 0.122 7.21 1.3 10.45
9/14/2022 9:45:00 AM 14.25 57.65 0.122 7.23 2.21 10.52
9/14/2022 10:00:00 AM 14.36 57.848 0.122 7.25 1.31 10.59
9/14/2022 10:15:00 AM 14.47 58.046 0.121 7.43 1.33 10.63
9/14/2022 10:30:00 AM 14.59 58.262 0.121 7.3 1.24 10.68
9/14/2022 10:45:00 AM 14.73 58.514 0.121 7.32 1.3 10.68
9/14/2022 11:00:00 AM 14.93 58.874 0.12 7.34 1.38 10.69
9/14/2022 11:15:00 AM 15.12 59.216 0.12 7.35 1.33 10.69
9/14/2022 11:30:00 AM 15.37 59.666 0.12 7.38 1.46 10.74
9/14/2022 11:45:00 AM 15.64 60.152 0.119 7.41 1.36 10.78
9/14/2022 12:00:00 PM 15.91 60.638 0.118 7.45 1.37 10.79
9/14/2022 12:15:00 PM 16.21 61.178 0.118 7.48 1.37 10.77
9/14/2022 12:30:00 PM 16.47 61.646 0.118 7.48 1.35 10.71
9/14/2022 12:45:00 PM 16.65 61.97 0.118 7.5 1.3 10.64
9/14/2022 1:00:00 PM 16.81 62.258 0.118 7.5 1.35 10.61
9/14/2022 1:15:00 PM 17.01 62.618 0.118 7.53 1.32 10.57
9/14/2022 1:30:00 PM 17.19 62.942 0.118 7.53 1.37 10.53
9/14/2022 1:45:00 PM 17.35 63.23 0.118 7.55 1.4 10.47
9/14/2022 2:00:00 PM 17.54 63.572 0.118 7.54 1.4 10.43
9/14/2022 2:15:00 PM 17.68 63.824 0.118 7.51 1.29 10.38
9/14/2022 2:30:00 PM 17.82 64.076 0.118 7.54 1.36 10.28
9/14/2022 2:45:00 PM 17.99 64.382 0.118 7.56 1.41 10.31
9/14/2022 3:00:00 PM 18.16 64.688 0.118 7.53 1.38 10.22
9/14/2022 3:15:00 PM 18.3 64.94 0.118 7.51 1.35 10.18
9/14/2022 3:30:00 PM 18.47 65.246 0.118 7.53 1.49 10.11
9/14/2022 3:45:00 PM 18.58 65.444 0.118 7.55 1.38 10.06
9/14/2022 4:00:00 PM 18.65 65.57 0.118 7.51 1.34 9.98
9/14/2022 4:15:00 PM 18.71 65.67799 0.118 7.48 1.44 9.87
9/14/2022 4:30:00 PM 18.74 65.732 0.118 7.46 1.43 9.83
9/14/2022 4:45:00 PM 18.81 65.858 0.119 7.47 1.64 9.81
9/14/2022 5:00:00 PM 18.79 65.82201 0.119 7.44 1.63 9.71
9/14/2022 5:15:00 PM 18.82 65.876 0.119 7.45 1.41 9.7
9/14/2022 5:30:00 PM 18.72 65.696 0.119 7.35 1.58 9.48
9/14/2022 5:45:00 PM 18.66 65.588 0.119 7.34 1.57 9.46
9/14/2022 6:00:00 PM 18.62 65.516 0.119 7.37 1.42 9.5
9/14/2022 6:15:00 PM 18.57 65.426 0.119 7.36 1.53 9.47
9/14/2022 6:30:00 PM 18.48 65.264 0.119 7.31 1.52 9.39
9/14/2022 6:45:00 PM 18.32 64.976 0.119 7.31 1.67 9.37
9/14/2022 7:00:00 PM 18.16 64.688 0.12 7.29 1.47 9.32
9/14/2022 7:15:00 PM 18 64.4 0.12 7.26 1.38 9.27
9/14/2022 7:30:00 PM 17.83 64.094 0.12 7.22 1.81 9.22
9/14/2022 7:45:00 PM 17.68 63.824 0.12 7.2 1.63 9.11
9/14/2022 8:00:00 PM 17.53 63.554 0.121 7.19 1.66 9.13
9/14/2022 8:15:00 PM 17.36 63.248 0.121 7.17 2.1 9.07
9/14/2022 8:30:00 PM 17.23 63.014 0.121 7.14 1.45 9.05
9/14/2022 8:45:00 PM 17.1 62.78 0.122 7.14 1.71 9.05
9/14/2022 9:00:00 PM 17.01 62.618 0.122 7.14 1.64 9.07
9/14/2022 9:15:00 PM 16.89 62.402 0.122 7.14 1.65 9.08
9/14/2022 9:30:00 PM 16.79 62.222 0.122 7.14 1.73 9.11
9/14/2022 9:45:00 PM 16.67 62.006 0.122 7.14 1.41 9.14
9/14/2022 10:00:00 PM 16.55 61.79 0.122 7.13 1.62 9.15
9/14/2022 10:15:00 PM 16.46 61.628 0.122 7.13 4.1 9.16
9/14/2022 10:30:00 PM 16.36 61.448 0.123 7.14 1.43 9.24
9/14/2022 10:45:00 PM 16.29 61.322 0.123 7.14 1.27 9.25
9/14/2022 11:00:00 PM 16.21 61.178 0.123 7.14 1.29 9.31
9/14/2022 11:15:00 PM 16.15 61.07 0.123 7.14 1.46 9.3
9/14/2022 11:30:00 PM 16.09 60.962 0.123 7.14 1.36 9.34
9/14/2022 11:45:00 PM 16.02 60.836 0.123 7.14 1.33 9.34
9/15/2022 12:00:00 AM 15.95 60.71 0.123 7.13 1.36 9.38
9/15/2022 12:15:00 AM 15.87 60.566 0.123 7.13 1.29 9.39
9/15/2022 12:30:00 AM 15.8 60.44 0.123 7.13 1.43 9.4
9/15/2022 12:45:00 AM 15.73 60.314 0.123 7.13 1.34 9.41
9/15/2022 1:00:00 AM 15.65 60.17 0.123 7.13 1.43 9.44
9/15/2022 1:15:00 AM 15.57 60.026 0.123 7.13 1.5 9.45
9/15/2022 1:30:00 AM 15.48 59.864 0.123 7.13 1.43 9.46
9/15/2022 1:45:00 AM 15.41 59.738 0.123 7.13 1.61 9.49
9/15/2022 2:00:00 AM 15.33 59.594 0.123 7.13 1.47 9.52
9/15/2022 2:15:00 AM 15.27 59.486 0.123 7.13 1.47 9.53
9/15/2022 2:30:00 AM 15.2 59.36 0.123 7.13 1.32 9.57
9/15/2022 2:45:00 AM 15.14 59.252 0.123 7.13 1.45 9.58
9/15/2022 3:00:00 AM 15.09 59.162 0.123 7.13 1.52 9.59
9/15/2022 3:15:00 AM 15.02 59.036 0.123 7.14 1.33 9.61
9/15/2022 3:30:00 AM 14.96 58.928 0.123 7.14 1.37 9.63
9/15/2022 3:45:00 AM 14.9 58.82 0.123 7.14 1.37 9.64
9/15/2022 4:00:00 AM 14.82 58.676 0.123 7.14 1.29 9.65
9/15/2022 4:15:00 AM 14.73 58.514 0.123 7.13 1.35 9.67
9/15/2022 4:30:00 AM 14.63 58.334 0.123 7.14 1.31 9.71
9/15/2022 4:45:00 AM 14.54 58.172 0.123 7.13 1.34 9.72
9/15/2022 5:00:00 AM 14.43 57.974 0.123 7.13 1.44 9.75
9/15/2022 5:15:00 AM 14.34 57.812 0.123 7.13 1.46 9.75
9/15/2022 5:30:00 AM 14.25 57.65 0.123 7.13 1.35 9.78
9/15/2022 5:45:00 AM 14.14 57.452 0.122 7.13 1.36 9.8
9/15/2022 6:00:00 AM 14.05 57.29 0.122 7.12 1.33 9.82
9/15/2022 6:15:00 AM 13.97 57.146 0.122 7.13 1.36 9.86
9/15/2022 6:30:00 AM 13.88 56.984 0.122 7.13 1.81 9.85
9/15/2022 6:45:00 AM 13.79 56.822 0.122 7.12 1.28 9.89
9/15/2022 7:00:00 AM 13.73 56.714 0.122 7.13 1.42 9.94
9/15/2022 7:15:00 AM 13.68 56.624 0.122 7.13 1.33 9.96
9/15/2022 7:30:00 AM 13.63 56.534 0.122 7.13 1.23 10.01
9/15/2022 7:45:00 AM 13.61 56.498 0.122 7.14 1.3 10.11
9/15/2022 8:00:00 AM 13.6 56.48 0.122 7.15 1.34 10.15
9/15/2022 8:15:00 AM 13.6 56.48 0.122 7.15 1.24 10.23
9/15/2022 8:30:00 AM 13.62 56.516 0.122 7.18 1.25 10.35
9/15/2022 8:45:00 AM 13.64 56.552 0.122 7.18 1.32 10.4
9/15/2022 9:00:00 AM 13.64 56.552 0.122 7.2 1.26 10.47
9/15/2022 9:15:00 AM 13.63 56.534 0.122 7.23 1.28 10.51
9/15/2022 9:30:00 AM 13.65 56.57 0.121 7.22 1.42 10.55
9/15/2022 9:45:00 AM 13.71 56.678 0.121 7.25 1.31 10.59
9/15/2022 10:00:00 AM 13.82 56.876 0.121 7.26 1.4 10.68
9/15/2022 10:15:00 AM 13.92 57.056 0.121 7.28 1.35 10.71
9/15/2022 10:30:00 AM 14.04 57.272 0.12 7.29 1.46 10.77
9/15/2022 10:45:00 AM 14.13 57.434 0.12 7.31 1.44 10.77
9/15/2022 11:00:00 AM 14.27 57.686 0.12 7.31 1.47 10.78
9/15/2022 11:15:00 AM 14.43 57.974 0.12 7.31 1.33 10.81
9/15/2022 11:30:00 AM 14.58 58.244 0.12 7.33 1.34 10.81
9/15/2022 11:45:00 AM 14.76 58.568 0.119 7.36 1.25 10.8
9/15/2022 12:00:00 PM 14.96 58.928 0.119 7.37 1.29 10.76
9/15/2022 12:15:00 PM 15.19 59.342 0.118 7.4 1.29 10.75
9/15/2022 12:30:00 PM 15.43 59.774 0.118 7.38 1.24 10.7
9/15/2022 12:45:00 PM 15.64 60.152 0.118 7.39 1.31 10.65
9/15/2022 1:00:00 PM 15.85 60.53 0.118 7.4 1.3 10.62
9/15/2022 1:15:00 PM 16.1 60.98 0.117 7.41 1.31 10.59
9/15/2022 1:30:00 PM 16.28 61.304 0.117 7.42 1.26 10.54
9/15/2022 1:45:00 PM 16.49 61.682 0.117 7.42 1.33 10.48
9/15/2022 2:00:00 PM 16.65 61.97 0.117 7.43 1.32 10.41
9/15/2022 2:15:00 PM 16.84 62.312 0.117 7.43 1.22 10.37
9/15/2022 2:30:00 PM 16.96 62.528 0.117 7.43 1.22 10.32
9/15/2022 2:45:00 PM 17.15 62.87 0.117 7.44 1.38 10.31
9/15/2022 3:00:00 PM 17.33 63.194 0.117 7.46 1.26 10.25
9/15/2022 3:15:00 PM 17.45 63.41 0.117 7.45 1.27 10.2
9/15/2022 3:30:00 PM 17.52 63.536 0.117 7.45 1.24 10.14
9/15/2022 3:45:00 PM 17.59 63.662 0.117 7.44 1.36 10.1
9/15/2022 4:00:00 PM 17.66 63.788 0.117 7.44 1.45 10.06
9/15/2022 4:15:00 PM 17.69 63.842 0.117 7.44 1.38 10.01
9/15/2022 4:30:00 PM 17.71 63.878 0.117 7.42 1.43 9.93
9/15/2022 4:45:00 PM 17.75 63.95 0.117 7.41 1.41 9.91
9/15/2022 5:00:00 PM 17.78 64.004 0.117 7.42 1.26 9.87
9/15/2022 5:15:00 PM 17.77 63.986 0.117 7.41 1.29 9.82
9/15/2022 5:30:00 PM 17.73 63.914 0.117 7.4 1.22 9.79
9/15/2022 5:45:00 PM 17.69 63.842 0.117 7.39 1.39 9.74
9/15/2022 6:00:00 PM 17.62 63.716 0.117 7.38 1.35 9.71
9/15/2022 6:15:00 PM 17.56 63.608 0.117 7.36 1.3 9.66
9/15/2022 6:30:00 PM 17.48 63.464 0.117 7.34 1.29 9.61
9/15/2022 6:45:00 PM 17.34 63.212 0.117 7.27 1.36 9.45
9/15/2022 7:00:00 PM 17.17 62.906 0.118 7.26 1.5 9.46
9/15/2022 7:15:00 PM 16.97 62.546 0.118 7.23 1.3 9.39
9/15/2022 7:30:00 PM 16.73 62.114 0.118 7.25 1.45 9.48
9/15/2022 7:45:00 PM 16.51 61.718 0.118 7.21 1.43 9.38
9/15/2022 8:00:00 PM 16.28 61.304 0.119 7.2 1.56 9.36
9/15/2022 8:15:00 PM 16.05 60.89 0.119 7.19 2.97 9.36
9/15/2022 8:30:00 PM 15.84 60.512 0.119 7.19 2.32 9.38
9/15/2022 8:45:00 PM 15.61 60.098 0.119 7.17 42.56 9.39
9/15/2022 9:00:00 PM 15.42 59.756 0.119 7.17 1.52 9.49
9/15/2022 9:15:00 PM 15.27 59.486 0.12 7.17 1.95 9.5
9/15/2022 9:30:00 PM 15.16 59.288 0.12 7.15 1.55 9.48
9/15/2022 9:45:00 PM 15.02 59.036 0.12 7.13 1.44 9.47
9/15/2022 10:00:00 PM 14.9 58.82 0.12 7.13 1.42 9.43
9/15/2022 10:15:00 PM 14.76 58.568 0.12 7.14 1.46 9.55
9/15/2022 10:30:00 PM 14.61 58.298 0.12 7.15 1.48 9.61
9/15/2022 10:45:00 PM 14.49 58.082 0.12 7.15 1.49 9.64
9/15/2022 11:00:00 PM 14.38 57.884 0.12 7.15 1.39 9.64
9/15/2022 11:15:00 PM 14.26 57.668 0.12 7.14 1.49 9.66
9/15/2022 11:30:00 PM 14.13 57.434 0.12 7.14 1.31 9.68
9/15/2022 11:45:00 PM 14.05 57.29 0.12 7.14 1.63 9.73
9/16/2022 12:00:00 AM 13.93 57.074 0.12 7.14 1.33 9.76
9/16/2022 12:15:00 AM 13.83 56.894 0.12 7.14 1.4 9.77
9/16/2022 12:30:00 AM 13.72 56.696 0.12 7.13 1.58 9.77
9/16/2022 12:45:00 AM 13.62 56.516 0.12 7.13 2.31 9.78
9/16/2022 1:00:00 AM 13.5 56.3 0.12 7.13 1.31 9.86
9/16/2022 1:15:00 AM 13.41 56.138 0.12 7.12 1.37 9.86
9/16/2022 1:30:00 AM 13.31 55.958 0.12 7.13 1.36 9.89
9/16/2022 1:45:00 AM 13.2 55.76 0.12 7.14 1.43 9.95
9/16/2022 2:00:00 AM 13.09 55.562 0.12 7.12 1.39 9.94
9/16/2022 2:15:00 AM 12.99 55.382 0.12 7.1 1.38 9.97
9/16/2022 2:30:00 AM 12.91 55.238 0.12 7.09 1.4 10.01
9/16/2022 2:45:00 AM 12.81 55.058 0.12 7.08 1.34 10.04
9/16/2022 3:00:00 AM 12.72 54.896 0.12 7.08 1.33 10.09
9/16/2022 3:15:00 AM 12.62 54.716 0.12 7.07 1.41 10.11
9/16/2022 3:30:00 AM 12.51 54.518 0.12 7.09 1.33 10.16
9/16/2022 3:45:00 AM 12.43 54.374 0.12 7.09 1.36 10.16
9/16/2022 4:00:00 AM 12.31 54.158 0.12 7.09 1.24 10.21
9/16/2022 4:15:00 AM 12.22 53.996 0.12 7.09 1.4 10.23
9/16/2022 4:30:00 AM 12.13 53.834 0.12 7.08 1.27 10.25
9/16/2022 4:45:00 AM 12.05 53.69 0.12 7.09 1.24 10.27
9/16/2022 5:00:00 AM 11.97 53.546 0.12 7.09 1.27 10.29
9/16/2022 5:15:00 AM 11.88 53.384 0.12 7.09 1.36 10.33
9/16/2022 5:30:00 AM 11.8 53.24 0.12 7.1 1.23 10.35
9/16/2022 5:45:00 AM 11.71 53.078 0.12 7.1 1.34 10.39
9/16/2022 6:00:00 AM 11.62 52.916 0.12 7.1 1.21 10.41
9/16/2022 6:15:00 AM 11.54 52.772 0.12 7.1 1.27 10.45
9/16/2022 6:30:00 AM 11.46 52.628 0.12 7.11 1.29 10.47
9/16/2022 6:45:00 AM 11.37 52.466 0.12 7.1 1.34 10.5
9/16/2022 7:00:00 AM 11.3 52.34 0.12 7.11 1.19 10.52
9/16/2022 7:15:00 AM 11.21 52.178 0.12 7.11 1.26 10.56
9/16/2022 7:30:00 AM 11.17 52.106 0.12 7.11 1.21 10.59
9/16/2022 7:45:00 AM 11.07 51.926 0.12 7.12 1.19 10.67
9/16/2022 8:00:00 AM 11.02 51.836 0.12 7.13 1.23 10.74
9/16/2022 8:15:00 AM 10.97 51.746 0.119 7.15 1.18 10.83
9/16/2022 8:30:00 AM 10.96 51.728 0.119 7.17 1.17 10.93
9/16/2022 8:45:00 AM 10.97 51.746 0.119 7.18 1.11 11.03
9/16/2022 9:00:00 AM 11 51.8 0.119 7.21 1.27 11.14
9/16/2022 9:15:00 AM 11.07 51.926 0.119 7.23 1.14 11.21
9/16/2022 9:30:00 AM 11.17 52.106 0.119 7.25 1.24 11.29
9/16/2022 9:45:00 AM 11.28 52.304 0.118 7.27 1.21 11.34
9/16/2022 10:00:00 AM 11.41 52.538 0.118 7.29 1.25 11.41
9/16/2022 10:15:00 AM 11.6 52.88 0.117 7.32 1.27 11.46
9/16/2022 10:30:00 AM 11.79 53.222 0.117 7.35 1.25 11.49
9/16/2022 10:45:00 AM 12.02 53.636 0.117 7.37 1.23 11.54
9/16/2022 11:00:00 AM 12.28 54.104 0.116 7.39 1.21 11.54
9/16/2022 11:15:00 AM 12.48 54.464 0.116 7.39 1.19 11.53
9/16/2022 11:30:00 AM 12.73 54.914 0.116 7.45 1.18 11.59
9/16/2022 11:45:00 AM 13.02 55.436 0.116 7.47 1.17 11.52
9/16/2022 12:00:00 PM 13.25 55.85 0.115 7.46 1.21 11.45
9/16/2022 12:15:00 PM 13.48 56.264 0.115 7.5 1.14 11.47
9/16/2022 12:30:00 PM 13.87 56.966 0.114 7.52 1.33 11.4
9/16/2022 12:45:00 PM 14.21 57.578 0.114 7.52 1.19 11.34
9/16/2022 1:00:00 PM 14.49 58.082 0.114 7.54 1.29 11.31
9/16/2022 1:15:00 PM 14.75 58.55 0.114 7.54 1.29 11.19
9/16/2022 1:30:00 PM 15.02 59.036 0.114 7.55 1.18 11.12
9/16/2022 1:45:00 PM 15.29 59.522 0.113 7.56 1.31 11.03
9/16/2022 2:00:00 PM 15.53 59.954 0.113 7.55 1.22 10.95
9/16/2022 2:15:00 PM 15.79 60.422 0.113 7.57 1.28 10.91
9/16/2022 2:30:00 PM 16.01 60.818 0.113 7.56 1.37 10.86
9/16/2022 2:45:00 PM 16.26 61.268 0.113 7.56 1.3 10.74
9/16/2022 3:00:00 PM 16.46 61.628 0.113 7.6 1.36 10.67
9/16/2022 3:15:00 PM 16.59 61.862 0.114 7.56 1.18 10.59
9/16/2022 3:30:00 PM 16.73 62.114 0.114 7.55 1.27 10.55
9/16/2022 3:45:00 PM 16.83 62.294 0.114 7.53 1.28 10.47
9/16/2022 4:00:00 PM 16.93 62.474 0.114 7.52 1.38 10.4
9/16/2022 4:15:00 PM 16.98 62.564 0.114 7.52 1.27 10.34
9/16/2022 4:30:00 PM 17.02 62.636 0.114 7.48 1.37 10.28
9/16/2022 4:45:00 PM 17.05 62.69 0.114 7.48 1.48 10.21
9/16/2022 5:00:00 PM 17.05 62.69 0.114 7.49 1.32 10.16
9/16/2022 5:15:00 PM 17.04 62.672 0.114 7.45 1.4 10.11
9/16/2022 5:30:00 PM 17.02 62.636 0.114 7.44 1.36 10.07
9/16/2022 5:45:00 PM 16.97 62.546 0.114 7.42 1.31 10.02
9/16/2022 6:00:00 PM 16.92 62.456 0.114 7.4 1.29 10
9/16/2022 6:15:00 PM 16.88 62.384 0.114 7.39 1.27 9.95
9/16/2022 6:30:00 PM 16.8 62.24 0.114 7.38 1.26 9.88
9/16/2022 6:45:00 PM 16.72 62.096 0.115 7.33 1.31 9.83
9/16/2022 7:00:00 PM 16.63 61.934 0.115 7.31 1.44 9.72
9/16/2022 7:15:00 PM 16.48 61.664 0.115 7.24 1.42 9.54
9/16/2022 7:30:00 PM 16.4 61.52 0.115 7.26 1.28 9.58
9/16/2022 7:45:00 PM 16.29 61.322 0.115 7.23 1.31 9.49
9/16/2022 8:00:00 PM 16.15 61.07 0.116 7.18 1.95 9.39
9/16/2022 8:15:00 PM 15.99 60.782 0.116 7.17 1.24 9.34
9/16/2022 8:30:00 PM 15.87 60.566 0.116 7.16 1.34 9.28
9/16/2022 8:45:00 PM 15.77 60.386 0.117 7.13 1.54 9.27
9/16/2022 9:00:00 PM 15.63 60.134 0.117 7.11 1.5 9.21
9/16/2022 9:15:00 PM 15.49 59.882 0.118 7.11 1.35 9.25
9/16/2022 9:30:00 PM 15.4 59.72 0.118 7.11 1.4 9.33
9/16/2022 9:45:00 PM 15.31 59.558 0.118 7.11 1.73 9.28
9/16/2022 10:00:00 PM 15.21 59.378 0.118 7.12 1.43 9.3
9/16/2022 10:15:00 PM 15.1 59.18 0.118 7.11 1.74 9.4
9/16/2022 10:30:00 PM 15.02 59.036 0.118 7.13 1.35 9.44
9/16/2022 10:45:00 PM 14.94 58.892 0.118 7.13 1.49 9.49
9/16/2022 11:00:00 PM 14.86 58.748 0.118 7.13 1.31 9.48
9/16/2022 11:15:00 PM 14.79 58.622 0.118 7.12 1.41 9.5
9/16/2022 11:30:00 PM 14.72 58.496 0.118 7.13 1.41 9.51
9/16/2022 11:45:00 PM 14.65 58.37 0.118 7.12 1.24 9.53
9/17/2022 12:00:00 AM 14.59 58.262 0.118 7.12 1.32 9.56
9/17/2022 12:15:00 AM 14.52 58.136 0.118 7.13 1.3 9.59
9/17/2022 12:30:00 AM 14.46 58.028 0.118 7.13 1.39 9.59
9/17/2022 12:45:00 AM 14.4 57.92 0.118 7.11 1.41 9.59
9/17/2022 1:00:00 AM 14.31 57.758 0.119 7.12 2.11 9.62
9/17/2022 1:15:00 AM 14.25 57.65 0.119 7.11 1.4 9.65
9/17/2022 1:30:00 AM 14.18 57.524 0.119 7.12 1.59 9.59
9/17/2022 1:45:00 AM 14.11 57.398 0.119 7.12 1.33 9.67
9/17/2022 2:00:00 AM 14.01 57.218 0.119 7.12 1.25 9.73
9/17/2022 2:15:00 AM 13.96 57.128 0.119 7.12 1.31 9.74
9/17/2022 2:30:00 AM 13.9 57.02 0.119 7.1 1.37 9.74
9/17/2022 2:45:00 AM 13.82 56.876 0.119 7.12 1.43 9.75
9/17/2022 3:00:00 AM 13.76 56.768 0.119 7.11 1.39 9.76
9/17/2022 3:15:00 AM 13.68 56.624 0.119 7.11 1.29 9.8
9/17/2022 3:30:00 AM 13.61 56.498 0.119 7.11 1.41 9.81
9/17/2022 3:45:00 AM 13.54 56.372 0.119 7.11 1.41 9.84
9/17/2022 4:00:00 AM 13.48 56.264 0.119 7.12 1.29 9.88
9/17/2022 4:15:00 AM 13.42 56.156 0.119 7.12 1.25 9.89
9/17/2022 4:30:00 AM 13.37 56.066 0.119 7.12 1.33 9.9
9/17/2022 4:45:00 AM 13.33 55.994 0.119 7.1 2.26 9.87
9/17/2022 5:00:00 AM 13.3 55.94 0.119 7.11 3.06 9.89
9/17/2022 5:15:00 AM 13.26 55.868 0.119 7.12 1.3 9.95
9/17/2022 5:30:00 AM 13.24 55.832 0.119 7.12 2.82 9.95
9/17/2022 5:45:00 AM 13.21 55.778 0.119 7.12 1.28 9.96
9/17/2022 6:00:00 AM 13.19 55.742 0.119 7.12 1.25 9.99
9/17/2022 6:15:00 AM 13.17 55.706 0.119 7.12 1.29 9.97
9/17/2022 6:30:00 AM 13.16 55.688 0.119 7.12 1.2 9.99
9/17/2022 6:45:00 AM 13.14 55.652 0.119 7.13 1.23 10.02
9/17/2022 7:00:00 AM 13.13 55.634 0.119 7.13 1.24 9.99
9/17/2022 7:15:00 AM 13.12 55.616 0.119 7.13 1.26 9.99
9/17/2022 7:30:00 AM 13.11 55.598 0.118 7.14 1.31 10.04
9/17/2022 7:45:00 AM 13.11 55.598 0.118 7.14 1.21 10.09
9/17/2022 8:00:00 AM 13.11 55.598 0.118 7.14 1.23 10.1
9/17/2022 8:15:00 AM 13.11 55.598 0.118 7.16 1.26 10.19
9/17/2022 8:30:00 AM 13.12 55.616 0.118 7.17 1.69 10.32
9/17/2022 8:45:00 AM 13.14 55.652 0.118 7.18 1.33 10.37
9/17/2022 9:00:00 AM 13.16 55.688 0.118 7.2 1.21 10.45
9/17/2022 9:15:00 AM 13.21 55.778 0.118 7.21 1.22 10.52
9/17/2022 9:30:00 AM 13.27 55.886 0.118 7.23 1.22 10.66
9/17/2022 9:45:00 AM 13.34 56.012 0.117 7.27 1.18 10.77
9/17/2022 10:00:00 AM 13.42 56.156 0.117 7.28 1.33 10.84
9/17/2022 10:15:00 AM 13.54 56.372 0.117 7.3 1.24 10.95
9/17/2022 10:30:00 AM 13.72 56.696 0.116 7.34 1.22 11.01
9/17/2022 10:45:00 AM 13.91 57.038 0.116 7.37 1.31 11.05
9/17/2022 11:00:00 AM 14.14 57.452 0.115 7.38 1.33 11.07
9/17/2022 11:15:00 AM 14.33 57.794 0.115 7.39 1.22 11.06
9/17/2022 11:30:00 AM 14.49 58.082 0.115 7.41 1.23 11.06
9/17/2022 11:45:00 AM 14.72 58.496 0.114 7.47 1.25 11.08
9/17/2022 12:00:00 PM 14.97 58.946 0.113 7.45 1.2 11.09
9/17/2022 12:15:00 PM 15.27 59.486 0.112 7.49 1.46 11.03
9/17/2022 12:30:00 PM 15.61 60.098 0.112 7.49 1.26 10.91
9/17/2022 12:45:00 PM 15.93 60.674 0.112 7.49 1.93 10.94
9/17/2022 1:00:00 PM 16.19 61.142 0.111 7.5 1.14 10.82
9/17/2022 1:15:00 PM 16.46 61.628 0.111 7.54 1.17 10.83
9/17/2022 1:30:00 PM 16.74 62.132 0.111 7.54 1.15 10.73
9/17/2022 1:45:00 PM 17.02 62.636 0.111 7.55 1.33 10.64
9/17/2022 2:00:00 PM 17.27 63.086 0.111 7.53 1.21 10.55
9/17/2022 2:15:00 PM 17.49 63.482 0.111 7.56 1.28 10.48
9/17/2022 2:30:00 PM 17.7 63.86 0.111 7.55 1.21 10.4
9/17/2022 2:45:00 PM 17.9 64.22 0.111 7.54 1.17 10.32
9/17/2022 3:00:00 PM 18.07 64.526 0.111 7.54 1.23 10.26
9/17/2022 3:15:00 PM 18.23 64.814 0.111 7.57 1.38 10.25
9/17/2022 3:30:00 PM 18.35 65.03 0.112 7.57 1.15 10.17
9/17/2022 3:45:00 PM 18.43 65.174 0.112 7.52 1.13 10.07
9/17/2022 4:00:00 PM 18.51 65.318 0.112 7.5 1.2 9.98
9/17/2022 4:15:00 PM 18.62 65.516 0.112 7.51 1.39 9.92
9/17/2022 4:30:00 PM 18.69 65.642 0.112 7.47 1.37 9.79
9/17/2022 4:45:00 PM 18.71 65.67799 0.112 7.44 1.51 9.74
9/17/2022 5:00:00 PM 18.78 65.804 0.112 7.46 1.38 9.71
9/17/2022 5:15:00 PM 18.79 65.82201 0.112 7.44 1.42 9.63
9/17/2022 5:30:00 PM 18.81 65.858 0.113 7.43 1.26 9.58
9/17/2022 5:45:00 PM 18.78 65.804 0.113 7.37 1.61 9.44
9/17/2022 6:00:00 PM 18.75 65.75 0.113 7.34 2.21 9.39
9/17/2022 6:15:00 PM 18.74 65.732 0.113 7.31 1.38 9.27
9/17/2022 6:30:00 PM 18.64 65.552 0.113 7.22 1.65 9.06
9/17/2022 6:45:00 PM 18.52 65.336 0.113 7.12 2.35 8.78
9/17/2022 7:00:00 PM 18.39 65.102 0.113 7.12 1.41 8.68
9/17/2022 7:15:00 PM 18.22 64.796 0.113 7.11 1.75 8.69
9/17/2022 7:30:00 PM 18.06 64.508 0.114 7.13 1.47 8.71
9/17/2022 7:45:00 PM 17.87 64.166 0.114 7.14 1.48 8.9
9/17/2022 8:00:00 PM 17.7 63.86 0.114 7.14 1.46 8.85
9/17/2022 8:15:00 PM 17.49 63.482 0.114 7.15 2.1 8.91
9/17/2022 8:30:00 PM 17.32 63.176 0.115 7.16 1.42 8.97
9/17/2022 8:45:00 PM 17.14 62.852 0.115 7.15 1.64 8.98
9/17/2022 9:00:00 PM 16.99 62.582 0.115 7.11 1.82 8.83
9/17/2022 9:15:00 PM 16.86 62.348 0.115 7.07 1.98 8.71
9/17/2022 9:30:00 PM 16.72 62.096 0.116 7.04 1.94 8.58
9/17/2022 9:45:00 PM 16.61 61.898 0.116 7.04 3.3 8.74
9/17/2022 10:00:00 PM 16.5 61.7 0.116 7 1.43 8.75
9/17/2022 10:15:00 PM 16.42 61.556 0.116 7.04 1.65 8.77
9/17/2022 10:30:00 PM 16.32 61.376 0.116 7 2.34 8.68
9/17/2022 10:45:00 PM 16.25 61.25 0.116 7.07 1.55 8.97
9/17/2022 11:00:00 PM 16.16 61.088 0.116 7.1 1.53 9.06
9/17/2022 11:15:00 PM 16.08 60.944 0.116 7.08 1.4 9.06
9/17/2022 11:30:00 PM 16 60.8 0.116 7.1 1.56 9.14
9/17/2022 11:45:00 PM 15.92 60.656 0.116 7.09 1.53 9.1
9/18/2022 12:00:00 AM 15.84 60.512 0.116 7.09 1.48 9.12
9/18/2022 12:15:00 AM 15.77 60.386 0.117 7.09 1.4 9.11
9/18/2022 12:30:00 AM 15.7 60.26 0.117 7.09 1.42 9.18
9/18/2022 12:45:00 AM 15.63 60.134 0.117 7.08 1.66 9.15
9/18/2022 1:00:00 AM 15.57 60.026 0.117 7.09 1.39 9.19
9/18/2022 1:15:00 AM 15.49 59.882 0.117 7.08 1.4 9.21
9/18/2022 1:30:00 AM 15.43 59.774 0.117 7.08 1.67 9.22
9/18/2022 1:45:00 AM 15.35 59.63 0.117 7.08 1.46 9.22
9/18/2022 2:00:00 AM 15.28 59.504 0.117 7.08 1.42 9.25
9/18/2022 2:15:00 AM 15.2 59.36 0.117 7.07 1.44 9.28
9/18/2022 2:30:00 AM 15.13 59.234 0.117 7.08 1.74 9.27
9/18/2022 2:45:00 AM 15.04 59.072 0.117 7.08 1.49 9.32
9/18/2022 3:00:00 AM 14.98 58.964 0.117 7.08 1.39 9.32
9/18/2022 3:15:00 AM 14.9 58.82 0.117 7.08 1.63 9.34
9/18/2022 3:30:00 AM 14.83 58.694 0.117 7.08 1.52 9.37
9/18/2022 3:45:00 AM 14.76 58.568 0.117 7.08 1.38 9.4
9/18/2022 4:00:00 AM 14.67 58.406 0.117 7.08 1.37 9.43
9/18/2022 4:15:00 AM 14.62 58.316 0.117 7.08 2.12 9.45
9/18/2022 4:30:00 AM 14.55 58.19 0.117 7.08 1.38 9.43
9/18/2022 4:45:00 AM 14.49 58.082 0.117 7.05 1.49 9.44
9/18/2022 5:00:00 AM 14.42 57.956 0.117 7.08 1.41 9.47
9/18/2022 5:15:00 AM 14.35 57.83 0.117 7.09 1.34 9.53
9/18/2022 5:30:00 AM 14.3 57.74 0.117 7.09 1.59 9.55
9/18/2022 5:45:00 AM 14.24 57.632 0.117 7.08 1.45 9.56
9/18/2022 6:00:00 AM 14.19 57.542 0.117 7.09 1.31 9.59
9/18/2022 6:15:00 AM 14.14 57.452 0.116 7.08 2.55 9.55
9/18/2022 6:30:00 AM 14.1 57.38 0.116 7.06 2.5 9.43
9/18/2022 6:45:00 AM 14.06 57.308 0.116 7.07 1.4 9.61
9/18/2022 7:00:00 AM 14.04 57.272 0.116 7.08 1.46 9.64
9/18/2022 7:15:00 AM 14.01 57.218 0.116 7.09 1.31 9.68
9/18/2022 7:30:00 AM 13.98 57.164 0.116 7.1 1.3 9.7
9/18/2022 7:45:00 AM 13.98 57.164 0.116 7.1 1.47 9.74
9/18/2022 8:00:00 AM 13.97 57.146 0.116 7.11 1.28 9.79
9/18/2022 8:15:00 AM 13.97 57.146 0.116 7.11 1.37 9.88
9/18/2022 8:30:00 AM 13.99 57.182 0.116 7.12 1.47 9.95
9/18/2022 8:45:00 AM 14.02 57.236 0.116 7.14 1.21 10.05
9/18/2022 9:00:00 AM 14.05 57.29 0.116 7.16 1.33 10.11
9/18/2022 9:15:00 AM 14.08 57.344 0.116 7.18 1.29 10.2
9/18/2022 9:30:00 AM 14.15 57.47 0.116 7.22 1.39 10.34
9/18/2022 9:45:00 AM 14.3 57.74 0.115 7.25 1.26 10.51
9/18/2022 10:00:00 AM 14.47 58.046 0.115 7.29 1.24 10.6
9/18/2022 10:15:00 AM 14.68 58.424 0.114 7.36 1.25 10.77
9/18/2022 10:30:00 AM 14.86 58.748 0.113 7.37 1.27 10.79
9/18/2022 10:45:00 AM 15.06 59.108 0.112 7.37 1.24 10.83
9/18/2022 11:00:00 AM 15.34 59.612 0.112 7.4 1.32 10.81
9/18/2022 11:15:00 AM 15.57 60.026 0.112 7.42 1.21 10.83
9/18/2022 11:30:00 AM 15.85 60.53 0.111 7.45 1.33 10.88
9/18/2022 11:45:00 AM 16.14 61.052 0.11 7.5 1.27 10.87
9/18/2022 12:00:00 PM 16.45 61.61 0.109 7.52 1.68 10.86
9/18/2022 12:15:00 PM 16.67 62.006 0.109 7.49 1.26 10.74
9/18/2022 12:30:00 PM 16.81 62.258 0.11 7.48 1.43 10.6
9/18/2022 12:45:00 PM 16.88 62.384 0.11 7.45 1.25 10.45
9/18/2022 1:00:00 PM 16.99 62.582 0.11 7.46 1.37 10.4

These are provisional data and have not been subject to a quality assurance process, but rather are the raw data reported by the instrument.
H: value is above sensor operating range
L: value is below sensor operating range
Offline: station is not reporting data
NC: parameter is not collected at site

Data Availability & Limitations

Uncertainty and potential for error can be associated with environmental monitoring data. Provisional data have not been subject to a quality assurance process, but rather are the raw data reported by the instrument. Data users are cautioned to consider carefully the provisional nature of the information before using it for decisions that concern personal or public safety or the conduct of business that involves substantial monetary or operational consequences.

Approved data are currently available by request by emailing: [email protected]. Approved data have been subject to a quality assurance process to correct for equipment or fouling drift. Data recorded during equipment malfunctions have been removed.

View Historical Stations that have been discontinued.